<?xml version="1.0" encoding="UTF-8" standalone="no" ?>
<gpx xmlns="http://www.topografix.com/GPX/1/1" xmlns:xsi="http://www.w3.org/2001/XMLSchema-instance" xsi:schemaLocation="http://www.topografix.com/GPX/1/1 http://www.topografix.com/GPX/1/1/gpx.xsd" version="1.1" creator="VisuGPX - https://www.visugpx.com">
  <metadata>
    <name>Peyrus2</name>
    <desc><![CDATA[Au opied du limouche]]></desc>
  </metadata>
  <trk>
    <name><![CDATA[Peyrus Voir le creterium]]></name>
    <trkseg>
      <trkpt lat="45.11433" lon="4.96265">
        <ele>230.27099609375</ele>
        <time>2009-06-10T11:15:37Z</time>
      </trkpt>
      <trkpt lat="45.11425" lon="4.96247">
        <ele>230.86500549316</ele>
        <time>2009-06-10T11:15:41Z</time>
      </trkpt>
      <trkpt lat="45.11398" lon="4.96191">
        <ele>230.60499572754</ele>
        <time>2009-06-10T11:15:53Z</time>
      </trkpt>
      <trkpt lat="45.11341" lon="4.96082">
        <ele>229.06599426269</ele>
        <time>2009-06-10T11:16:12Z</time>
      </trkpt>
      <trkpt lat="45.11318" lon="4.96046">
        <ele>229.13200378418</ele>
        <time>2009-06-10T11:16:18Z</time>
      </trkpt>
      <trkpt lat="45.1131" lon="4.96034">
        <ele>228.52900695801</ele>
        <time>2009-06-10T11:16:20Z</time>
      </trkpt>
      <trkpt lat="45.11274" lon="4.95973">
        <ele>227.86999511719</ele>
        <time>2009-06-10T11:16:30Z</time>
      </trkpt>
      <trkpt lat="45.11254" lon="4.95939">
        <ele>226.97300720215</ele>
        <time>2009-06-10T11:16:35Z</time>
      </trkpt>
      <trkpt lat="45.11191" lon="4.95844">
        <ele>226.18699645996</ele>
        <time>2009-06-10T11:16:49Z</time>
      </trkpt>
      <trkpt lat="45.11152" lon="4.95784">
        <ele>226.90899658203</ele>
        <time>2009-06-10T11:16:58Z</time>
      </trkpt>
      <trkpt lat="45.11092" lon="4.95684">
        <ele>227.35499572754</ele>
        <time>2009-06-10T11:17:13Z</time>
      </trkpt>
      <trkpt lat="45.11042" lon="4.95634">
        <ele>226.78999328613</ele>
        <time>2009-06-10T11:17:23Z</time>
      </trkpt>
      <trkpt lat="45.10973" lon="4.95535">
        <ele>225.34300231934</ele>
        <time>2009-06-10T11:17:39Z</time>
      </trkpt>
      <trkpt lat="45.10941" lon="4.9542">
        <ele>223.67700195312</ele>
        <time>2009-06-10T11:17:51Z</time>
      </trkpt>
      <trkpt lat="45.10898" lon="4.953">
        <ele>223.71699523926</ele>
        <time>2009-06-10T11:18:05Z</time>
      </trkpt>
      <trkpt lat="45.10884" lon="4.95281">
        <ele>223.46800231934</ele>
        <time>2009-06-10T11:18:08Z</time>
      </trkpt>
      <trkpt lat="45.1086" lon="4.95249">
        <ele>222.67100524902</ele>
        <time>2009-06-10T11:18:13Z</time>
      </trkpt>
      <trkpt lat="45.10836" lon="4.95218">
        <ele>224.11500549316</ele>
        <time>2009-06-10T11:18:18Z</time>
      </trkpt>
      <trkpt lat="45.10783" lon="4.95156">
        <ele>222.89500427246</ele>
        <time>2009-06-10T11:18:28Z</time>
      </trkpt>
      <trkpt lat="45.10683" lon="4.95081">
        <ele>222.46699523926</ele>
        <time>2009-06-10T11:18:44Z</time>
      </trkpt>
      <trkpt lat="45.10567" lon="4.95029">
        <ele>221.81500244141</ele>
        <time>2009-06-10T11:19:02Z</time>
      </trkpt>
      <trkpt lat="45.10481" lon="4.94992">
        <ele>220.49699401856</ele>
        <time>2009-06-10T11:19:16Z</time>
      </trkpt>
      <trkpt lat="45.10476" lon="4.9499">
        <ele>221.08700561523</ele>
        <time>2009-06-10T11:19:19Z</time>
      </trkpt>
      <trkpt lat="45.10439" lon="4.94968">
        <ele>221.16200256348</ele>
        <time>2009-06-10T11:19:24Z</time>
      </trkpt>
      <trkpt lat="45.10344" lon="4.94905">
        <ele>218.93099975586</ele>
        <time>2009-06-10T11:19:41Z</time>
      </trkpt>
      <trkpt lat="45.10221" lon="4.94832">
        <ele>216.97200012207</ele>
        <time>2009-06-10T11:20:01Z</time>
      </trkpt>
      <trkpt lat="45.10083" lon="4.94733">
        <ele>215.42100524902</ele>
        <time>2009-06-10T11:20:23Z</time>
      </trkpt>
      <trkpt lat="45.09952" lon="4.94612">
        <ele>212.15199279785</ele>
        <time>2009-06-10T11:20:44Z</time>
      </trkpt>
      <trkpt lat="45.09932" lon="4.94586">
        <ele>210.29899597168</ele>
        <time>2009-06-10T11:20:48Z</time>
      </trkpt>
      <trkpt lat="45.09888" lon="4.94528">
        <ele>208.90299987793</ele>
        <time>2009-06-10T11:20:56Z</time>
      </trkpt>
      <trkpt lat="45.09842" lon="4.94472">
        <ele>208.79100036621</ele>
        <time>2009-06-10T11:21:05Z</time>
      </trkpt>
      <trkpt lat="45.09773" lon="4.94451">
        <ele>209.99099731445</ele>
        <time>2009-06-10T11:21:17Z</time>
      </trkpt>
      <trkpt lat="45.09763" lon="4.94445">
        <ele>210.44000244141</ele>
        <time>2009-06-10T11:21:21Z</time>
      </trkpt>
      <trkpt lat="45.09674" lon="4.94442">
        <ele>209.80000305176</ele>
        <time>2009-06-10T11:21:36Z</time>
      </trkpt>
      <trkpt lat="45.09538" lon="4.94431">
        <ele>209.20799255371</ele>
        <time>2009-06-10T11:22:00Z</time>
      </trkpt>
      <trkpt lat="45.09435" lon="4.94415">
        <ele>207.60400390625</ele>
        <time>2009-06-10T11:22:18Z</time>
      </trkpt>
      <trkpt lat="45.09424" lon="4.94412">
        <ele>207.82499694824</ele>
        <time>2009-06-10T11:22:20Z</time>
      </trkpt>
      <trkpt lat="45.09348" lon="4.9439">
        <ele>208.44000244141</ele>
        <time>2009-06-10T11:22:35Z</time>
      </trkpt>
      <trkpt lat="45.09317" lon="4.94377">
        <ele>209.78900146484</ele>
        <time>2009-06-10T11:22:42Z</time>
      </trkpt>
      <trkpt lat="45.09272" lon="4.94357">
        <ele>209.78199768066</ele>
        <time>2009-06-10T11:22:52Z</time>
      </trkpt>
      <trkpt lat="45.09181" lon="4.94343">
        <ele>206.38600158691</ele>
        <time>2009-06-10T11:23:08Z</time>
      </trkpt>
      <trkpt lat="45.09147" lon="4.94347">
        <ele>204.34599304199</ele>
        <time>2009-06-10T11:23:13Z</time>
      </trkpt>
      <trkpt lat="45.09132" lon="4.9435">
        <ele>202.71600341797</ele>
        <time>2009-06-10T11:23:19Z</time>
      </trkpt>
      <trkpt lat="45.09064" lon="4.94316">
        <ele>201.77499389648</ele>
        <time>2009-06-10T11:23:23Z</time>
      </trkpt>
      <trkpt lat="45.08985" lon="4.94431">
        <ele>198.60499572754</ele>
        <time>2009-06-10T11:23:35Z</time>
      </trkpt>
      <trkpt lat="45.08884" lon="4.94497">
        <ele>196.9109954834</ele>
        <time>2009-06-10T11:23:52Z</time>
      </trkpt>
      <trkpt lat="45.08879" lon="4.94501">
        <ele>196.95599365234</ele>
        <time>2009-06-10T11:23:53Z</time>
      </trkpt>
      <trkpt lat="45.08859" lon="4.94486">
        <ele>196.04400634766</ele>
        <time>2009-06-10T11:23:58Z</time>
      </trkpt>
      <trkpt lat="45.08848" lon="4.94451">
        <ele>196.73100280762</ele>
        <time>2009-06-10T11:24:03Z</time>
      </trkpt>
      <trkpt lat="45.08842" lon="4.94388">
        <ele>197.85299682617</ele>
        <time>2009-06-10T11:24:13Z</time>
      </trkpt>
      <trkpt lat="45.08841" lon="4.94382">
        <ele>198.41200256348</ele>
        <time>2009-06-10T11:24:14Z</time>
      </trkpt>
      <trkpt lat="45.08836" lon="4.94368">
        <ele>199.12600708008</ele>
        <time>2009-06-10T11:24:17Z</time>
      </trkpt>
      <trkpt lat="45.08828" lon="4.9437">
        <ele>199.60600280762</ele>
        <time>2009-06-10T11:24:20Z</time>
      </trkpt>
      <trkpt lat="45.08794" lon="4.94375">
        <ele>200.13900756836</ele>
        <time>2009-06-10T11:24:28Z</time>
      </trkpt>
      <trkpt lat="45.08732" lon="4.94384">
        <ele>200.02600097656</ele>
        <time>2009-06-10T11:24:40Z</time>
      </trkpt>
      <trkpt lat="45.08631" lon="4.944">
        <ele>199.71299743652</ele>
        <time>2009-06-10T11:25:00Z</time>
      </trkpt>
      <trkpt lat="45.08554" lon="4.94414">
        <ele>197.96000671387</ele>
        <time>2009-06-10T11:25:14Z</time>
      </trkpt>
      <trkpt lat="45.08457" lon="4.94409">
        <ele>197.47099304199</ele>
        <time>2009-06-10T11:25:32Z</time>
      </trkpt>
      <trkpt lat="45.08352" lon="4.94423">
        <ele>196.80000305176</ele>
        <time>2009-06-10T11:25:51Z</time>
      </trkpt>
      <trkpt lat="45.08279" lon="4.94474">
        <ele>196.82400512695</ele>
        <time>2009-06-10T11:26:08Z</time>
      </trkpt>
      <trkpt lat="45.08255" lon="4.94488">
        <ele>198.36500549316</ele>
        <time>2009-06-10T11:26:14Z</time>
      </trkpt>
      <trkpt lat="45.08224" lon="4.94546">
        <ele>196.35200500488</ele>
        <time>2009-06-10T11:26:26Z</time>
      </trkpt>
      <trkpt lat="45.08208" lon="4.94593">
        <ele>194.35600280762</ele>
        <time>2009-06-10T11:26:32Z</time>
      </trkpt>
      <trkpt lat="45.08203" lon="4.94613">
        <ele>193.4880065918</ele>
        <time>2009-06-10T11:26:34Z</time>
      </trkpt>
      <trkpt lat="45.08198" lon="4.94634">
        <ele>192.51100158691</ele>
        <time>2009-06-10T11:26:36Z</time>
      </trkpt>
      <trkpt lat="45.08194" lon="4.94656">
        <ele>191.64399719238</ele>
        <time>2009-06-10T11:26:38Z</time>
      </trkpt>
      <trkpt lat="45.08181" lon="4.94697">
        <ele>190.42599487305</ele>
        <time>2009-06-10T11:26:42Z</time>
      </trkpt>
      <trkpt lat="45.08163" lon="4.94736">
        <ele>190.49699401856</ele>
        <time>2009-06-10T11:26:50Z</time>
      </trkpt>
      <trkpt lat="45.08162" lon="4.94739">
        <ele>190.80900573731</ele>
        <time>2009-06-10T11:26:51Z</time>
      </trkpt>
      <trkpt lat="45.08075" lon="4.94684">
        <ele>192.0950012207</ele>
        <time>2009-06-10T11:27:05Z</time>
      </trkpt>
      <trkpt lat="45.08021" lon="4.94651">
        <ele>192.44700622559</ele>
        <time>2009-06-10T11:27:11Z</time>
      </trkpt>
      <trkpt lat="45.08021" lon="4.94651">
        <ele>193.63999938965</ele>
        <time>2009-06-10T11:27:17Z</time>
      </trkpt>
      <trkpt lat="45.08017" lon="4.94652">
        <ele>193.49499511719</ele>
        <time>2009-06-10T11:27:18Z</time>
      </trkpt>
      <trkpt lat="45.07993" lon="4.94655">
        <ele>193.21200561523</ele>
        <time>2009-06-10T11:27:24Z</time>
      </trkpt>
      <trkpt lat="45.07969" lon="4.94659">
        <ele>192.43400573731</ele>
        <time>2009-06-10T11:27:29Z</time>
      </trkpt>
      <trkpt lat="45.07926" lon="4.94665">
        <ele>191.45300292969</ele>
        <time>2009-06-10T11:27:37Z</time>
      </trkpt>
      <trkpt lat="45.07815" lon="4.94681">
        <ele>189.97300720215</ele>
        <time>2009-06-10T11:27:57Z</time>
      </trkpt>
      <trkpt lat="45.07719" lon="4.94673">
        <ele>188.32400512695</ele>
        <time>2009-06-10T11:28:14Z</time>
      </trkpt>
      <trkpt lat="45.07631" lon="4.94695">
        <ele>188.37800598144</ele>
        <time>2009-06-10T11:28:31Z</time>
      </trkpt>
      <trkpt lat="45.07591" lon="4.94708">
        <ele>188.26699829102</ele>
        <time>2009-06-10T11:28:39Z</time>
      </trkpt>
      <trkpt lat="45.07563" lon="4.94716">
        <ele>187.56199645996</ele>
        <time>2009-06-10T11:28:45Z</time>
      </trkpt>
      <trkpt lat="45.07553" lon="4.9472">
        <ele>188.05299377441</ele>
        <time>2009-06-10T11:28:49Z</time>
      </trkpt>
      <trkpt lat="45.07481" lon="4.94647">
        <ele>191.54299926758</ele>
        <time>2009-06-10T11:29:07Z</time>
      </trkpt>
      <trkpt lat="45.07463" lon="4.94629">
        <ele>192.46699523926</ele>
        <time>2009-06-10T11:29:14Z</time>
      </trkpt>
      <trkpt lat="45.07396" lon="4.94651">
        <ele>189.66600036621</ele>
        <time>2009-06-10T11:29:25Z</time>
      </trkpt>
      <trkpt lat="45.07363" lon="4.94675">
        <ele>189.38299560547</ele>
        <time>2009-06-10T11:29:31Z</time>
      </trkpt>
      <trkpt lat="45.07355" lon="4.94695">
        <ele>189.89999389648</ele>
        <time>2009-06-10T11:29:34Z</time>
      </trkpt>
      <trkpt lat="45.07338" lon="4.94738">
        <ele>190.02400207519</ele>
        <time>2009-06-10T11:29:41Z</time>
      </trkpt>
      <trkpt lat="45.07315" lon="4.94796">
        <ele>187.69200134277</ele>
        <time>2009-06-10T11:29:49Z</time>
      </trkpt>
      <trkpt lat="45.07265" lon="4.9485">
        <ele>185.74200439453</ele>
        <time>2009-06-10T11:29:58Z</time>
      </trkpt>
      <trkpt lat="45.07227" lon="4.94891">
        <ele>185.40299987793</ele>
        <time>2009-06-10T11:30:05Z</time>
      </trkpt>
      <trkpt lat="45.07193" lon="4.94939">
        <ele>184.18099975586</ele>
        <time>2009-06-10T11:30:12Z</time>
      </trkpt>
      <trkpt lat="45.07173" lon="4.94968">
        <ele>183.71000671387</ele>
        <time>2009-06-10T11:30:16Z</time>
      </trkpt>
      <trkpt lat="45.07108" lon="4.95056">
        <ele>182.01600646973</ele>
        <time>2009-06-10T11:30:30Z</time>
      </trkpt>
      <trkpt lat="45.07094" lon="4.95066">
        <ele>179.78900146484</ele>
        <time>2009-06-10T11:30:33Z</time>
      </trkpt>
      <trkpt lat="45.07004" lon="4.95109">
        <ele>179.19200134277</ele>
        <time>2009-06-10T11:30:49Z</time>
      </trkpt>
      <trkpt lat="45.06974" lon="4.95119">
        <ele>179.93600463867</ele>
        <time>2009-06-10T11:30:54Z</time>
      </trkpt>
      <trkpt lat="45.06956" lon="4.95125">
        <ele>179.72500610352</ele>
        <time>2009-06-10T11:30:57Z</time>
      </trkpt>
      <trkpt lat="45.06887" lon="4.95142">
        <ele>179.09199523926</ele>
        <time>2009-06-10T11:31:08Z</time>
      </trkpt>
      <trkpt lat="45.0677" lon="4.95156">
        <ele>177.1609954834</ele>
        <time>2009-06-10T11:31:26Z</time>
      </trkpt>
      <trkpt lat="45.06643" lon="4.9518">
        <ele>176.41299438477</ele>
        <time>2009-06-10T11:31:47Z</time>
      </trkpt>
      <trkpt lat="45.06579" lon="4.95195">
        <ele>176.96600341797</ele>
        <time>2009-06-10T11:31:58Z</time>
      </trkpt>
      <trkpt lat="45.06486" lon="4.95218">
        <ele>179.00199890137</ele>
        <time>2009-06-10T11:32:15Z</time>
      </trkpt>
      <trkpt lat="45.06457" lon="4.9523">
        <ele>179.86500549316</ele>
        <time>2009-06-10T11:32:22Z</time>
      </trkpt>
      <trkpt lat="45.06445" lon="4.95237">
        <ele>179.70700073242</ele>
        <time>2009-06-10T11:32:25Z</time>
      </trkpt>
      <trkpt lat="45.0642" lon="4.95251">
        <ele>178.55499267578</ele>
        <time>2009-06-10T11:32:30Z</time>
      </trkpt>
      <trkpt lat="45.06376" lon="4.95319">
        <ele>173.82200622559</ele>
        <time>2009-06-10T11:32:40Z</time>
      </trkpt>
      <trkpt lat="45.06373" lon="4.95357">
        <ele>172.56100463867</ele>
        <time>2009-06-10T11:32:45Z</time>
      </trkpt>
      <trkpt lat="45.06351" lon="4.9537">
        <ele>172.14599609375</ele>
        <time>2009-06-10T11:32:48Z</time>
      </trkpt>
      <trkpt lat="45.06312" lon="4.95383">
        <ele>171.96099853516</ele>
        <time>2009-06-10T11:32:56Z</time>
      </trkpt>
      <trkpt lat="45.06229" lon="4.95406">
        <ele>172.42900085449</ele>
        <time>2009-06-10T11:33:11Z</time>
      </trkpt>
      <trkpt lat="45.0621" lon="4.95385">
        <ele>171.64599609375</ele>
        <time>2009-06-10T11:33:16Z</time>
      </trkpt>
      <trkpt lat="45.06177" lon="4.95356">
        <ele>173.50100708008</ele>
        <time>2009-06-10T11:33:24Z</time>
      </trkpt>
      <trkpt lat="45.06133" lon="4.95357">
        <ele>172.68899536133</ele>
        <time>2009-06-10T11:33:32Z</time>
      </trkpt>
      <trkpt lat="45.06063" lon="4.95362">
        <ele>172.74899291992</ele>
        <time>2009-06-10T11:33:44Z</time>
      </trkpt>
      <trkpt lat="45.06038" lon="4.9536">
        <ele>173.36000061035</ele>
        <time>2009-06-10T11:33:49Z</time>
      </trkpt>
      <trkpt lat="45.05952" lon="4.95307">
        <ele>171.81100463867</ele>
        <time>2009-06-10T11:34:06Z</time>
      </trkpt>
      <trkpt lat="45.05851" lon="4.95245">
        <ele>168.10200500488</ele>
        <time>2009-06-10T11:34:23Z</time>
      </trkpt>
      <trkpt lat="45.05836" lon="4.95235">
        <ele>167.74099731445</ele>
        <time>2009-06-10T11:34:25Z</time>
      </trkpt>
      <trkpt lat="45.05783" lon="4.95171">
        <ele>170.20100402832</ele>
        <time>2009-06-10T11:34:36Z</time>
      </trkpt>
      <trkpt lat="45.05764" lon="4.95142">
        <ele>170.80200195312</ele>
        <time>2009-06-10T11:34:41Z</time>
      </trkpt>
      <trkpt lat="45.05746" lon="4.95127">
        <ele>172.02799987793</ele>
        <time>2009-06-10T11:34:45Z</time>
      </trkpt>
      <trkpt lat="45.05673" lon="4.95106">
        <ele>169.05799865723</ele>
        <time>2009-06-10T11:34:58Z</time>
      </trkpt>
      <trkpt lat="45.05622" lon="4.95078">
        <ele>165.94400024414</ele>
        <time>2009-06-10T11:35:05Z</time>
      </trkpt>
      <trkpt lat="45.05597" lon="4.95063">
        <ele>163.74000549316</ele>
        <time>2009-06-10T11:35:08Z</time>
      </trkpt>
      <trkpt lat="45.0555" lon="4.95037">
        <ele>164.11399841309</ele>
        <time>2009-06-10T11:35:14Z</time>
      </trkpt>
      <trkpt lat="45.05498" lon="4.95007">
        <ele>166.9700012207</ele>
        <time>2009-06-10T11:35:23Z</time>
      </trkpt>
      <trkpt lat="45.0544" lon="4.94996">
        <ele>167.78700256348</ele>
        <time>2009-06-10T11:35:35Z</time>
      </trkpt>
      <trkpt lat="45.05414" lon="4.94991">
        <ele>166.52699279785</ele>
        <time>2009-06-10T11:35:40Z</time>
      </trkpt>
      <trkpt lat="45.05383" lon="4.94971">
        <ele>165.57200622559</ele>
        <time>2009-06-10T11:35:46Z</time>
      </trkpt>
      <trkpt lat="45.05369" lon="4.9496">
        <ele>165.42999267578</ele>
        <time>2009-06-10T11:35:50Z</time>
      </trkpt>
      <trkpt lat="45.05342" lon="4.94938">
        <ele>164.91900634766</ele>
        <time>2009-06-10T11:35:56Z</time>
      </trkpt>
      <trkpt lat="45.05334" lon="4.94928">
        <ele>164.56199645996</ele>
        <time>2009-06-10T11:35:58Z</time>
      </trkpt>
      <trkpt lat="45.05317" lon="4.94908">
        <ele>164.19900512695</ele>
        <time>2009-06-10T11:36:05Z</time>
      </trkpt>
      <trkpt lat="45.05281" lon="4.94858">
        <ele>164.72500610352</ele>
        <time>2009-06-10T11:36:11Z</time>
      </trkpt>
      <trkpt lat="45.05275" lon="4.9483">
        <ele>165.39199829102</ele>
        <time>2009-06-10T11:36:15Z</time>
      </trkpt>
      <trkpt lat="45.05267" lon="4.94787">
        <ele>167.56799316406</ele>
        <time>2009-06-10T11:36:22Z</time>
      </trkpt>
      <trkpt lat="45.05264" lon="4.94778">
        <ele>167.45500183106</ele>
        <time>2009-06-10T11:36:24Z</time>
      </trkpt>
      <trkpt lat="45.05257" lon="4.94771">
        <ele>168.14999389648</ele>
        <time>2009-06-10T11:36:28Z</time>
      </trkpt>
      <trkpt lat="45.05223" lon="4.94773">
        <ele>168.47999572754</ele>
        <time>2009-06-10T11:36:39Z</time>
      </trkpt>
      <trkpt lat="45.05214" lon="4.94772">
        <ele>168.64100646973</ele>
        <time>2009-06-10T11:36:41Z</time>
      </trkpt>
      <trkpt lat="45.05139" lon="4.94742">
        <ele>167.76600646973</ele>
        <time>2009-06-10T11:36:57Z</time>
      </trkpt>
      <trkpt lat="45.05035" lon="4.94722">
        <ele>165.44700622559</ele>
        <time>2009-06-10T11:37:14Z</time>
      </trkpt>
      <trkpt lat="45.0494" lon="4.9466">
        <ele>164.78199768066</ele>
        <time>2009-06-10T11:37:31Z</time>
      </trkpt>
      <trkpt lat="45.04829" lon="4.94576">
        <ele>164.34300231934</ele>
        <time>2009-06-10T11:37:53Z</time>
      </trkpt>
      <trkpt lat="45.04695" lon="4.94475">
        <ele>163.39199829102</ele>
        <time>2009-06-10T11:38:18Z</time>
      </trkpt>
      <trkpt lat="45.04539" lon="4.94395">
        <ele>162.41700744629</ele>
        <time>2009-06-10T11:38:45Z</time>
      </trkpt>
      <trkpt lat="45.04417" lon="4.94314">
        <ele>162.60699462891</ele>
        <time>2009-06-10T11:39:07Z</time>
      </trkpt>
      <trkpt lat="45.04301" lon="4.94202">
        <ele>162.41900634766</ele>
        <time>2009-06-10T11:39:30Z</time>
      </trkpt>
      <trkpt lat="45.0418" lon="4.94084">
        <ele>160.8390045166</ele>
        <time>2009-06-10T11:39:52Z</time>
      </trkpt>
      <trkpt lat="45.04044" lon="4.93948">
        <ele>160.10699462891</ele>
        <time>2009-06-10T11:40:17Z</time>
      </trkpt>
      <trkpt lat="45.03945" lon="4.93833">
        <ele>160.15400695801</ele>
        <time>2009-06-10T11:40:36Z</time>
      </trkpt>
      <trkpt lat="45.03851" lon="4.93735">
        <ele>159.52799987793</ele>
        <time>2009-06-10T11:40:53Z</time>
      </trkpt>
      <trkpt lat="45.0374" lon="4.93644">
        <ele>159.25999450684</ele>
        <time>2009-06-10T11:41:12Z</time>
      </trkpt>
      <trkpt lat="45.03611" lon="4.93513">
        <ele>158.50199890137</ele>
        <time>2009-06-10T11:41:35Z</time>
      </trkpt>
      <trkpt lat="45.03476" lon="4.93358">
        <ele>157.42599487305</ele>
        <time>2009-06-10T11:42:00Z</time>
      </trkpt>
      <trkpt lat="45.0336" lon="4.93211">
        <ele>156.99099731445</ele>
        <time>2009-06-10T11:42:22Z</time>
      </trkpt>
      <trkpt lat="45.03253" lon="4.93123">
        <ele>156.97900390625</ele>
        <time>2009-06-10T11:42:40Z</time>
      </trkpt>
      <trkpt lat="45.03236" lon="4.9311">
        <ele>156.57299804688</ele>
        <time>2009-06-10T11:42:45Z</time>
      </trkpt>
      <trkpt lat="45.0321" lon="4.93076">
        <ele>157.01400756836</ele>
        <time>2009-06-10T11:42:49Z</time>
      </trkpt>
      <trkpt lat="45.0318" lon="4.93051">
        <ele>157.08799743652</ele>
        <time>2009-06-10T11:42:55Z</time>
      </trkpt>
      <trkpt lat="45.03155" lon="4.93073">
        <ele>156.47599792481</ele>
        <time>2009-06-10T11:43:00Z</time>
      </trkpt>
      <trkpt lat="45.03035" lon="4.93086">
        <ele>156.16299438477</ele>
        <time>2009-06-10T11:43:19Z</time>
      </trkpt>
      <trkpt lat="45.02899" lon="4.93133">
        <ele>155.99699401856</ele>
        <time>2009-06-10T11:43:39Z</time>
      </trkpt>
      <trkpt lat="45.02766" lon="4.93221">
        <ele>155.57899475098</ele>
        <time>2009-06-10T11:43:59Z</time>
      </trkpt>
      <trkpt lat="45.0262" lon="4.93322">
        <ele>152.94999694824</ele>
        <time>2009-06-10T11:44:21Z</time>
      </trkpt>
      <trkpt lat="45.02496" lon="4.93363">
        <ele>153.30599975586</ele>
        <time>2009-06-10T11:44:39Z</time>
      </trkpt>
      <trkpt lat="45.02368" lon="4.93362">
        <ele>153.52900695801</ele>
        <time>2009-06-10T11:44:57Z</time>
      </trkpt>
      <trkpt lat="45.02245" lon="4.93355">
        <ele>153.78700256348</ele>
        <time>2009-06-10T11:45:18Z</time>
      </trkpt>
      <trkpt lat="45.02142" lon="4.93418">
        <ele>153.60800170898</ele>
        <time>2009-06-10T11:45:32Z</time>
      </trkpt>
      <trkpt lat="45.02005" lon="4.93533">
        <ele>151.82699584961</ele>
        <time>2009-06-10T11:45:54Z</time>
      </trkpt>
      <trkpt lat="45.01953" lon="4.93584">
        <ele>149.86399841309</ele>
        <time>2009-06-10T11:46:02Z</time>
      </trkpt>
      <trkpt lat="45.01872" lon="4.93671">
        <ele>149.61700439453</ele>
        <time>2009-06-10T11:46:14Z</time>
      </trkpt>
      <trkpt lat="45.01748" lon="4.93765">
        <ele>146.58200073242</ele>
        <time>2009-06-10T11:46:31Z</time>
      </trkpt>
      <trkpt lat="45.01657" lon="4.93848">
        <ele>146.32299804688</ele>
        <time>2009-06-10T11:46:47Z</time>
      </trkpt>
      <trkpt lat="45.01614" lon="4.93887">
        <ele>146.50300598144</ele>
        <time>2009-06-10T11:46:54Z</time>
      </trkpt>
      <trkpt lat="45.01568" lon="4.93922">
        <ele>148.5119934082</ele>
        <time>2009-06-10T11:47:03Z</time>
      </trkpt>
      <trkpt lat="45.01558" lon="4.9393">
        <ele>149.57200622559</ele>
        <time>2009-06-10T11:47:07Z</time>
      </trkpt>
      <trkpt lat="45.01532" lon="4.93958">
        <ele>151.43699645996</ele>
        <time>2009-06-10T11:47:13Z</time>
      </trkpt>
      <trkpt lat="45.01521" lon="4.93971">
        <ele>152.88999938965</ele>
        <time>2009-06-10T11:47:17Z</time>
      </trkpt>
      <trkpt lat="45.01515" lon="4.93977">
        <ele>154.26499938965</ele>
        <time>2009-06-10T11:47:21Z</time>
      </trkpt>
      <trkpt lat="45.01515" lon="4.93977">
        <ele>154.52000427246</ele>
        <time>2009-06-10T11:47:22Z</time>
      </trkpt>
      <trkpt lat="45.01493" lon="4.94008">
        <ele>156.76499938965</ele>
        <time>2009-06-10T11:47:29Z</time>
      </trkpt>
      <trkpt lat="45.01489" lon="4.94047">
        <ele>159.44599914551</ele>
        <time>2009-06-10T11:47:39Z</time>
      </trkpt>
      <trkpt lat="45.015" lon="4.94073">
        <ele>160.95399475098</ele>
        <time>2009-06-10T11:47:44Z</time>
      </trkpt>
      <trkpt lat="45.01521" lon="4.94127">
        <ele>163.56100463867</ele>
        <time>2009-06-10T11:47:56Z</time>
      </trkpt>
      <trkpt lat="45.01532" lon="4.94156">
        <ele>164.77099609375</ele>
        <time>2009-06-10T11:48:06Z</time>
      </trkpt>
      <trkpt lat="45.01549" lon="4.94203">
        <ele>167.30700683594</ele>
        <time>2009-06-10T11:48:18Z</time>
      </trkpt>
      <trkpt lat="45.01569" lon="4.94255">
        <ele>169.72500610352</ele>
        <time>2009-06-10T11:48:31Z</time>
      </trkpt>
      <trkpt lat="45.01581" lon="4.9431">
        <ele>171.29400634766</ele>
        <time>2009-06-10T11:48:43Z</time>
      </trkpt>
      <trkpt lat="45.0158" lon="4.94374">
        <ele>173.54800415039</ele>
        <time>2009-06-10T11:48:56Z</time>
      </trkpt>
      <trkpt lat="45.01571" lon="4.94398">
        <ele>175.22999572754</ele>
        <time>2009-06-10T11:49:07Z</time>
      </trkpt>
      <trkpt lat="45.01537" lon="4.9449">
        <ele>178.30000305176</ele>
        <time>2009-06-10T11:49:22Z</time>
      </trkpt>
      <trkpt lat="45.0152" lon="4.9456">
        <ele>181.81100463867</ele>
        <time>2009-06-10T11:49:35Z</time>
      </trkpt>
      <trkpt lat="45.01489" lon="4.94649">
        <ele>185.47399902344</ele>
        <time>2009-06-10T11:49:51Z</time>
      </trkpt>
      <trkpt lat="45.01459" lon="4.9474">
        <ele>187.88800048828</ele>
        <time>2009-06-10T11:50:08Z</time>
      </trkpt>
      <trkpt lat="45.01426" lon="4.94856">
        <ele>191.91400146484</ele>
        <time>2009-06-10T11:50:29Z</time>
      </trkpt>
      <trkpt lat="45.01377" lon="4.94942">
        <ele>195.68800354004</ele>
        <time>2009-06-10T11:50:48Z</time>
      </trkpt>
      <trkpt lat="45.01302" lon="4.94981">
        <ele>200.60200500488</ele>
        <time>2009-06-10T11:51:08Z</time>
      </trkpt>
      <trkpt lat="45.01292" lon="4.94986">
        <ele>201.96600341797</ele>
        <time>2009-06-10T11:51:11Z</time>
      </trkpt>
      <trkpt lat="45.01204" lon="4.95032">
        <ele>205.53399658203</ele>
        <time>2009-06-10T11:51:34Z</time>
      </trkpt>
      <trkpt lat="45.01177" lon="4.95047">
        <ele>207.58099365234</ele>
        <time>2009-06-10T11:51:41Z</time>
      </trkpt>
      <trkpt lat="45.01155" lon="4.95065">
        <ele>207.92799377441</ele>
        <time>2009-06-10T11:51:47Z</time>
      </trkpt>
      <trkpt lat="45.01134" lon="4.95088">
        <ele>208.30700683594</ele>
        <time>2009-06-10T11:51:53Z</time>
      </trkpt>
      <trkpt lat="45.01094" lon="4.95189">
        <ele>208.96499633789</ele>
        <time>2009-06-10T11:52:09Z</time>
      </trkpt>
      <trkpt lat="45.01086" lon="4.95226">
        <ele>208.96099853516</ele>
        <time>2009-06-10T11:52:14Z</time>
      </trkpt>
      <trkpt lat="45.01079" lon="4.95316">
        <ele>206.83999633789</ele>
        <time>2009-06-10T11:52:25Z</time>
      </trkpt>
      <trkpt lat="45.01077" lon="4.95372">
        <ele>205.14199829102</ele>
        <time>2009-06-10T11:52:31Z</time>
      </trkpt>
      <trkpt lat="45.01072" lon="4.95421">
        <ele>203.48399353027</ele>
        <time>2009-06-10T11:52:36Z</time>
      </trkpt>
      <trkpt lat="45.01062" lon="4.95464">
        <ele>202.15699768066</ele>
        <time>2009-06-10T11:52:40Z</time>
      </trkpt>
      <trkpt lat="45.01049" lon="4.95524">
        <ele>199.77400207519</ele>
        <time>2009-06-10T11:52:45Z</time>
      </trkpt>
      <trkpt lat="45.01043" lon="4.95549">
        <ele>201.19299316406</ele>
        <time>2009-06-10T11:52:47Z</time>
      </trkpt>
      <trkpt lat="45.01035" lon="4.95588">
        <ele>199.19000244141</ele>
        <time>2009-06-10T11:52:50Z</time>
      </trkpt>
      <trkpt lat="45.01032" lon="4.95601">
        <ele>198.30299377441</ele>
        <time>2009-06-10T11:52:51Z</time>
      </trkpt>
      <trkpt lat="45.01017" lon="4.95666">
        <ele>194.4049987793</ele>
        <time>2009-06-10T11:52:56Z</time>
      </trkpt>
      <trkpt lat="45.00998" lon="4.95786">
        <ele>190.63499450684</ele>
        <time>2009-06-10T11:53:05Z</time>
      </trkpt>
      <trkpt lat="45.01001" lon="4.95917">
        <ele>186.27699279785</ele>
        <time>2009-06-10T11:53:15Z</time>
      </trkpt>
      <trkpt lat="45.01009" lon="4.96072">
        <ele>183.44299316406</ele>
        <time>2009-06-10T11:53:27Z</time>
      </trkpt>
      <trkpt lat="45.01009" lon="4.962">
        <ele>182.78100585938</ele>
        <time>2009-06-10T11:53:37Z</time>
      </trkpt>
      <trkpt lat="45.01009" lon="4.96263">
        <ele>182.02200317383</ele>
        <time>2009-06-10T11:53:42Z</time>
      </trkpt>
      <trkpt lat="45.00997" lon="4.96322">
        <ele>182.23399353027</ele>
        <time>2009-06-10T11:53:47Z</time>
      </trkpt>
      <trkpt lat="45.00935" lon="4.96476">
        <ele>181.77499389648</ele>
        <time>2009-06-10T11:54:03Z</time>
      </trkpt>
      <trkpt lat="45.00917" lon="4.9652">
        <ele>180.95599365234</ele>
        <time>2009-06-10T11:54:08Z</time>
      </trkpt>
      <trkpt lat="45.00867" lon="4.96612">
        <ele>181.81599426269</ele>
        <time>2009-06-10T11:54:19Z</time>
      </trkpt>
      <trkpt lat="45.00797" lon="4.96716">
        <ele>180.80299377441</ele>
        <time>2009-06-10T11:54:33Z</time>
      </trkpt>
      <trkpt lat="45.00722" lon="4.96831">
        <ele>180.72700500488</ele>
        <time>2009-06-10T11:54:48Z</time>
      </trkpt>
      <trkpt lat="45.00632" lon="4.97034">
        <ele>181.29800415039</ele>
        <time>2009-06-10T11:55:12Z</time>
      </trkpt>
      <trkpt lat="45.0058" lon="4.97187">
        <ele>184.42300415039</ele>
        <time>2009-06-10T11:55:33Z</time>
      </trkpt>
      <trkpt lat="45.00541" lon="4.97347">
        <ele>186.27400207519</ele>
        <time>2009-06-10T11:55:54Z</time>
      </trkpt>
      <trkpt lat="45.00506" lon="4.97518">
        <ele>188.84599304199</ele>
        <time>2009-06-10T11:56:17Z</time>
      </trkpt>
      <trkpt lat="45.00476" lon="4.9768">
        <ele>188.95599365234</ele>
        <time>2009-06-10T11:56:38Z</time>
      </trkpt>
      <trkpt lat="45.00462" lon="4.9776">
        <ele>188.90199279785</ele>
        <time>2009-06-10T11:56:49Z</time>
      </trkpt>
      <trkpt lat="45.00454" lon="4.97806">
        <ele>188.87100219727</ele>
        <time>2009-06-10T11:56:55Z</time>
      </trkpt>
      <trkpt lat="45.00444" lon="4.97861">
        <ele>188.83500671387</ele>
        <time>2009-06-10T11:57:01Z</time>
      </trkpt>
      <trkpt lat="45.00435" lon="4.97912">
        <ele>188.80000305176</ele>
        <time>2009-06-10T11:57:06Z</time>
      </trkpt>
      <trkpt lat="45.00422" lon="4.97975">
        <ele>188.75199890137</ele>
        <time>2009-06-10T11:57:12Z</time>
      </trkpt>
      <trkpt lat="45.00377" lon="4.98121">
        <ele>188.60099792481</ele>
        <time>2009-06-10T11:57:29Z</time>
      </trkpt>
      <trkpt lat="45.00364" lon="4.98166">
        <ele>183.18899536133</ele>
        <time>2009-06-10T11:57:35Z</time>
      </trkpt>
      <trkpt lat="45.00337" lon="4.98251">
        <ele>182.28399658203</ele>
        <time>2009-06-10T11:57:45Z</time>
      </trkpt>
      <trkpt lat="45.00324" lon="4.98295">
        <ele>181.89399719238</ele>
        <time>2009-06-10T11:57:50Z</time>
      </trkpt>
      <trkpt lat="45.00317" lon="4.98321">
        <ele>181.88000488281</ele>
        <time>2009-06-10T11:57:53Z</time>
      </trkpt>
      <trkpt lat="45.00303" lon="4.98465">
        <ele>181.52299499512</ele>
        <time>2009-06-10T11:58:08Z</time>
      </trkpt>
      <trkpt lat="45.00295" lon="4.98552">
        <ele>181.93400573731</ele>
        <time>2009-06-10T11:58:17Z</time>
      </trkpt>
      <trkpt lat="45.00288" lon="4.98633">
        <ele>182.33099365234</ele>
        <time>2009-06-10T11:58:27Z</time>
      </trkpt>
      <trkpt lat="45.00288" lon="4.98641">
        <ele>182.2859954834</ele>
        <time>2009-06-10T11:58:28Z</time>
      </trkpt>
      <trkpt lat="45.00276" lon="4.9878">
        <ele>182.14999389648</ele>
        <time>2009-06-10T11:58:44Z</time>
      </trkpt>
      <trkpt lat="45.0026" lon="4.98937">
        <ele>181.71299743652</ele>
        <time>2009-06-10T11:59:02Z</time>
      </trkpt>
      <trkpt lat="45.00236" lon="4.99074">
        <ele>181.92599487305</ele>
        <time>2009-06-10T11:59:18Z</time>
      </trkpt>
      <trkpt lat="45.0019" lon="4.99189">
        <ele>181.29299926758</ele>
        <time>2009-06-10T11:59:33Z</time>
      </trkpt>
      <trkpt lat="45.00137" lon="4.99336">
        <ele>180.99699401856</ele>
        <time>2009-06-10T11:59:52Z</time>
      </trkpt>
      <trkpt lat="45.00121" lon="4.99395">
        <ele>182.59899902344</ele>
        <time>2009-06-10T12:00:00Z</time>
      </trkpt>
      <trkpt lat="45.00053" lon="4.99505">
        <ele>185.56100463867</ele>
        <time>2009-06-10T12:00:18Z</time>
      </trkpt>
      <trkpt lat="45.00022" lon="4.99556">
        <ele>183.19799804688</ele>
        <time>2009-06-10T12:00:26Z</time>
      </trkpt>
      <trkpt lat="44.99964" lon="4.99656">
        <ele>182.53700256348</ele>
        <time>2009-06-10T12:00:41Z</time>
      </trkpt>
      <trkpt lat="44.99923" lon="4.99676">
        <ele>182.12300109863</ele>
        <time>2009-06-10T12:00:49Z</time>
      </trkpt>
      <trkpt lat="44.99908" lon="4.99714">
        <ele>181.53399658203</ele>
        <time>2009-06-10T12:00:53Z</time>
      </trkpt>
      <trkpt lat="44.99898" lon="4.99717">
        <ele>180.44999694824</ele>
        <time>2009-06-10T12:00:55Z</time>
      </trkpt>
      <trkpt lat="44.9985" lon="4.99749">
        <ele>177.66999816894</ele>
        <time>2009-06-10T12:01:03Z</time>
      </trkpt>
      <trkpt lat="44.99788" lon="4.99819">
        <ele>177.50700378418</ele>
        <time>2009-06-10T12:01:15Z</time>
      </trkpt>
      <trkpt lat="44.99775" lon="4.99833">
        <ele>177.30200195312</ele>
        <time>2009-06-10T12:01:18Z</time>
      </trkpt>
      <trkpt lat="44.99732" lon="4.99905">
        <ele>177.95500183106</ele>
        <time>2009-06-10T12:01:29Z</time>
      </trkpt>
      <trkpt lat="44.99712" lon="4.99981">
        <ele>180.71499633789</ele>
        <time>2009-06-10T12:01:41Z</time>
      </trkpt>
      <trkpt lat="44.99708" lon="5.00002">
        <ele>182.25</ele>
        <time>2009-06-10T12:01:45Z</time>
      </trkpt>
      <trkpt lat="44.99694" lon="5.00049">
        <ele>182.38499450684</ele>
        <time>2009-06-10T12:01:53Z</time>
      </trkpt>
      <trkpt lat="44.99687" lon="5.00081">
        <ele>181.97399902344</ele>
        <time>2009-06-10T12:01:57Z</time>
      </trkpt>
      <trkpt lat="44.9968" lon="5.00093">
        <ele>181.98699951172</ele>
        <time>2009-06-10T12:01:59Z</time>
      </trkpt>
      <trkpt lat="44.99663" lon="5.00113">
        <ele>183.18299865723</ele>
        <time>2009-06-10T12:02:03Z</time>
      </trkpt>
      <trkpt lat="44.99592" lon="5.00191">
        <ele>183.90199279785</ele>
        <time>2009-06-10T12:02:19Z</time>
      </trkpt>
      <trkpt lat="44.99503" lon="5.00281">
        <ele>182.03799438477</ele>
        <time>2009-06-10T12:02:37Z</time>
      </trkpt>
      <trkpt lat="44.99469" lon="5.00307">
        <ele>181.46600341797</ele>
        <time>2009-06-10T12:02:43Z</time>
      </trkpt>
      <trkpt lat="44.99381" lon="5.00342">
        <ele>180.2140045166</ele>
        <time>2009-06-10T12:02:56Z</time>
      </trkpt>
      <trkpt lat="44.99199" lon="5.004">
        <ele>180.25300598144</ele>
        <time>2009-06-10T12:03:25Z</time>
      </trkpt>
      <trkpt lat="44.99168" lon="5.00431">
        <ele>179.47099304199</ele>
        <time>2009-06-10T12:03:31Z</time>
      </trkpt>
      <trkpt lat="44.99054" lon="5.00551">
        <ele>181.22900390625</ele>
        <time>2009-06-10T12:03:53Z</time>
      </trkpt>
      <trkpt lat="44.98941" lon="5.0065">
        <ele>181.12600708008</ele>
        <time>2009-06-10T12:04:14Z</time>
      </trkpt>
      <trkpt lat="44.98812" lon="5.00747">
        <ele>180.86599731445</ele>
        <time>2009-06-10T12:04:36Z</time>
      </trkpt>
      <trkpt lat="44.98697" lon="5.00848">
        <ele>180.69400024414</ele>
        <time>2009-06-10T12:04:56Z</time>
      </trkpt>
      <trkpt lat="44.98581" lon="5.01014">
        <ele>181.80999755859</ele>
        <time>2009-06-10T12:05:20Z</time>
      </trkpt>
      <trkpt lat="44.98468" lon="5.01174">
        <ele>180.45100402832</ele>
        <time>2009-06-10T12:05:44Z</time>
      </trkpt>
      <trkpt lat="44.98378" lon="5.01306">
        <ele>181.62699890137</ele>
        <time>2009-06-10T12:06:04Z</time>
      </trkpt>
      <trkpt lat="44.98262" lon="5.01475">
        <ele>181.4640045166</ele>
        <time>2009-06-10T12:06:29Z</time>
      </trkpt>
      <trkpt lat="44.98185" lon="5.01586">
        <ele>181.92500305176</ele>
        <time>2009-06-10T12:06:45Z</time>
      </trkpt>
      <trkpt lat="44.98103" lon="5.01691">
        <ele>185.10699462891</ele>
        <time>2009-06-10T12:07:03Z</time>
      </trkpt>
      <trkpt lat="44.98098" lon="5.01695">
        <ele>185.22700500488</ele>
        <time>2009-06-10T12:07:04Z</time>
      </trkpt>
      <trkpt lat="44.98069" lon="5.01726">
        <ele>187.56300354004</ele>
        <time>2009-06-10T12:07:11Z</time>
      </trkpt>
      <trkpt lat="44.98029" lon="5.01765">
        <ele>189.64700317383</ele>
        <time>2009-06-10T12:07:21Z</time>
      </trkpt>
      <trkpt lat="44.97971" lon="5.01828">
        <ele>192.20399475098</ele>
        <time>2009-06-10T12:07:35Z</time>
      </trkpt>
      <trkpt lat="44.9792" lon="5.01919">
        <ele>192.93200683594</ele>
        <time>2009-06-10T12:07:50Z</time>
      </trkpt>
      <trkpt lat="44.97855" lon="5.02068">
        <ele>192.24800109863</ele>
        <time>2009-06-10T12:08:08Z</time>
      </trkpt>
      <trkpt lat="44.97826" lon="5.02136">
        <ele>189.85400390625</ele>
        <time>2009-06-10T12:08:16Z</time>
      </trkpt>
      <trkpt lat="44.97807" lon="5.02179">
        <ele>189.1549987793</ele>
        <time>2009-06-10T12:08:21Z</time>
      </trkpt>
      <trkpt lat="44.97776" lon="5.02256">
        <ele>189.51699829102</ele>
        <time>2009-06-10T12:08:30Z</time>
      </trkpt>
      <trkpt lat="44.97755" lon="5.02305">
        <ele>189.83799743652</ele>
        <time>2009-06-10T12:08:36Z</time>
      </trkpt>
      <trkpt lat="44.97698" lon="5.02438">
        <ele>188.7440032959</ele>
        <time>2009-06-10T12:08:54Z</time>
      </trkpt>
      <trkpt lat="44.97646" lon="5.02556">
        <ele>188.92700195312</ele>
        <time>2009-06-10T12:09:11Z</time>
      </trkpt>
      <trkpt lat="44.97618" lon="5.02617">
        <ele>189.13800048828</ele>
        <time>2009-06-10T12:09:21Z</time>
      </trkpt>
      <trkpt lat="44.97588" lon="5.02698">
        <ele>189.63000488281</ele>
        <time>2009-06-10T12:09:36Z</time>
      </trkpt>
      <trkpt lat="44.97538" lon="5.02753">
        <ele>190.52499389648</ele>
        <time>2009-06-10T12:09:49Z</time>
      </trkpt>
      <trkpt lat="44.97532" lon="5.02774">
        <ele>190.89700317383</ele>
        <time>2009-06-10T12:09:54Z</time>
      </trkpt>
      <trkpt lat="44.97511" lon="5.02768">
        <ele>191.38600158691</ele>
        <time>2009-06-10T12:10:08Z</time>
      </trkpt>
      <trkpt lat="44.97506" lon="5.02766">
        <ele>191.30900573731</ele>
        <time>2009-06-10T12:10:13Z</time>
      </trkpt>
      <trkpt lat="44.97506" lon="5.02766">
        <ele>191.60299682617</ele>
        <time>2009-06-10T12:10:38Z</time>
      </trkpt>
      <trkpt lat="44.97493" lon="5.02762">
        <ele>191.41499328613</ele>
        <time>2009-06-10T12:10:47Z</time>
      </trkpt>
      <trkpt lat="44.97493" lon="5.02762">
        <ele>191.6190032959</ele>
        <time>2009-06-10T12:10:48Z</time>
      </trkpt>
      <trkpt lat="44.97493" lon="5.02762">
        <ele>191.66600036621</ele>
        <time>2009-06-10T12:10:55Z</time>
      </trkpt>
      <trkpt lat="44.9748" lon="5.02755">
        <ele>191.57099914551</ele>
        <time>2009-06-10T12:11:05Z</time>
      </trkpt>
      <trkpt lat="44.97464" lon="5.02747">
        <ele>191.21899414062</ele>
        <time>2009-06-10T12:11:22Z</time>
      </trkpt>
      <trkpt lat="44.97464" lon="5.02747">
        <ele>191.17999267578</ele>
        <time>2009-06-10T12:11:24Z</time>
      </trkpt>
      <trkpt lat="44.97458" lon="5.02745">
        <ele>191.60699462891</ele>
        <time>2009-06-10T12:11:34Z</time>
      </trkpt>
      <trkpt lat="44.97448" lon="5.0274">
        <ele>191.14100646973</ele>
        <time>2009-06-10T12:11:55Z</time>
      </trkpt>
      <trkpt lat="44.97424" lon="5.02729">
        <ele>191.9049987793</ele>
        <time>2009-06-10T12:12:07Z</time>
      </trkpt>
      <trkpt lat="44.97415" lon="5.02715">
        <ele>191.23599243164</ele>
        <time>2009-06-10T12:12:17Z</time>
      </trkpt>
      <trkpt lat="44.9741" lon="5.02722">
        <ele>190.87699890137</ele>
        <time>2009-06-10T12:12:21Z</time>
      </trkpt>
      <trkpt lat="44.97405" lon="5.02717">
        <ele>191.38600158691</ele>
        <time>2009-06-10T12:12:27Z</time>
      </trkpt>
      <trkpt lat="44.97404" lon="5.02717">
        <ele>191.37300109863</ele>
        <time>2009-06-10T12:12:31Z</time>
      </trkpt>
      <trkpt lat="44.97406" lon="5.02718">
        <ele>191.44400024414</ele>
        <time>2009-06-10T12:12:33Z</time>
      </trkpt>
      <trkpt lat="44.97408" lon="5.0272">
        <ele>191.58700561523</ele>
        <time>2009-06-10T12:12:36Z</time>
      </trkpt>
      <trkpt lat="44.97406" lon="5.02718">
        <ele>191.56599426269</ele>
        <time>2009-06-10T12:15:03Z</time>
      </trkpt>
      <trkpt lat="44.97393" lon="5.02708">
        <ele>191.69799804688</ele>
        <time>2009-06-10T12:15:08Z</time>
      </trkpt>
      <trkpt lat="44.97385" lon="5.02702">
        <ele>191.65600585938</ele>
        <time>2009-06-10T12:15:10Z</time>
      </trkpt>
      <trkpt lat="44.97359" lon="5.02685">
        <ele>191.73699951172</ele>
        <time>2009-06-10T12:15:15Z</time>
      </trkpt>
      <trkpt lat="44.97331" lon="5.0267">
        <ele>191.88400268555</ele>
        <time>2009-06-10T12:15:20Z</time>
      </trkpt>
      <trkpt lat="44.97325" lon="5.02667">
        <ele>191.75700378418</ele>
        <time>2009-06-10T12:15:21Z</time>
      </trkpt>
      <trkpt lat="44.97296" lon="5.02651">
        <ele>191.40299987793</ele>
        <time>2009-06-10T12:15:26Z</time>
      </trkpt>
      <trkpt lat="44.97274" lon="5.02651">
        <ele>192.19900512695</ele>
        <time>2009-06-10T12:15:30Z</time>
      </trkpt>
      <trkpt lat="44.97264" lon="5.0267">
        <ele>192.74800109863</ele>
        <time>2009-06-10T12:15:33Z</time>
      </trkpt>
      <trkpt lat="44.97251" lon="5.02695">
        <ele>193.29299926758</ele>
        <time>2009-06-10T12:15:37Z</time>
      </trkpt>
      <trkpt lat="44.97208" lon="5.02765">
        <ele>193.53100585938</ele>
        <time>2009-06-10T12:15:50Z</time>
      </trkpt>
      <trkpt lat="44.97136" lon="5.02858">
        <ele>195.03700256348</ele>
        <time>2009-06-10T12:16:09Z</time>
      </trkpt>
      <trkpt lat="44.97072" lon="5.02933">
        <ele>195.84399414062</ele>
        <time>2009-06-10T12:16:25Z</time>
      </trkpt>
      <trkpt lat="44.96998" lon="5.03019">
        <ele>195.88000488281</ele>
        <time>2009-06-10T12:16:41Z</time>
      </trkpt>
      <trkpt lat="44.96973" lon="5.03096">
        <ele>196.21200561523</ele>
        <time>2009-06-10T12:16:51Z</time>
      </trkpt>
      <trkpt lat="44.96953" lon="5.03129">
        <ele>196.51499938965</ele>
        <time>2009-06-10T12:16:56Z</time>
      </trkpt>
      <trkpt lat="44.96836" lon="5.03183">
        <ele>196.62800598144</ele>
        <time>2009-06-10T12:17:16Z</time>
      </trkpt>
      <trkpt lat="44.96739" lon="5.03233">
        <ele>197.69200134277</ele>
        <time>2009-06-10T12:17:33Z</time>
      </trkpt>
      <trkpt lat="44.967" lon="5.0327">
        <ele>198.29499816894</ele>
        <time>2009-06-10T12:17:41Z</time>
      </trkpt>
      <trkpt lat="44.96616" lon="5.03364">
        <ele>198.23500061035</ele>
        <time>2009-06-10T12:18:00Z</time>
      </trkpt>
      <trkpt lat="44.96573" lon="5.03466">
        <ele>199.11199951172</ele>
        <time>2009-06-10T12:18:15Z</time>
      </trkpt>
      <trkpt lat="44.96525" lon="5.03593">
        <ele>200.20700073242</ele>
        <time>2009-06-10T12:18:33Z</time>
      </trkpt>
      <trkpt lat="44.9646" lon="5.03766">
        <ele>202.45599365234</ele>
        <time>2009-06-10T12:18:58Z</time>
      </trkpt>
      <trkpt lat="44.96401" lon="5.03922">
        <ele>203.95899963379</ele>
        <time>2009-06-10T12:19:20Z</time>
      </trkpt>
      <trkpt lat="44.96375" lon="5.0399">
        <ele>205.38000488281</ele>
        <time>2009-06-10T12:19:30Z</time>
      </trkpt>
      <trkpt lat="44.9636" lon="5.04109">
        <ele>206.29200744629</ele>
        <time>2009-06-10T12:19:46Z</time>
      </trkpt>
      <trkpt lat="44.96347" lon="5.04259">
        <ele>208.19000244141</ele>
        <time>2009-06-10T12:20:05Z</time>
      </trkpt>
      <trkpt lat="44.96341" lon="5.04328">
        <ele>208.97399902344</ele>
        <time>2009-06-10T12:20:14Z</time>
      </trkpt>
      <trkpt lat="44.96332" lon="5.04436">
        <ele>210.43099975586</ele>
        <time>2009-06-10T12:20:29Z</time>
      </trkpt>
      <trkpt lat="44.96324" lon="5.04507">
        <ele>211.38499450684</ele>
        <time>2009-06-10T12:20:38Z</time>
      </trkpt>
      <trkpt lat="44.9632" lon="5.04522">
        <ele>211.91799926758</ele>
        <time>2009-06-10T12:20:40Z</time>
      </trkpt>
      <trkpt lat="44.96307" lon="5.04553">
        <ele>212.68499755859</ele>
        <time>2009-06-10T12:20:45Z</time>
      </trkpt>
      <trkpt lat="44.9627" lon="5.04585">
        <ele>212.52000427246</ele>
        <time>2009-06-10T12:20:54Z</time>
      </trkpt>
      <trkpt lat="44.96244" lon="5.04606">
        <ele>212.89500427246</ele>
        <time>2009-06-10T12:21:00Z</time>
      </trkpt>
      <trkpt lat="44.96212" lon="5.04632">
        <ele>213.33999633789</ele>
        <time>2009-06-10T12:21:07Z</time>
      </trkpt>
      <trkpt lat="44.96151" lon="5.04697">
        <ele>214.27400207519</ele>
        <time>2009-06-10T12:21:22Z</time>
      </trkpt>
      <trkpt lat="44.96111" lon="5.04747">
        <ele>214.98100280762</ele>
        <time>2009-06-10T12:21:32Z</time>
      </trkpt>
      <trkpt lat="44.96048" lon="5.04826">
        <ele>216.93699645996</ele>
        <time>2009-06-10T12:21:49Z</time>
      </trkpt>
      <trkpt lat="44.95982" lon="5.04907">
        <ele>218.63299560547</ele>
        <time>2009-06-10T12:22:06Z</time>
      </trkpt>
      <trkpt lat="44.95909" lon="5.04994">
        <ele>219.96699523926</ele>
        <time>2009-06-10T12:22:25Z</time>
      </trkpt>
      <trkpt lat="44.95828" lon="5.05031">
        <ele>222.04800415039</ele>
        <time>2009-06-10T12:22:42Z</time>
      </trkpt>
      <trkpt lat="44.95741" lon="5.05073">
        <ele>223.71200561523</ele>
        <time>2009-06-10T12:23:01Z</time>
      </trkpt>
      <trkpt lat="44.95679" lon="5.05161">
        <ele>223.8690032959</ele>
        <time>2009-06-10T12:23:18Z</time>
      </trkpt>
      <trkpt lat="44.95602" lon="5.05285">
        <ele>225.69299316406</ele>
        <time>2009-06-10T12:23:41Z</time>
      </trkpt>
      <trkpt lat="44.95538" lon="5.05391">
        <ele>226.71899414062</ele>
        <time>2009-06-10T12:24:00Z</time>
      </trkpt>
      <trkpt lat="44.95476" lon="5.05495">
        <ele>227.5059967041</ele>
        <time>2009-06-10T12:24:18Z</time>
      </trkpt>
      <trkpt lat="44.95407" lon="5.05612">
        <ele>229.69799804688</ele>
        <time>2009-06-10T12:24:38Z</time>
      </trkpt>
      <trkpt lat="44.95335" lon="5.0573">
        <ele>231.76300048828</ele>
        <time>2009-06-10T12:24:59Z</time>
      </trkpt>
      <trkpt lat="44.95275" lon="5.05798">
        <ele>232.90699768066</ele>
        <time>2009-06-10T12:25:14Z</time>
      </trkpt>
      <trkpt lat="44.9522" lon="5.05887">
        <ele>234.98599243164</ele>
        <time>2009-06-10T12:25:31Z</time>
      </trkpt>
      <trkpt lat="44.95173" lon="5.05988">
        <ele>237.96699523926</ele>
        <time>2009-06-10T12:25:49Z</time>
      </trkpt>
      <trkpt lat="44.95158" lon="5.0602">
        <ele>238.21299743652</ele>
        <time>2009-06-10T12:25:55Z</time>
      </trkpt>
      <trkpt lat="44.95152" lon="5.06058">
        <ele>238.42100524902</ele>
        <time>2009-06-10T12:26:01Z</time>
      </trkpt>
      <trkpt lat="44.95148" lon="5.06091">
        <ele>238.76499938965</ele>
        <time>2009-06-10T12:26:06Z</time>
      </trkpt>
      <trkpt lat="44.95132" lon="5.06195">
        <ele>240.65299987793</ele>
        <time>2009-06-10T12:26:22Z</time>
      </trkpt>
      <trkpt lat="44.95127" lon="5.0622">
        <ele>240.99800109863</ele>
        <time>2009-06-10T12:26:26Z</time>
      </trkpt>
      <trkpt lat="44.95091" lon="5.06351">
        <ele>243.09399414062</ele>
        <time>2009-06-10T12:26:47Z</time>
      </trkpt>
      <trkpt lat="44.95058" lon="5.06442">
        <ele>246.44500732422</ele>
        <time>2009-06-10T12:27:02Z</time>
      </trkpt>
      <trkpt lat="44.95024" lon="5.06541">
        <ele>246.89500427246</ele>
        <time>2009-06-10T12:27:18Z</time>
      </trkpt>
      <trkpt lat="44.95015" lon="5.06573">
        <ele>246.75999450684</ele>
        <time>2009-06-10T12:27:23Z</time>
      </trkpt>
      <trkpt lat="44.95" lon="5.06591">
        <ele>246.38499450684</ele>
        <time>2009-06-10T12:27:29Z</time>
      </trkpt>
      <trkpt lat="44.94968" lon="5.06579">
        <ele>246.20700073242</ele>
        <time>2009-06-10T12:27:37Z</time>
      </trkpt>
      <trkpt lat="44.94896" lon="5.06552">
        <ele>246.21099853516</ele>
        <time>2009-06-10T12:27:53Z</time>
      </trkpt>
      <trkpt lat="44.94825" lon="5.06538">
        <ele>245.97200012207</ele>
        <time>2009-06-10T12:28:07Z</time>
      </trkpt>
      <trkpt lat="44.94738" lon="5.06546">
        <ele>246.42199707031</ele>
        <time>2009-06-10T12:28:24Z</time>
      </trkpt>
      <trkpt lat="44.94638" lon="5.06518">
        <ele>246.25399780273</ele>
        <time>2009-06-10T12:28:43Z</time>
      </trkpt>
      <trkpt lat="44.94546" lon="5.06507">
        <ele>247.83299255371</ele>
        <time>2009-06-10T12:29:00Z</time>
      </trkpt>
      <trkpt lat="44.94495" lon="5.06517">
        <ele>248.11099243164</ele>
        <time>2009-06-10T12:29:12Z</time>
      </trkpt>
      <trkpt lat="44.94483" lon="5.06526">
        <ele>247.84399414062</ele>
        <time>2009-06-10T12:29:15Z</time>
      </trkpt>
      <trkpt lat="44.94469" lon="5.06554">
        <ele>248.39700317383</ele>
        <time>2009-06-10T12:29:20Z</time>
      </trkpt>
      <trkpt lat="44.94466" lon="5.0656">
        <ele>247.84899902344</ele>
        <time>2009-06-10T12:29:21Z</time>
      </trkpt>
      <trkpt lat="44.9445" lon="5.06583">
        <ele>248.02200317383</ele>
        <time>2009-06-10T12:29:26Z</time>
      </trkpt>
      <trkpt lat="44.94437" lon="5.06588">
        <ele>248.35800170898</ele>
        <time>2009-06-10T12:29:29Z</time>
      </trkpt>
      <trkpt lat="44.94407" lon="5.06608">
        <ele>248.22399902344</ele>
        <time>2009-06-10T12:29:37Z</time>
      </trkpt>
      <trkpt lat="44.94384" lon="5.06629">
        <ele>248.76499938965</ele>
        <time>2009-06-10T12:29:44Z</time>
      </trkpt>
      <trkpt lat="44.94347" lon="5.06657">
        <ele>250.0359954834</ele>
        <time>2009-06-10T12:29:53Z</time>
      </trkpt>
      <trkpt lat="44.94341" lon="5.06637">
        <ele>250.12199401856</ele>
        <time>2009-06-10T12:30:02Z</time>
      </trkpt>
      <trkpt lat="44.94342" lon="5.06644">
        <ele>250.19299316406</ele>
        <time>2009-06-10T12:30:08Z</time>
      </trkpt>
      <trkpt lat="44.94344" lon="5.06648">
        <ele>250.34800720215</ele>
        <time>2009-06-10T12:30:47Z</time>
      </trkpt>
      <trkpt lat="44.94344" lon="5.06651">
        <ele>250.11399841309</ele>
        <time>2009-06-10T12:30:48Z</time>
      </trkpt>
      <trkpt lat="44.94351" lon="5.06664">
        <ele>250.26499938965</ele>
        <time>2009-06-10T12:30:56Z</time>
      </trkpt>
      <trkpt lat="44.94366" lon="5.06695">
        <ele>250.64300537109</ele>
        <time>2009-06-10T12:31:08Z</time>
      </trkpt>
      <trkpt lat="44.94383" lon="5.06728">
        <ele>251.60099792481</ele>
        <time>2009-06-10T12:31:15Z</time>
      </trkpt>
      <trkpt lat="44.94387" lon="5.06737">
        <ele>252.35899353027</ele>
        <time>2009-06-10T12:31:17Z</time>
      </trkpt>
      <trkpt lat="44.94384" lon="5.06759">
        <ele>253.84199523926</ele>
        <time>2009-06-10T12:31:22Z</time>
      </trkpt>
      <trkpt lat="44.94382" lon="5.06762">
        <ele>254.51800537109</ele>
        <time>2009-06-10T12:31:27Z</time>
      </trkpt>
      <trkpt lat="44.94361" lon="5.068">
        <ele>254.58999633789</ele>
        <time>2009-06-10T12:31:33Z</time>
      </trkpt>
      <trkpt lat="44.94333" lon="5.06844">
        <ele>254.21699523926</ele>
        <time>2009-06-10T12:31:40Z</time>
      </trkpt>
      <trkpt lat="44.94266" lon="5.06955">
        <ele>256.4460144043</ele>
        <time>2009-06-10T12:32:01Z</time>
      </trkpt>
      <trkpt lat="44.94207" lon="5.07071">
        <ele>258.92300415039</ele>
        <time>2009-06-10T12:32:21Z</time>
      </trkpt>
      <trkpt lat="44.94156" lon="5.07206">
        <ele>261.26501464844</ele>
        <time>2009-06-10T12:32:41Z</time>
      </trkpt>
      <trkpt lat="44.94112" lon="5.07328">
        <ele>263.44500732422</ele>
        <time>2009-06-10T12:33:02Z</time>
      </trkpt>
      <trkpt lat="44.9405" lon="5.07509">
        <ele>266.05801391602</ele>
        <time>2009-06-10T12:33:26Z</time>
      </trkpt>
      <trkpt lat="44.94036" lon="5.07607">
        <ele>267.56698608398</ele>
        <time>2009-06-10T12:33:40Z</time>
      </trkpt>
      <trkpt lat="44.94057" lon="5.07702">
        <ele>269.70599365234</ele>
        <time>2009-06-10T12:33:53Z</time>
      </trkpt>
      <trkpt lat="44.94093" lon="5.07862">
        <ele>272.90301513672</ele>
        <time>2009-06-10T12:34:15Z</time>
      </trkpt>
      <trkpt lat="44.94127" lon="5.08017">
        <ele>275.91198730469</ele>
        <time>2009-06-10T12:34:36Z</time>
      </trkpt>
      <trkpt lat="44.94135" lon="5.08053">
        <ele>276.32299804688</ele>
        <time>2009-06-10T12:34:41Z</time>
      </trkpt>
      <trkpt lat="44.94136" lon="5.08094">
        <ele>276.98999023438</ele>
        <time>2009-06-10T12:34:47Z</time>
      </trkpt>
      <trkpt lat="44.94044" lon="5.08115">
        <ele>276.2919921875</ele>
        <time>2009-06-10T12:35:03Z</time>
      </trkpt>
      <trkpt lat="44.93964" lon="5.08139">
        <ele>275.79400634766</ele>
        <time>2009-06-10T12:35:18Z</time>
      </trkpt>
      <trkpt lat="44.93915" lon="5.08153">
        <ele>275.78201293945</ele>
        <time>2009-06-10T12:35:29Z</time>
      </trkpt>
      <trkpt lat="44.93889" lon="5.0816">
        <ele>274.47799682617</ele>
        <time>2009-06-10T12:35:37Z</time>
      </trkpt>
      <trkpt lat="44.93887" lon="5.08161">
        <ele>274.07400512695</ele>
        <time>2009-06-10T12:36:43Z</time>
      </trkpt>
      <trkpt lat="44.93875" lon="5.08121">
        <ele>273.6789855957</ele>
        <time>2009-06-10T12:36:51Z</time>
      </trkpt>
      <trkpt lat="44.9386" lon="5.08078">
        <ele>273.26501464844</ele>
        <time>2009-06-10T12:36:58Z</time>
      </trkpt>
      <trkpt lat="44.93815" lon="5.07959">
        <ele>272.24099731445</ele>
        <time>2009-06-10T12:37:14Z</time>
      </trkpt>
      <trkpt lat="44.93805" lon="5.07935">
        <ele>270.34298706055</ele>
        <time>2009-06-10T12:37:17Z</time>
      </trkpt>
      <trkpt lat="44.93774" lon="5.07861">
        <ele>268.70901489258</ele>
        <time>2009-06-10T12:37:26Z</time>
      </trkpt>
      <trkpt lat="44.93716" lon="5.07747">
        <ele>267.57598876953</ele>
        <time>2009-06-10T12:37:42Z</time>
      </trkpt>
      <trkpt lat="44.93654" lon="5.07671">
        <ele>267.67999267578</ele>
        <time>2009-06-10T12:37:56Z</time>
      </trkpt>
      <trkpt lat="44.93597" lon="5.07618">
        <ele>269.10900878906</ele>
        <time>2009-06-10T12:38:11Z</time>
      </trkpt>
      <trkpt lat="44.93562" lon="5.07584">
        <ele>270.49099731445</ele>
        <time>2009-06-10T12:38:21Z</time>
      </trkpt>
      <trkpt lat="44.93539" lon="5.07565">
        <ele>272.06900024414</ele>
        <time>2009-06-10T12:38:27Z</time>
      </trkpt>
      <trkpt lat="44.93514" lon="5.07543">
        <ele>273.49301147461</ele>
        <time>2009-06-10T12:38:33Z</time>
      </trkpt>
      <trkpt lat="44.93485" lon="5.07517">
        <ele>275.44100952148</ele>
        <time>2009-06-10T12:38:40Z</time>
      </trkpt>
      <trkpt lat="44.93465" lon="5.07499">
        <ele>276.80200195312</ele>
        <time>2009-06-10T12:38:45Z</time>
      </trkpt>
      <trkpt lat="44.93443" lon="5.07479">
        <ele>278.5299987793</ele>
        <time>2009-06-10T12:38:51Z</time>
      </trkpt>
      <trkpt lat="44.9341" lon="5.07449">
        <ele>280.70700073242</ele>
        <time>2009-06-10T12:39:00Z</time>
      </trkpt>
      <trkpt lat="44.93392" lon="5.07434">
        <ele>282.19299316406</ele>
        <time>2009-06-10T12:39:05Z</time>
      </trkpt>
      <trkpt lat="44.93367" lon="5.07415">
        <ele>284.15301513672</ele>
        <time>2009-06-10T12:39:12Z</time>
      </trkpt>
      <trkpt lat="44.9332" lon="5.07381">
        <ele>287.33200073242</ele>
        <time>2009-06-10T12:39:24Z</time>
      </trkpt>
      <trkpt lat="44.93256" lon="5.07334">
        <ele>291.21398925781</ele>
        <time>2009-06-10T12:39:44Z</time>
      </trkpt>
      <trkpt lat="44.93195" lon="5.07273">
        <ele>295.5539855957</ele>
        <time>2009-06-10T12:40:04Z</time>
      </trkpt>
      <trkpt lat="44.93156" lon="5.07231">
        <ele>298.21398925781</ele>
        <time>2009-06-10T12:40:17Z</time>
      </trkpt>
      <trkpt lat="44.93145" lon="5.07238">
        <ele>299.8030090332</ele>
        <time>2009-06-10T12:40:24Z</time>
      </trkpt>
      <trkpt lat="44.9314" lon="5.07248">
        <ele>300.33599853516</ele>
        <time>2009-06-10T12:40:29Z</time>
      </trkpt>
      <trkpt lat="44.93132" lon="5.07264">
        <ele>301.58801269531</ele>
        <time>2009-06-10T12:40:38Z</time>
      </trkpt>
      <trkpt lat="44.93128" lon="5.07271">
        <ele>301.9700012207</ele>
        <time>2009-06-10T12:40:41Z</time>
      </trkpt>
      <trkpt lat="44.93119" lon="5.07289">
        <ele>302.93099975586</ele>
        <time>2009-06-10T12:40:50Z</time>
      </trkpt>
      <trkpt lat="44.93101" lon="5.07327">
        <ele>304.69000244141</ele>
        <time>2009-06-10T12:41:03Z</time>
      </trkpt>
      <trkpt lat="44.93068" lon="5.07396">
        <ele>306.52398681641</ele>
        <time>2009-06-10T12:41:20Z</time>
      </trkpt>
      <trkpt lat="44.93051" lon="5.07446">
        <ele>307.03201293945</ele>
        <time>2009-06-10T12:41:33Z</time>
      </trkpt>
      <trkpt lat="44.93041" lon="5.07473">
        <ele>308.74301147461</ele>
        <time>2009-06-10T12:41:40Z</time>
      </trkpt>
      <trkpt lat="44.93039" lon="5.07478">
        <ele>308.81600952148</ele>
        <time>2009-06-10T12:41:45Z</time>
      </trkpt>
      <trkpt lat="44.93045" lon="5.07463">
        <ele>307.93499755859</ele>
        <time>2009-06-10T12:41:52Z</time>
      </trkpt>
      <trkpt lat="44.93053" lon="5.0744">
        <ele>307.62100219727</ele>
        <time>2009-06-10T12:41:57Z</time>
      </trkpt>
      <trkpt lat="44.93058" lon="5.07425">
        <ele>307.28100585938</ele>
        <time>2009-06-10T12:42:03Z</time>
      </trkpt>
      <trkpt lat="44.9306" lon="5.07418">
        <ele>307.55599975586</ele>
        <time>2009-06-10T12:43:09Z</time>
      </trkpt>
      <trkpt lat="44.93082" lon="5.07367">
        <ele>305.96899414062</ele>
        <time>2009-06-10T12:43:23Z</time>
      </trkpt>
      <trkpt lat="44.93089" lon="5.07351">
        <ele>305.88101196289</ele>
        <time>2009-06-10T12:43:26Z</time>
      </trkpt>
      <trkpt lat="44.93092" lon="5.07345">
        <ele>305.86999511719</ele>
        <time>2009-06-10T12:43:27Z</time>
      </trkpt>
      <trkpt lat="44.93134" lon="5.0726">
        <ele>302.13800048828</ele>
        <time>2009-06-10T12:43:39Z</time>
      </trkpt>
      <trkpt lat="44.93148" lon="5.07232">
        <ele>299.74700927734</ele>
        <time>2009-06-10T12:43:43Z</time>
      </trkpt>
      <trkpt lat="44.9315" lon="5.07227">
        <ele>299.74099731445</ele>
        <time>2009-06-10T12:43:45Z</time>
      </trkpt>
      <trkpt lat="44.93145" lon="5.07219">
        <ele>299.02200317383</ele>
        <time>2009-06-10T12:43:49Z</time>
      </trkpt>
      <trkpt lat="44.93133" lon="5.07206">
        <ele>299.58099365234</ele>
        <time>2009-06-10T12:43:53Z</time>
      </trkpt>
      <trkpt lat="44.93124" lon="5.07196">
        <ele>299.64001464844</ele>
        <time>2009-06-10T12:43:56Z</time>
      </trkpt>
      <trkpt lat="44.931" lon="5.07169">
        <ele>301.38500976562</ele>
        <time>2009-06-10T12:44:04Z</time>
      </trkpt>
      <trkpt lat="44.93081" lon="5.0715">
        <ele>301.86099243164</ele>
        <time>2009-06-10T12:44:10Z</time>
      </trkpt>
      <trkpt lat="44.93065" lon="5.07132">
        <ele>302.5530090332</ele>
        <time>2009-06-10T12:44:15Z</time>
      </trkpt>
      <trkpt lat="44.93059" lon="5.07126">
        <ele>302.74499511719</ele>
        <time>2009-06-10T12:44:17Z</time>
      </trkpt>
      <trkpt lat="44.93047" lon="5.07128">
        <ele>303.56399536133</ele>
        <time>2009-06-10T12:44:21Z</time>
      </trkpt>
      <trkpt lat="44.93032" lon="5.07162">
        <ele>305.44299316406</ele>
        <time>2009-06-10T12:44:30Z</time>
      </trkpt>
      <trkpt lat="44.93016" lon="5.07195">
        <ele>306.88198852539</ele>
        <time>2009-06-10T12:44:39Z</time>
      </trkpt>
      <trkpt lat="44.92986" lon="5.07263">
        <ele>306.89999389648</ele>
        <time>2009-06-10T12:44:54Z</time>
      </trkpt>
      <trkpt lat="44.92945" lon="5.07351">
        <ele>310.00201416016</ele>
        <time>2009-06-10T12:45:12Z</time>
      </trkpt>
      <trkpt lat="44.9291" lon="5.07432">
        <ele>311.76800537109</ele>
        <time>2009-06-10T12:45:30Z</time>
      </trkpt>
      <trkpt lat="44.92888" lon="5.07505">
        <ele>312.71600341797</ele>
        <time>2009-06-10T12:45:44Z</time>
      </trkpt>
      <trkpt lat="44.92859" lon="5.07599">
        <ele>314.56900024414</ele>
        <time>2009-06-10T12:46:02Z</time>
      </trkpt>
      <trkpt lat="44.92822" lon="5.07714">
        <ele>316.18899536133</ele>
        <time>2009-06-10T12:46:22Z</time>
      </trkpt>
      <trkpt lat="44.92797" lon="5.07792">
        <ele>318.32000732422</ele>
        <time>2009-06-10T12:46:35Z</time>
      </trkpt>
      <trkpt lat="44.92768" lon="5.07879">
        <ele>320.02801513672</ele>
        <time>2009-06-10T12:46:50Z</time>
      </trkpt>
      <trkpt lat="44.92752" lon="5.0793">
        <ele>320.06500244141</ele>
        <time>2009-06-10T12:46:59Z</time>
      </trkpt>
      <trkpt lat="44.92709" lon="5.08059">
        <ele>320.07400512695</ele>
        <time>2009-06-10T12:47:21Z</time>
      </trkpt>
      <trkpt lat="44.92706" lon="5.0807">
        <ele>322.33499145508</ele>
        <time>2009-06-10T12:47:23Z</time>
      </trkpt>
      <trkpt lat="44.92676" lon="5.0816">
        <ele>322.38198852539</ele>
        <time>2009-06-10T12:47:39Z</time>
      </trkpt>
      <trkpt lat="44.92673" lon="5.0817">
        <ele>322.38800048828</ele>
        <time>2009-06-10T12:47:41Z</time>
      </trkpt>
      <trkpt lat="44.92639" lon="5.08274">
        <ele>327.99899291992</ele>
        <time>2009-06-10T12:48:01Z</time>
      </trkpt>
      <trkpt lat="44.92607" lon="5.0837">
        <ele>330.53698730469</ele>
        <time>2009-06-10T12:48:18Z</time>
      </trkpt>
      <trkpt lat="44.92578" lon="5.08471">
        <ele>333.29901123047</ele>
        <time>2009-06-10T12:48:37Z</time>
      </trkpt>
      <trkpt lat="44.92554" lon="5.08559">
        <ele>337.20001220703</ele>
        <time>2009-06-10T12:48:54Z</time>
      </trkpt>
      <trkpt lat="44.92533" lon="5.0864">
        <ele>339.5530090332</ele>
        <time>2009-06-10T12:49:11Z</time>
      </trkpt>
      <trkpt lat="44.92532" lon="5.08647">
        <ele>340.36898803711</ele>
        <time>2009-06-10T12:49:13Z</time>
      </trkpt>
      <trkpt lat="44.92526" lon="5.08721">
        <ele>344.32998657227</ele>
        <time>2009-06-10T12:49:30Z</time>
      </trkpt>
      <trkpt lat="44.92517" lon="5.08821">
        <ele>347.19299316406</ele>
        <time>2009-06-10T12:49:49Z</time>
      </trkpt>
      <trkpt lat="44.92509" lon="5.08918">
        <ele>350.57400512695</ele>
        <time>2009-06-10T12:50:08Z</time>
      </trkpt>
      <trkpt lat="44.92497" lon="5.09017">
        <ele>353.57901000977</ele>
        <time>2009-06-10T12:50:28Z</time>
      </trkpt>
      <trkpt lat="44.92466" lon="5.09054">
        <ele>355.66500854492</ele>
        <time>2009-06-10T12:50:40Z</time>
      </trkpt>
      <trkpt lat="44.92447" lon="5.09069">
        <ele>357.04998779297</ele>
        <time>2009-06-10T12:50:46Z</time>
      </trkpt>
      <trkpt lat="44.92385" lon="5.09117">
        <ele>358.39700317383</ele>
        <time>2009-06-10T12:51:03Z</time>
      </trkpt>
      <trkpt lat="44.92359" lon="5.09139">
        <ele>358.90798950195</ele>
        <time>2009-06-10T12:51:10Z</time>
      </trkpt>
      <trkpt lat="44.92302" lon="5.09186">
        <ele>360.88900756836</ele>
        <time>2009-06-10T12:51:26Z</time>
      </trkpt>
      <trkpt lat="44.9228" lon="5.09203">
        <ele>361.23199462891</ele>
        <time>2009-06-10T12:51:32Z</time>
      </trkpt>
      <trkpt lat="44.92252" lon="5.09229">
        <ele>360.91400146484</ele>
        <time>2009-06-10T12:51:40Z</time>
      </trkpt>
      <trkpt lat="44.92193" lon="5.09305">
        <ele>357.97399902344</ele>
        <time>2009-06-10T12:51:56Z</time>
      </trkpt>
      <trkpt lat="44.92181" lon="5.09347">
        <ele>356.46200561523</ele>
        <time>2009-06-10T12:52:02Z</time>
      </trkpt>
      <trkpt lat="44.92178" lon="5.09373">
        <ele>355.54098510742</ele>
        <time>2009-06-10T12:52:05Z</time>
      </trkpt>
      <trkpt lat="44.92162" lon="5.09388">
        <ele>355.53799438477</ele>
        <time>2009-06-10T12:52:09Z</time>
      </trkpt>
      <trkpt lat="44.92155" lon="5.09388">
        <ele>355.98999023438</ele>
        <time>2009-06-10T12:52:11Z</time>
      </trkpt>
      <trkpt lat="44.92127" lon="5.09372">
        <ele>358.48199462891</ele>
        <time>2009-06-10T12:52:18Z</time>
      </trkpt>
      <trkpt lat="44.92118" lon="5.09367">
        <ele>360.11099243164</ele>
        <time>2009-06-10T12:52:20Z</time>
      </trkpt>
      <trkpt lat="44.92107" lon="5.0936">
        <ele>361.35400390625</ele>
        <time>2009-06-10T12:52:23Z</time>
      </trkpt>
      <trkpt lat="44.92096" lon="5.09353">
        <ele>363.2799987793</ele>
        <time>2009-06-10T12:52:26Z</time>
      </trkpt>
      <trkpt lat="44.92093" lon="5.09351">
        <ele>363.40399169922</ele>
        <time>2009-06-10T12:52:27Z</time>
      </trkpt>
      <trkpt lat="44.9209" lon="5.0935">
        <ele>363.13800048828</ele>
        <time>2009-06-10T12:52:28Z</time>
      </trkpt>
      <trkpt lat="44.92087" lon="5.09348">
        <ele>363.23300170898</ele>
        <time>2009-06-10T12:52:29Z</time>
      </trkpt>
      <trkpt lat="44.92078" lon="5.09344">
        <ele>362.64498901367</ele>
        <time>2009-06-10T12:52:32Z</time>
      </trkpt>
      <trkpt lat="44.92063" lon="5.09341">
        <ele>363.72799682617</ele>
        <time>2009-06-10T12:52:36Z</time>
      </trkpt>
      <trkpt lat="44.91982" lon="5.09326">
        <ele>364.91198730469</ele>
        <time>2009-06-10T12:52:56Z</time>
      </trkpt>
      <trkpt lat="44.91961" lon="5.09322">
        <ele>364.40899658203</ele>
        <time>2009-06-10T12:53:01Z</time>
      </trkpt>
      <trkpt lat="44.91904" lon="5.09311">
        <ele>364.27899169922</ele>
        <time>2009-06-10T12:53:14Z</time>
      </trkpt>
      <trkpt lat="44.91872" lon="5.09305">
        <ele>362.74899291992</ele>
        <time>2009-06-10T12:53:20Z</time>
      </trkpt>
      <trkpt lat="44.91838" lon="5.09299">
        <ele>361.86599731445</ele>
        <time>2009-06-10T12:53:26Z</time>
      </trkpt>
      <trkpt lat="44.91817" lon="5.09295">
        <ele>361.88900756836</ele>
        <time>2009-06-10T12:53:30Z</time>
      </trkpt>
      <trkpt lat="44.91803" lon="5.09292">
        <ele>361.56399536133</ele>
        <time>2009-06-10T12:53:33Z</time>
      </trkpt>
      <trkpt lat="44.91798" lon="5.09292">
        <ele>361.48001098633</ele>
        <time>2009-06-10T12:53:34Z</time>
      </trkpt>
      <trkpt lat="44.91783" lon="5.09303">
        <ele>359.89099121094</ele>
        <time>2009-06-10T12:53:40Z</time>
      </trkpt>
      <trkpt lat="44.91776" lon="5.09336">
        <ele>359.76599121094</ele>
        <time>2009-06-10T12:53:46Z</time>
      </trkpt>
      <trkpt lat="44.91786" lon="5.09379">
        <ele>361.76501464844</ele>
        <time>2009-06-10T12:53:56Z</time>
      </trkpt>
      <trkpt lat="44.91787" lon="5.09381">
        <ele>361.49301147461</ele>
        <time>2009-06-10T12:53:57Z</time>
      </trkpt>
      <trkpt lat="44.91787" lon="5.09381">
        <ele>361.53100585938</ele>
        <time>2009-06-10T12:53:58Z</time>
      </trkpt>
      <trkpt lat="44.91781" lon="5.09367">
        <ele>360.37399291992</ele>
        <time>2009-06-10T12:54:06Z</time>
      </trkpt>
      <trkpt lat="44.91756" lon="5.09354">
        <ele>355.93301391602</ele>
        <time>2009-06-10T12:54:13Z</time>
      </trkpt>
      <trkpt lat="44.91723" lon="5.09363">
        <ele>353.61898803711</ele>
        <time>2009-06-10T12:54:18Z</time>
      </trkpt>
      <trkpt lat="44.9171" lon="5.09367">
        <ele>353.19900512695</ele>
        <time>2009-06-10T12:54:20Z</time>
      </trkpt>
      <trkpt lat="44.91697" lon="5.09381">
        <ele>352.63900756836</ele>
        <time>2009-06-10T12:54:25Z</time>
      </trkpt>
      <trkpt lat="44.91699" lon="5.09414">
        <ele>352.96099853516</ele>
        <time>2009-06-10T12:54:31Z</time>
      </trkpt>
      <trkpt lat="44.917" lon="5.09434">
        <ele>353.45401000977</ele>
        <time>2009-06-10T12:54:34Z</time>
      </trkpt>
      <trkpt lat="44.91709" lon="5.0948">
        <ele>353.41299438477</ele>
        <time>2009-06-10T12:54:41Z</time>
      </trkpt>
      <trkpt lat="44.91718" lon="5.09528">
        <ele>353.60299682617</ele>
        <time>2009-06-10T12:54:52Z</time>
      </trkpt>
      <trkpt lat="44.91722" lon="5.09554">
        <ele>354.28900146484</ele>
        <time>2009-06-10T12:54:57Z</time>
      </trkpt>
      <trkpt lat="44.91722" lon="5.09641">
        <ele>355.94299316406</ele>
        <time>2009-06-10T12:55:11Z</time>
      </trkpt>
      <trkpt lat="44.91727" lon="5.09678">
        <ele>356.90399169922</ele>
        <time>2009-06-10T12:55:17Z</time>
      </trkpt>
      <trkpt lat="44.91758" lon="5.09768">
        <ele>358.24301147461</ele>
        <time>2009-06-10T12:55:31Z</time>
      </trkpt>
      <trkpt lat="44.91777" lon="5.09833">
        <ele>359.33801269531</ele>
        <time>2009-06-10T12:55:44Z</time>
      </trkpt>
      <trkpt lat="44.91782" lon="5.09867">
        <ele>360.82998657227</ele>
        <time>2009-06-10T12:55:52Z</time>
      </trkpt>
      <trkpt lat="44.91782" lon="5.09884">
        <ele>361.31201171875</ele>
        <time>2009-06-10T12:55:55Z</time>
      </trkpt>
      <trkpt lat="44.91782" lon="5.09919">
        <ele>362.15701293945</ele>
        <time>2009-06-10T12:56:01Z</time>
      </trkpt>
      <trkpt lat="44.918" lon="5.09988">
        <ele>366.03201293945</ele>
        <time>2009-06-10T12:56:15Z</time>
      </trkpt>
      <trkpt lat="44.918" lon="5.10011">
        <ele>367.31698608398</ele>
        <time>2009-06-10T12:56:21Z</time>
      </trkpt>
      <trkpt lat="44.91798" lon="5.10035">
        <ele>368.7619934082</ele>
        <time>2009-06-10T12:56:27Z</time>
      </trkpt>
      <trkpt lat="44.91795" lon="5.10034">
        <ele>369.01098632812</ele>
        <time>2009-06-10T12:56:30Z</time>
      </trkpt>
      <trkpt lat="44.91795" lon="5.10034">
        <ele>369.35900878906</ele>
        <time>2009-06-10T12:57:30Z</time>
      </trkpt>
      <trkpt lat="44.91795" lon="5.10034">
        <ele>369.32000732422</ele>
        <time>2009-06-10T12:57:31Z</time>
      </trkpt>
      <trkpt lat="44.91806" lon="5.10034">
        <ele>369.68499755859</ele>
        <time>2009-06-10T12:57:37Z</time>
      </trkpt>
      <trkpt lat="44.91824" lon="5.10031">
        <ele>370.4049987793</ele>
        <time>2009-06-10T12:57:54Z</time>
      </trkpt>
      <trkpt lat="44.9184" lon="5.10028">
        <ele>371.91198730469</ele>
        <time>2009-06-10T12:58:11Z</time>
      </trkpt>
      <trkpt lat="44.91853" lon="5.10025">
        <ele>373.05200195312</ele>
        <time>2009-06-10T12:58:30Z</time>
      </trkpt>
      <trkpt lat="44.91853" lon="5.10025">
        <ele>373.15899658203</ele>
        <time>2009-06-10T12:58:40Z</time>
      </trkpt>
      <trkpt lat="44.91871" lon="5.10022">
        <ele>374.0299987793</ele>
        <time>2009-06-10T12:58:54Z</time>
      </trkpt>
      <trkpt lat="44.91893" lon="5.10017">
        <ele>375.41101074219</ele>
        <time>2009-06-10T12:59:16Z</time>
      </trkpt>
      <trkpt lat="44.91908" lon="5.10015">
        <ele>376.57998657227</ele>
        <time>2009-06-10T12:59:31Z</time>
      </trkpt>
      <trkpt lat="44.91908" lon="5.10015">
        <ele>376.62899780273</ele>
        <time>2009-06-10T12:59:35Z</time>
      </trkpt>
      <trkpt lat="44.91916" lon="5.10013">
        <ele>377.37799072266</ele>
        <time>2009-06-10T12:59:51Z</time>
      </trkpt>
      <trkpt lat="44.91925" lon="5.10012">
        <ele>377.5530090332</ele>
        <time>2009-06-10T12:59:59Z</time>
      </trkpt>
      <trkpt lat="44.91931" lon="5.1001">
        <ele>378.40301513672</ele>
        <time>2009-06-10T13:00:08Z</time>
      </trkpt>
      <trkpt lat="44.91941" lon="5.10008">
        <ele>379.16198730469</ele>
        <time>2009-06-10T13:00:24Z</time>
      </trkpt>
      <trkpt lat="44.91947" lon="5.10007">
        <ele>379.70700073242</ele>
        <time>2009-06-10T13:00:30Z</time>
      </trkpt>
      <trkpt lat="44.91955" lon="5.10006">
        <ele>381.01300048828</ele>
        <time>2009-06-10T13:00:45Z</time>
      </trkpt>
      <trkpt lat="44.91955" lon="5.10006">
        <ele>380.82501220703</ele>
        <time>2009-06-10T13:01:03Z</time>
      </trkpt>
      <trkpt lat="44.91963" lon="5.10004">
        <ele>380.98901367188</ele>
        <time>2009-06-10T13:01:10Z</time>
      </trkpt>
      <trkpt lat="44.91963" lon="5.10004">
        <ele>381.44198608398</ele>
        <time>2009-06-10T13:01:33Z</time>
      </trkpt>
      <trkpt lat="44.91963" lon="5.10004">
        <ele>381.51300048828</ele>
        <time>2009-06-10T13:01:34Z</time>
      </trkpt>
      <trkpt lat="44.91974" lon="5.10002">
        <ele>382.04000854492</ele>
        <time>2009-06-10T13:01:43Z</time>
      </trkpt>
      <trkpt lat="44.91974" lon="5.10002">
        <ele>381.80099487305</ele>
        <time>2009-06-10T13:01:44Z</time>
      </trkpt>
      <trkpt lat="44.92001" lon="5.09997">
        <ele>382.82901000977</ele>
        <time>2009-06-10T13:02:52Z</time>
      </trkpt>
      <trkpt lat="44.91979" lon="5.10002">
        <ele>382.8330078125</ele>
        <time>2009-06-10T13:02:56Z</time>
      </trkpt>
      <trkpt lat="44.91979" lon="5.10002">
        <ele>382.50399780273</ele>
        <time>2009-06-10T13:03:08Z</time>
      </trkpt>
      <trkpt lat="44.91979" lon="5.10002">
        <ele>383.45001220703</ele>
        <time>2009-06-10T13:04:55Z</time>
      </trkpt>
      <trkpt lat="44.91979" lon="5.10002">
        <ele>383.20001220703</ele>
        <time>2009-06-10T13:04:56Z</time>
      </trkpt>
      <trkpt lat="44.91979" lon="5.10002">
        <ele>383.65798950195</ele>
        <time>2009-06-10T13:06:12Z</time>
      </trkpt>
      <trkpt lat="44.91979" lon="5.10002">
        <ele>383.93399047852</ele>
        <time>2009-06-10T13:06:19Z</time>
      </trkpt>
      <trkpt lat="44.91979" lon="5.10002">
        <ele>384.14801025391</ele>
        <time>2009-06-10T13:06:31Z</time>
      </trkpt>
      <trkpt lat="44.91979" lon="5.10002">
        <ele>384.34899902344</ele>
        <time>2009-06-10T13:06:45Z</time>
      </trkpt>
      <trkpt lat="44.91979" lon="5.10002">
        <ele>384.20999145508</ele>
        <time>2009-06-10T13:06:46Z</time>
      </trkpt>
      <trkpt lat="44.91987" lon="5.1">
        <ele>383.66000366211</ele>
        <time>2009-06-10T13:07:00Z</time>
      </trkpt>
      <trkpt lat="44.91987" lon="5.1">
        <ele>383.75601196289</ele>
        <time>2009-06-10T13:07:15Z</time>
      </trkpt>
      <trkpt lat="44.91987" lon="5.1">
        <ele>383.99600219727</ele>
        <time>2009-06-10T13:07:29Z</time>
      </trkpt>
      <trkpt lat="44.91987" lon="5.1">
        <ele>383.35998535156</ele>
        <time>2009-06-10T13:08:06Z</time>
      </trkpt>
      <trkpt lat="44.91987" lon="5.1">
        <ele>383.09799194336</ele>
        <time>2009-06-10T13:08:08Z</time>
      </trkpt>
      <trkpt lat="44.91987" lon="5.1">
        <ele>383.45901489258</ele>
        <time>2009-06-10T13:08:14Z</time>
      </trkpt>
      <trkpt lat="44.91987" lon="5.1">
        <ele>383.34899902344</ele>
        <time>2009-06-10T13:08:22Z</time>
      </trkpt>
      <trkpt lat="44.91987" lon="5.1">
        <ele>383.41799926758</ele>
        <time>2009-06-10T13:08:32Z</time>
      </trkpt>
      <trkpt lat="44.91987" lon="5.1">
        <ele>383.51300048828</ele>
        <time>2009-06-10T13:08:43Z</time>
      </trkpt>
      <trkpt lat="44.91987" lon="5.1">
        <ele>383.82699584961</ele>
        <time>2009-06-10T13:08:54Z</time>
      </trkpt>
      <trkpt lat="44.91987" lon="5.1">
        <ele>383.13400268555</ele>
        <time>2009-06-10T13:09:14Z</time>
      </trkpt>
      <trkpt lat="44.91987" lon="5.1">
        <ele>383.42999267578</ele>
        <time>2009-06-10T13:09:20Z</time>
      </trkpt>
      <trkpt lat="44.91987" lon="5.1">
        <ele>383.25900268555</ele>
        <time>2009-06-10T13:09:42Z</time>
      </trkpt>
      <trkpt lat="44.91987" lon="5.1">
        <ele>383.2919921875</ele>
        <time>2009-06-10T13:09:59Z</time>
      </trkpt>
      <trkpt lat="44.91987" lon="5.1">
        <ele>383.5299987793</ele>
        <time>2009-06-10T13:10:04Z</time>
      </trkpt>
      <trkpt lat="44.91987" lon="5.1">
        <ele>383.46301269531</ele>
        <time>2009-06-10T13:10:34Z</time>
      </trkpt>
      <trkpt lat="44.91987" lon="5.1">
        <ele>383.80700683594</ele>
        <time>2009-06-10T13:10:35Z</time>
      </trkpt>
      <trkpt lat="44.91987" lon="5.1">
        <ele>384.19799804688</ele>
        <time>2009-06-10T13:10:51Z</time>
      </trkpt>
      <trkpt lat="44.91987" lon="5.1">
        <ele>383.75100708008</ele>
        <time>2009-06-10T13:11:22Z</time>
      </trkpt>
      <trkpt lat="44.91987" lon="5.1">
        <ele>383.88000488281</ele>
        <time>2009-06-10T13:11:29Z</time>
      </trkpt>
      <trkpt lat="44.91987" lon="5.1">
        <ele>383.97100830078</ele>
        <time>2009-06-10T13:11:38Z</time>
      </trkpt>
      <trkpt lat="44.91987" lon="5.1">
        <ele>383.77398681641</ele>
        <time>2009-06-10T13:12:05Z</time>
      </trkpt>
      <trkpt lat="44.91987" lon="5.1">
        <ele>383.80700683594</ele>
        <time>2009-06-10T13:12:10Z</time>
      </trkpt>
      <trkpt lat="44.91987" lon="5.1">
        <ele>383.95901489258</ele>
        <time>2009-06-10T13:12:17Z</time>
      </trkpt>
      <trkpt lat="44.91987" lon="5.1">
        <ele>384.24301147461</ele>
        <time>2009-06-10T13:12:26Z</time>
      </trkpt>
      <trkpt lat="44.91987" lon="5.1">
        <ele>384.09899902344</ele>
        <time>2009-06-10T13:12:35Z</time>
      </trkpt>
      <trkpt lat="44.92024" lon="5.09988">
        <ele>384.31900024414</ele>
        <time>2009-06-10T13:13:54Z</time>
      </trkpt>
      <trkpt lat="44.92024" lon="5.09988">
        <ele>385.62100219727</ele>
        <time>2009-06-10T13:15:44Z</time>
      </trkpt>
      <trkpt lat="44.92024" lon="5.09988">
        <ele>386.33801269531</ele>
        <time>2009-06-10T13:15:55Z</time>
      </trkpt>
      <trkpt lat="44.92025" lon="5.09988">
        <ele>385.84399414062</ele>
        <time>2009-06-10T13:16:00Z</time>
      </trkpt>
      <trkpt lat="44.92025" lon="5.09988">
        <ele>386.42001342773</ele>
        <time>2009-06-10T13:16:04Z</time>
      </trkpt>
      <trkpt lat="44.92018" lon="5.09991">
        <ele>387.0710144043</ele>
        <time>2009-06-10T13:16:07Z</time>
      </trkpt>
      <trkpt lat="44.92018" lon="5.09991">
        <ele>386.90301513672</ele>
        <time>2009-06-10T13:16:09Z</time>
      </trkpt>
      <trkpt lat="44.92018" lon="5.09991">
        <ele>386.60998535156</ele>
        <time>2009-06-10T13:16:18Z</time>
      </trkpt>
      <trkpt lat="44.92018" lon="5.09991">
        <ele>386.34298706055</ele>
        <time>2009-06-10T13:16:28Z</time>
      </trkpt>
      <trkpt lat="44.92018" lon="5.09991">
        <ele>386.45700073242</ele>
        <time>2009-06-10T13:18:07Z</time>
      </trkpt>
      <trkpt lat="44.92018" lon="5.09991">
        <ele>386.7919921875</ele>
        <time>2009-06-10T13:18:10Z</time>
      </trkpt>
      <trkpt lat="44.92018" lon="5.09991">
        <ele>386.65301513672</ele>
        <time>2009-06-10T13:18:29Z</time>
      </trkpt>
      <trkpt lat="44.92018" lon="5.09991">
        <ele>386.23901367188</ele>
        <time>2009-06-10T13:20:20Z</time>
      </trkpt>
      <trkpt lat="44.92018" lon="5.09991">
        <ele>386.53298950195</ele>
        <time>2009-06-10T13:20:23Z</time>
      </trkpt>
      <trkpt lat="44.92018" lon="5.09991">
        <ele>386.35400390625</ele>
        <time>2009-06-10T13:20:47Z</time>
      </trkpt>
      <trkpt lat="44.92007" lon="5.09995">
        <ele>387.06600952148</ele>
        <time>2009-06-10T13:20:58Z</time>
      </trkpt>
      <trkpt lat="44.92007" lon="5.09995">
        <ele>386.71200561523</ele>
        <time>2009-06-10T13:21:02Z</time>
      </trkpt>
      <trkpt lat="44.92007" lon="5.09995">
        <ele>386.84899902344</ele>
        <time>2009-06-10T13:21:17Z</time>
      </trkpt>
      <trkpt lat="44.92007" lon="5.09995">
        <ele>386.21200561523</ele>
        <time>2009-06-10T13:21:44Z</time>
      </trkpt>
      <trkpt lat="44.92007" lon="5.09995">
        <ele>386.27200317383</ele>
        <time>2009-06-10T13:21:51Z</time>
      </trkpt>
      <trkpt lat="44.92007" lon="5.09995">
        <ele>387.28201293945</ele>
        <time>2009-06-10T13:24:04Z</time>
      </trkpt>
      <trkpt lat="44.92001" lon="5.09989">
        <ele>385.14300537109</ele>
        <time>2009-06-10T13:25:00Z</time>
      </trkpt>
      <trkpt lat="44.92001" lon="5.09989">
        <ele>385.63101196289</ele>
        <time>2009-06-10T13:25:02Z</time>
      </trkpt>
      <trkpt lat="44.91999" lon="5.09998">
        <ele>385.12200927734</ele>
        <time>2009-06-10T13:25:21Z</time>
      </trkpt>
      <trkpt lat="44.91999" lon="5.09998">
        <ele>384.95999145508</ele>
        <time>2009-06-10T13:25:48Z</time>
      </trkpt>
      <trkpt lat="44.91999" lon="5.09998">
        <ele>385.03601074219</ele>
        <time>2009-06-10T13:28:02Z</time>
      </trkpt>
      <trkpt lat="44.91987" lon="5.1">
        <ele>384.68499755859</ele>
        <time>2009-06-10T13:28:10Z</time>
      </trkpt>
      <trkpt lat="44.91982" lon="5.10001">
        <ele>385.9880065918</ele>
        <time>2009-06-10T13:28:13Z</time>
      </trkpt>
      <trkpt lat="44.91959" lon="5.10005">
        <ele>387.04000854492</ele>
        <time>2009-06-10T13:28:22Z</time>
      </trkpt>
      <trkpt lat="44.91956" lon="5.10006">
        <ele>384.10900878906</ele>
        <time>2009-06-10T13:28:23Z</time>
      </trkpt>
      <trkpt lat="44.91936" lon="5.10009">
        <ele>383.79501342773</ele>
        <time>2009-06-10T13:28:31Z</time>
      </trkpt>
      <trkpt lat="44.91926" lon="5.10011">
        <ele>384.48199462891</ele>
        <time>2009-06-10T13:28:35Z</time>
      </trkpt>
      <trkpt lat="44.91924" lon="5.10012">
        <ele>385.75500488281</ele>
        <time>2009-06-10T13:28:36Z</time>
      </trkpt>
      <trkpt lat="44.91921" lon="5.10012">
        <ele>384.35501098633</ele>
        <time>2009-06-10T13:28:37Z</time>
      </trkpt>
      <trkpt lat="44.91901" lon="5.10016">
        <ele>383.08099365234</ele>
        <time>2009-06-10T13:28:45Z</time>
      </trkpt>
      <trkpt lat="44.91896" lon="5.10017">
        <ele>384.31500244141</ele>
        <time>2009-06-10T13:28:47Z</time>
      </trkpt>
      <trkpt lat="44.91875" lon="5.10021">
        <ele>383.82699584961</ele>
        <time>2009-06-10T13:28:55Z</time>
      </trkpt>
      <trkpt lat="44.91847" lon="5.10026">
        <ele>383.22100830078</ele>
        <time>2009-06-10T13:29:06Z</time>
      </trkpt>
      <trkpt lat="44.91845" lon="5.10027">
        <ele>385.13198852539</ele>
        <time>2009-06-10T13:29:07Z</time>
      </trkpt>
      <trkpt lat="44.92008" lon="5.09995">
        <ele>385.08999633789</ele>
        <time>2009-06-10T13:29:24Z</time>
      </trkpt>
      <trkpt lat="44.92005" lon="5.09996">
        <ele>384.51599121094</ele>
        <time>2009-06-10T13:29:25Z</time>
      </trkpt>
      <trkpt lat="44.92" lon="5.09997">
        <ele>383.32501220703</ele>
        <time>2009-06-10T13:29:29Z</time>
      </trkpt>
      <trkpt lat="44.91988" lon="5.1">
        <ele>384.90701293945</ele>
        <time>2009-06-10T13:29:32Z</time>
      </trkpt>
      <trkpt lat="44.91987" lon="5.1">
        <ele>383.61999511719</ele>
        <time>2009-06-10T13:29:33Z</time>
      </trkpt>
      <trkpt lat="44.91986" lon="5.1">
        <ele>386.11199951172</ele>
        <time>2009-06-10T13:29:34Z</time>
      </trkpt>
      <trkpt lat="44.91984" lon="5.1">
        <ele>384.13000488281</ele>
        <time>2009-06-10T13:29:35Z</time>
      </trkpt>
      <trkpt lat="44.91983" lon="5.10001">
        <ele>382.10400390625</ele>
        <time>2009-06-10T13:29:36Z</time>
      </trkpt>
      <trkpt lat="44.9198" lon="5.10001">
        <ele>385.04501342773</ele>
        <time>2009-06-10T13:29:38Z</time>
      </trkpt>
      <trkpt lat="44.91971" lon="5.10003">
        <ele>384.86801147461</ele>
        <time>2009-06-10T13:29:45Z</time>
      </trkpt>
      <trkpt lat="44.91926" lon="5.10011">
        <ele>383.00698852539</ele>
        <time>2009-06-10T13:30:20Z</time>
      </trkpt>
      <trkpt lat="44.91925" lon="5.10012">
        <ele>384.44198608398</ele>
        <time>2009-06-10T13:30:21Z</time>
      </trkpt>
      <trkpt lat="44.91919" lon="5.10013">
        <ele>386.64300537109</ele>
        <time>2009-06-10T13:30:25Z</time>
      </trkpt>
      <trkpt lat="44.91918" lon="5.10013">
        <ele>384.42098999023</ele>
        <time>2009-06-10T13:30:26Z</time>
      </trkpt>
      <trkpt lat="44.91917" lon="5.10013">
        <ele>381.96398925781</ele>
        <time>2009-06-10T13:30:27Z</time>
      </trkpt>
      <trkpt lat="44.91913" lon="5.10014">
        <ele>383.67098999023</ele>
        <time>2009-06-10T13:30:30Z</time>
      </trkpt>
      <trkpt lat="44.91911" lon="5.10014">
        <ele>390.5719909668</ele>
        <time>2009-06-10T13:30:31Z</time>
      </trkpt>
      <trkpt lat="44.91999" lon="5.09991">
        <ele>384.09899902344</ele>
        <time>2009-06-10T13:30:41Z</time>
      </trkpt>
      <trkpt lat="44.91999" lon="5.09992">
        <ele>384.13000488281</ele>
        <time>2009-06-10T13:30:44Z</time>
      </trkpt>
      <trkpt lat="44.92001" lon="5.09993">
        <ele>384</ele>
        <time>2009-06-10T13:31:02Z</time>
      </trkpt>
      <trkpt lat="44.92002" lon="5.09993">
        <ele>384.39898681641</ele>
        <time>2009-06-10T13:31:03Z</time>
      </trkpt>
      <trkpt lat="44.92002" lon="5.09991">
        <ele>384.00201416016</ele>
        <time>2009-06-10T13:31:07Z</time>
      </trkpt>
      <trkpt lat="44.92002" lon="5.0999">
        <ele>383.7380065918</ele>
        <time>2009-06-10T13:31:08Z</time>
      </trkpt>
      <trkpt lat="44.92001" lon="5.09988">
        <ele>382.92700195312</ele>
        <time>2009-06-10T13:31:13Z</time>
      </trkpt>
      <trkpt lat="44.92004" lon="5.09992">
        <ele>384.00201416016</ele>
        <time>2009-06-10T13:31:33Z</time>
      </trkpt>
      <trkpt lat="44.9201" lon="5.09994">
        <ele>384.61599731445</ele>
        <time>2009-06-10T13:31:40Z</time>
      </trkpt>
      <trkpt lat="44.9201" lon="5.09994">
        <ele>383.91198730469</ele>
        <time>2009-06-10T13:31:44Z</time>
      </trkpt>
      <trkpt lat="44.9201" lon="5.09994">
        <ele>383.65701293945</ele>
        <time>2009-06-10T13:32:41Z</time>
      </trkpt>
      <trkpt lat="44.9201" lon="5.09994">
        <ele>384.23599243164</ele>
        <time>2009-06-10T13:34:04Z</time>
      </trkpt>
      <trkpt lat="44.9201" lon="5.09994">
        <ele>383.66400146484</ele>
        <time>2009-06-10T13:34:05Z</time>
      </trkpt>
      <trkpt lat="44.9201" lon="5.09994">
        <ele>383.03601074219</ele>
        <time>2009-06-10T13:37:00Z</time>
      </trkpt>
      <trkpt lat="44.9201" lon="5.09994">
        <ele>383.21899414062</ele>
        <time>2009-06-10T13:37:01Z</time>
      </trkpt>
      <trkpt lat="44.9201" lon="5.09994">
        <ele>383.4700012207</ele>
        <time>2009-06-10T13:37:04Z</time>
      </trkpt>
      <trkpt lat="44.9201" lon="5.09994">
        <ele>383.6369934082</ele>
        <time>2009-06-10T13:37:08Z</time>
      </trkpt>
      <trkpt lat="44.9201" lon="5.09994">
        <ele>382.85198974609</ele>
        <time>2009-06-10T13:45:06Z</time>
      </trkpt>
      <trkpt lat="44.9201" lon="5.09994">
        <ele>382.85299682617</ele>
        <time>2009-06-10T13:45:10Z</time>
      </trkpt>
      <trkpt lat="44.92014" lon="5.09992">
        <ele>383.02200317383</ele>
        <time>2009-06-10T13:45:21Z</time>
      </trkpt>
      <trkpt lat="44.91998" lon="5.09971">
        <ele>383.16900634766</ele>
        <time>2009-06-10T13:45:30Z</time>
      </trkpt>
      <trkpt lat="44.92001" lon="5.09984">
        <ele>383.15301513672</ele>
        <time>2009-06-10T13:45:39Z</time>
      </trkpt>
      <trkpt lat="44.92001" lon="5.09994">
        <ele>382.47900390625</ele>
        <time>2009-06-10T13:45:45Z</time>
      </trkpt>
      <trkpt lat="44.92001" lon="5.09994">
        <ele>382.99899291992</ele>
        <time>2009-06-10T13:45:51Z</time>
      </trkpt>
      <trkpt lat="44.92001" lon="5.09987">
        <ele>383.19400024414</ele>
        <time>2009-06-10T13:45:55Z</time>
      </trkpt>
      <trkpt lat="44.92025" lon="5.09988">
        <ele>383.30801391602</ele>
        <time>2009-06-10T13:45:59Z</time>
      </trkpt>
      <trkpt lat="44.92029" lon="5.09986">
        <ele>382.90600585938</ele>
        <time>2009-06-10T13:46:00Z</time>
      </trkpt>
      <trkpt lat="44.92032" lon="5.09985">
        <ele>383.31298828125</ele>
        <time>2009-06-10T13:46:03Z</time>
      </trkpt>
      <trkpt lat="44.92001" lon="5.09997">
        <ele>383.15701293945</ele>
        <time>2009-06-10T13:46:05Z</time>
      </trkpt>
      <trkpt lat="44.92001" lon="5.09997">
        <ele>383.0710144043</ele>
        <time>2009-06-10T13:46:10Z</time>
      </trkpt>
      <trkpt lat="44.92001" lon="5.09997">
        <ele>382.81298828125</ele>
        <time>2009-06-10T13:46:14Z</time>
      </trkpt>
      <trkpt lat="44.92001" lon="5.09993">
        <ele>384.11898803711</ele>
        <time>2009-06-10T13:47:16Z</time>
      </trkpt>
      <trkpt lat="44.92011" lon="5.09993">
        <ele>383.45901489258</ele>
        <time>2009-06-10T13:47:28Z</time>
      </trkpt>
      <trkpt lat="44.92011" lon="5.09993">
        <ele>384.24301147461</ele>
        <time>2009-06-10T13:47:55Z</time>
      </trkpt>
      <trkpt lat="44.92011" lon="5.09993">
        <ele>384.29098510742</ele>
        <time>2009-06-10T13:47:56Z</time>
      </trkpt>
      <trkpt lat="44.92011" lon="5.09993">
        <ele>384.00799560547</ele>
        <time>2009-06-10T13:48:04Z</time>
      </trkpt>
      <trkpt lat="44.92011" lon="5.09993">
        <ele>384.42300415039</ele>
        <time>2009-06-10T13:48:10Z</time>
      </trkpt>
      <trkpt lat="44.92011" lon="5.09993">
        <ele>384.5</ele>
        <time>2009-06-10T13:48:13Z</time>
      </trkpt>
      <trkpt lat="44.92031" lon="5.09986">
        <ele>384.29098510742</ele>
        <time>2009-06-10T13:48:17Z</time>
      </trkpt>
      <trkpt lat="44.92152" lon="5.09955">
        <ele>384.76901245117</ele>
        <time>2009-06-10T13:49:35Z</time>
      </trkpt>
      <trkpt lat="44.92155" lon="5.09955">
        <ele>384.84899902344</ele>
        <time>2009-06-10T13:49:37Z</time>
      </trkpt>
      <trkpt lat="44.92024" lon="5.09988">
        <ele>384.89099121094</ele>
        <time>2009-06-10T13:49:39Z</time>
      </trkpt>
      <trkpt lat="44.91985" lon="5.09944">
        <ele>384.70300292969</ele>
        <time>2009-06-10T13:49:44Z</time>
      </trkpt>
      <trkpt lat="44.9202" lon="5.0999">
        <ele>384.91500854492</ele>
        <time>2009-06-10T13:49:48Z</time>
      </trkpt>
      <trkpt lat="44.92024" lon="5.09988">
        <ele>384.88299560547</ele>
        <time>2009-06-10T13:49:53Z</time>
      </trkpt>
      <trkpt lat="44.92029" lon="5.09986">
        <ele>385.03601074219</ele>
        <time>2009-06-10T13:50:04Z</time>
      </trkpt>
      <trkpt lat="44.92033" lon="5.09985">
        <ele>384.98098754883</ele>
        <time>2009-06-10T13:50:08Z</time>
      </trkpt>
      <trkpt lat="44.92048" lon="5.09979">
        <ele>384.97500610352</ele>
        <time>2009-06-10T13:50:21Z</time>
      </trkpt>
      <trkpt lat="44.92049" lon="5.09979">
        <ele>385.21798706055</ele>
        <time>2009-06-10T13:50:22Z</time>
      </trkpt>
      <trkpt lat="44.92072" lon="5.0997">
        <ele>385.41101074219</ele>
        <time>2009-06-10T13:50:40Z</time>
      </trkpt>
      <trkpt lat="44.92076" lon="5.09968">
        <ele>385.10198974609</ele>
        <time>2009-06-10T13:50:44Z</time>
      </trkpt>
      <trkpt lat="44.92225" lon="5.09907">
        <ele>385.23199462891</ele>
        <time>2009-06-10T13:52:21Z</time>
      </trkpt>
      <trkpt lat="44.92254" lon="5.0992">
        <ele>385.1369934082</ele>
        <time>2009-06-10T13:52:26Z</time>
      </trkpt>
      <trkpt lat="44.9235" lon="5.09993">
        <ele>385.41900634766</ele>
        <time>2009-06-10T13:53:05Z</time>
      </trkpt>
      <trkpt lat="44.92369" lon="5.09986">
        <ele>384.90100097656</ele>
        <time>2009-06-10T13:53:53Z</time>
      </trkpt>
      <trkpt lat="44.92372" lon="5.09984">
        <ele>385.37399291992</ele>
        <time>2009-06-10T13:54:03Z</time>
      </trkpt>
      <trkpt lat="44.92374" lon="5.09983">
        <ele>384.84100341797</ele>
        <time>2009-06-10T13:54:19Z</time>
      </trkpt>
      <trkpt lat="44.92128" lon="5.09998">
        <ele>384.79000854492</ele>
        <time>2009-06-10T13:55:06Z</time>
      </trkpt>
      <trkpt lat="44.92089" lon="5.10028">
        <ele>384.94400024414</ele>
        <time>2009-06-10T13:55:11Z</time>
      </trkpt>
      <trkpt lat="44.92083" lon="5.10033">
        <ele>384.9460144043</ele>
        <time>2009-06-10T13:55:17Z</time>
      </trkpt>
      <trkpt lat="44.92081" lon="5.10023">
        <ele>384.46301269531</ele>
        <time>2009-06-10T13:55:21Z</time>
      </trkpt>
      <trkpt lat="44.9203" lon="5.10034">
        <ele>383.72601318359</ele>
        <time>2009-06-10T13:55:28Z</time>
      </trkpt>
      <trkpt lat="44.92009" lon="5.10008">
        <ele>386.07598876953</ele>
        <time>2009-06-10T13:55:31Z</time>
      </trkpt>
      <trkpt lat="44.92007" lon="5.10002">
        <ele>385.38400268555</ele>
        <time>2009-06-10T13:58:02Z</time>
      </trkpt>
      <trkpt lat="44.92007" lon="5.10003">
        <ele>384.78399658203</ele>
        <time>2009-06-10T13:58:07Z</time>
      </trkpt>
      <trkpt lat="44.92007" lon="5.09995">
        <ele>384.81600952148</ele>
        <time>2009-06-10T13:58:18Z</time>
      </trkpt>
      <trkpt lat="44.92008" lon="5.09997">
        <ele>384.6780090332</ele>
        <time>2009-06-10T13:58:27Z</time>
      </trkpt>
      <trkpt lat="44.92008" lon="5.09996">
        <ele>384.6780090332</ele>
        <time>2009-06-10T13:58:28Z</time>
      </trkpt>
      <trkpt lat="44.92004" lon="5.09996">
        <ele>384.6969909668</ele>
        <time>2009-06-10T13:58:38Z</time>
      </trkpt>
      <trkpt lat="44.92004" lon="5.09996">
        <ele>384.94900512695</ele>
        <time>2009-06-10T13:58:45Z</time>
      </trkpt>
      <trkpt lat="44.92001" lon="5.09997">
        <ele>385.10699462891</ele>
        <time>2009-06-10T13:59:02Z</time>
      </trkpt>
      <trkpt lat="44.92001" lon="5.09997">
        <ele>385.09100341797</ele>
        <time>2009-06-10T13:59:06Z</time>
      </trkpt>
      <trkpt lat="44.92001" lon="5.09997">
        <ele>384.85998535156</ele>
        <time>2009-06-10T13:59:28Z</time>
      </trkpt>
      <trkpt lat="44.92001" lon="5.09997">
        <ele>384.85598754883</ele>
        <time>2009-06-10T13:59:30Z</time>
      </trkpt>
      <trkpt lat="44.92001" lon="5.09997">
        <ele>384.84298706055</ele>
        <time>2009-06-10T13:59:44Z</time>
      </trkpt>
      <trkpt lat="44.92001" lon="5.09997">
        <ele>385.03500366211</ele>
        <time>2009-06-10T13:59:58Z</time>
      </trkpt>
      <trkpt lat="44.92001" lon="5.09997">
        <ele>384.63800048828</ele>
        <time>2009-06-10T14:00:11Z</time>
      </trkpt>
      <trkpt lat="44.92001" lon="5.09997">
        <ele>384.96200561523</ele>
        <time>2009-06-10T14:00:14Z</time>
      </trkpt>
      <trkpt lat="44.92001" lon="5.09997">
        <ele>384.36898803711</ele>
        <time>2009-06-10T14:00:23Z</time>
      </trkpt>
      <trkpt lat="44.92012" lon="5.09993">
        <ele>384.87200927734</ele>
        <time>2009-06-10T14:00:30Z</time>
      </trkpt>
      <trkpt lat="44.92015" lon="5.10011">
        <ele>384.66598510742</ele>
        <time>2009-06-10T14:00:36Z</time>
      </trkpt>
      <trkpt lat="44.92014" lon="5.10015">
        <ele>384.93399047852</ele>
        <time>2009-06-10T14:00:45Z</time>
      </trkpt>
      <trkpt lat="44.92014" lon="5.10009">
        <ele>384.83801269531</ele>
        <time>2009-06-10T14:00:50Z</time>
      </trkpt>
      <trkpt lat="44.9201" lon="5.10006">
        <ele>384.60998535156</ele>
        <time>2009-06-10T14:01:01Z</time>
      </trkpt>
      <trkpt lat="44.9201" lon="5.10005">
        <ele>384.88000488281</ele>
        <time>2009-06-10T14:01:36Z</time>
      </trkpt>
      <trkpt lat="44.9201" lon="5.10005">
        <ele>384.85900878906</ele>
        <time>2009-06-10T14:01:37Z</time>
      </trkpt>
      <trkpt lat="44.92001" lon="5.09997">
        <ele>384.67401123047</ele>
        <time>2009-06-10T14:02:06Z</time>
      </trkpt>
      <trkpt lat="44.92001" lon="5.09997">
        <ele>384.59698486328</ele>
        <time>2009-06-10T14:02:13Z</time>
      </trkpt>
      <trkpt lat="44.92001" lon="5.09997">
        <ele>384.81900024414</ele>
        <time>2009-06-10T14:02:20Z</time>
      </trkpt>
      <trkpt lat="44.92001" lon="5.09997">
        <ele>385.03799438477</ele>
        <time>2009-06-10T14:02:32Z</time>
      </trkpt>
      <trkpt lat="44.92001" lon="5.09997">
        <ele>384.9280090332</ele>
        <time>2009-06-10T14:02:33Z</time>
      </trkpt>
      <trkpt lat="44.92001" lon="5.09997">
        <ele>385.09899902344</ele>
        <time>2009-06-10T14:02:36Z</time>
      </trkpt>
      <trkpt lat="44.92001" lon="5.09997">
        <ele>384.99499511719</ele>
        <time>2009-06-10T14:02:48Z</time>
      </trkpt>
      <trkpt lat="44.92001" lon="5.09997">
        <ele>385.10800170898</ele>
        <time>2009-06-10T14:02:56Z</time>
      </trkpt>
      <trkpt lat="44.92001" lon="5.09997">
        <ele>384.96200561523</ele>
        <time>2009-06-10T14:03:06Z</time>
      </trkpt>
      <trkpt lat="44.92001" lon="5.09997">
        <ele>385.75299072266</ele>
        <time>2009-06-10T14:03:16Z</time>
      </trkpt>
      <trkpt lat="44.92001" lon="5.09997">
        <ele>385.54501342773</ele>
        <time>2009-06-10T14:03:24Z</time>
      </trkpt>
      <trkpt lat="44.92001" lon="5.09997">
        <ele>385.51901245117</ele>
        <time>2009-06-10T14:03:25Z</time>
      </trkpt>
      <trkpt lat="44.92007" lon="5.09995">
        <ele>386.14401245117</ele>
        <time>2009-06-10T14:03:40Z</time>
      </trkpt>
      <trkpt lat="44.92007" lon="5.09995">
        <ele>385.34899902344</ele>
        <time>2009-06-10T14:03:43Z</time>
      </trkpt>
      <trkpt lat="44.92007" lon="5.09995">
        <ele>386.04998779297</ele>
        <time>2009-06-10T14:04:43Z</time>
      </trkpt>
      <trkpt lat="44.92007" lon="5.09995">
        <ele>385.97698974609</ele>
        <time>2009-06-10T14:04:44Z</time>
      </trkpt>
      <trkpt lat="44.92007" lon="5.09995">
        <ele>386.07299804688</ele>
        <time>2009-06-10T14:04:48Z</time>
      </trkpt>
      <trkpt lat="44.92007" lon="5.09995">
        <ele>386.32501220703</ele>
        <time>2009-06-10T14:05:13Z</time>
      </trkpt>
      <trkpt lat="44.92" lon="5.09998">
        <ele>386.26599121094</ele>
        <time>2009-06-10T14:05:28Z</time>
      </trkpt>
      <trkpt lat="44.92" lon="5.09998">
        <ele>385.78799438477</ele>
        <time>2009-06-10T14:06:01Z</time>
      </trkpt>
      <trkpt lat="44.92" lon="5.09998">
        <ele>385.78799438477</ele>
        <time>2009-06-10T14:06:02Z</time>
      </trkpt>
      <trkpt lat="44.92009" lon="5.09994">
        <ele>385.67098999023</ele>
        <time>2009-06-10T14:06:29Z</time>
      </trkpt>
      <trkpt lat="44.92001" lon="5.09997">
        <ele>385.71600341797</ele>
        <time>2009-06-10T14:06:41Z</time>
      </trkpt>
      <trkpt lat="44.92018" lon="5.09999">
        <ele>385.55200195312</ele>
        <time>2009-06-10T14:06:50Z</time>
      </trkpt>
      <trkpt lat="44.92015" lon="5.09994">
        <ele>385.43301391602</ele>
        <time>2009-06-10T14:07:01Z</time>
      </trkpt>
      <trkpt lat="44.92014" lon="5.09996">
        <ele>385.85000610352</ele>
        <time>2009-06-10T14:07:02Z</time>
      </trkpt>
      <trkpt lat="44.92001" lon="5.09997">
        <ele>385.99700927734</ele>
        <time>2009-06-10T14:07:15Z</time>
      </trkpt>
      <trkpt lat="44.92001" lon="5.09997">
        <ele>385.76800537109</ele>
        <time>2009-06-10T14:07:22Z</time>
      </trkpt>
      <trkpt lat="44.92001" lon="5.09997">
        <ele>386.2380065918</ele>
        <time>2009-06-10T14:07:48Z</time>
      </trkpt>
      <trkpt lat="44.92001" lon="5.09997">
        <ele>386.74200439453</ele>
        <time>2009-06-10T14:07:58Z</time>
      </trkpt>
      <trkpt lat="44.92001" lon="5.09997">
        <ele>386.50399780273</ele>
        <time>2009-06-10T14:07:59Z</time>
      </trkpt>
      <trkpt lat="44.92001" lon="5.09997">
        <ele>386.00299072266</ele>
        <time>2009-06-10T14:08:25Z</time>
      </trkpt>
      <trkpt lat="44.92001" lon="5.09997">
        <ele>385.87799072266</ele>
        <time>2009-06-10T14:08:26Z</time>
      </trkpt>
      <trkpt lat="44.92001" lon="5.09997">
        <ele>386.43399047852</ele>
        <time>2009-06-10T14:08:27Z</time>
      </trkpt>
      <trkpt lat="44.92001" lon="5.09992">
        <ele>386.46301269531</ele>
        <time>2009-06-10T14:08:36Z</time>
      </trkpt>
      <trkpt lat="44.92001" lon="5.09992">
        <ele>386.72900390625</ele>
        <time>2009-06-10T14:09:06Z</time>
      </trkpt>
      <trkpt lat="44.92001" lon="5.09992">
        <ele>385.84399414062</ele>
        <time>2009-06-10T14:09:07Z</time>
      </trkpt>
      <trkpt lat="44.92001" lon="5.09992">
        <ele>386.76901245117</ele>
        <time>2009-06-10T14:09:09Z</time>
      </trkpt>
      <trkpt lat="44.92001" lon="5.09992">
        <ele>385.68899536133</ele>
        <time>2009-06-10T14:09:16Z</time>
      </trkpt>
      <trkpt lat="44.92001" lon="5.09992">
        <ele>386.26000976562</ele>
        <time>2009-06-10T14:09:31Z</time>
      </trkpt>
      <trkpt lat="44.92001" lon="5.09992">
        <ele>386.40701293945</ele>
        <time>2009-06-10T14:10:19Z</time>
      </trkpt>
      <trkpt lat="44.92001" lon="5.09992">
        <ele>386.02700805664</ele>
        <time>2009-06-10T14:10:29Z</time>
      </trkpt>
      <trkpt lat="44.92001" lon="5.09992">
        <ele>385.60299682617</ele>
        <time>2009-06-10T14:11:31Z</time>
      </trkpt>
      <trkpt lat="44.92001" lon="5.09992">
        <ele>385.73999023438</ele>
        <time>2009-06-10T14:12:39Z</time>
      </trkpt>
      <trkpt lat="44.92001" lon="5.09992">
        <ele>385.49200439453</ele>
        <time>2009-06-10T14:12:40Z</time>
      </trkpt>
      <trkpt lat="44.92001" lon="5.09992">
        <ele>385.08599853516</ele>
        <time>2009-06-10T14:16:33Z</time>
      </trkpt>
      <trkpt lat="44.92001" lon="5.09992">
        <ele>385.66500854492</ele>
        <time>2009-06-10T14:16:55Z</time>
      </trkpt>
      <trkpt lat="44.92001" lon="5.09992">
        <ele>385.82598876953</ele>
        <time>2009-06-10T14:16:58Z</time>
      </trkpt>
      <trkpt lat="44.92001" lon="5.09992">
        <ele>385.16900634766</ele>
        <time>2009-06-10T14:20:04Z</time>
      </trkpt>
      <trkpt lat="44.92001" lon="5.09992">
        <ele>384.66400146484</ele>
        <time>2009-06-10T14:20:09Z</time>
      </trkpt>
      <trkpt lat="44.92001" lon="5.09992">
        <ele>384.66400146484</ele>
        <time>2009-06-10T14:20:10Z</time>
      </trkpt>
      <trkpt lat="44.92001" lon="5.09992">
        <ele>384.09201049805</ele>
        <time>2009-06-10T14:31:50Z</time>
      </trkpt>
      <trkpt lat="44.92001" lon="5.09992">
        <ele>383.86999511719</ele>
        <time>2009-06-10T14:31:51Z</time>
      </trkpt>
      <trkpt lat="44.92001" lon="5.09997">
        <ele>382.68099975586</ele>
        <time>2009-06-10T14:35:19Z</time>
      </trkpt>
      <trkpt lat="44.92001" lon="5.09997">
        <ele>383.27499389648</ele>
        <time>2009-06-10T14:35:22Z</time>
      </trkpt>
      <trkpt lat="44.92001" lon="5.09997">
        <ele>383.36898803711</ele>
        <time>2009-06-10T14:35:36Z</time>
      </trkpt>
      <trkpt lat="44.92001" lon="5.09997">
        <ele>383.63101196289</ele>
        <time>2009-06-10T14:35:37Z</time>
      </trkpt>
      <trkpt lat="44.92001" lon="5.09997">
        <ele>383.14801025391</ele>
        <time>2009-06-10T14:36:29Z</time>
      </trkpt>
      <trkpt lat="44.92001" lon="5.09997">
        <ele>383.2080078125</ele>
        <time>2009-06-10T14:36:33Z</time>
      </trkpt>
      <trkpt lat="44.92001" lon="5.09997">
        <ele>382.89300537109</ele>
        <time>2009-06-10T14:38:42Z</time>
      </trkpt>
      <trkpt lat="44.92001" lon="5.09997">
        <ele>382.48999023438</ele>
        <time>2009-06-10T14:39:05Z</time>
      </trkpt>
      <trkpt lat="44.92001" lon="5.09997">
        <ele>382.66400146484</ele>
        <time>2009-06-10T14:39:06Z</time>
      </trkpt>
      <trkpt lat="44.92001" lon="5.09997">
        <ele>382.16799926758</ele>
        <time>2009-06-10T14:41:50Z</time>
      </trkpt>
      <trkpt lat="44.92001" lon="5.09997">
        <ele>381.72698974609</ele>
        <time>2009-06-10T14:44:08Z</time>
      </trkpt>
      <trkpt lat="44.92001" lon="5.09997">
        <ele>381.62799072266</ele>
        <time>2009-06-10T14:44:14Z</time>
      </trkpt>
      <trkpt lat="44.92001" lon="5.09997">
        <ele>382.08401489258</ele>
        <time>2009-06-10T14:47:35Z</time>
      </trkpt>
      <trkpt lat="44.92001" lon="5.09997">
        <ele>381.91799926758</ele>
        <time>2009-06-10T14:47:38Z</time>
      </trkpt>
      <trkpt lat="44.92001" lon="5.09997">
        <ele>382.28298950195</ele>
        <time>2009-06-10T14:47:50Z</time>
      </trkpt>
      <trkpt lat="44.92001" lon="5.09997">
        <ele>382.08999633789</ele>
        <time>2009-06-10T14:50:15Z</time>
      </trkpt>
      <trkpt lat="44.92001" lon="5.09997">
        <ele>382.1960144043</ele>
        <time>2009-06-10T14:50:16Z</time>
      </trkpt>
      <trkpt lat="44.92001" lon="5.09997">
        <ele>381.14599609375</ele>
        <time>2009-06-10T14:50:24Z</time>
      </trkpt>
      <trkpt lat="44.92002" lon="5.09995">
        <ele>381.51800537109</ele>
        <time>2009-06-10T14:51:41Z</time>
      </trkpt>
      <trkpt lat="44.92001" lon="5.09995">
        <ele>381.51300048828</ele>
        <time>2009-06-10T14:51:44Z</time>
      </trkpt>
      <trkpt lat="44.92001" lon="5.09995">
        <ele>381.4049987793</ele>
        <time>2009-06-10T14:51:45Z</time>
      </trkpt>
      <trkpt lat="44.92" lon="5.09998">
        <ele>381.27301025391</ele>
        <time>2009-06-10T14:52:18Z</time>
      </trkpt>
      <trkpt lat="44.92" lon="5.09998">
        <ele>381.27301025391</ele>
        <time>2009-06-10T14:52:19Z</time>
      </trkpt>
      <trkpt lat="44.91994" lon="5.09999">
        <ele>380.93701171875</ele>
        <time>2009-06-10T14:52:24Z</time>
      </trkpt>
      <trkpt lat="44.91991" lon="5.09999">
        <ele>381.67999267578</ele>
        <time>2009-06-10T14:52:29Z</time>
      </trkpt>
      <trkpt lat="44.91987" lon="5.1">
        <ele>381.52200317383</ele>
        <time>2009-06-10T14:52:31Z</time>
      </trkpt>
      <trkpt lat="44.91986" lon="5.1">
        <ele>381.32501220703</ele>
        <time>2009-06-10T14:52:32Z</time>
      </trkpt>
      <trkpt lat="44.91983" lon="5.10001">
        <ele>381.97799682617</ele>
        <time>2009-06-10T14:52:40Z</time>
      </trkpt>
      <trkpt lat="44.9198" lon="5.10001">
        <ele>381.27801513672</ele>
        <time>2009-06-10T14:52:49Z</time>
      </trkpt>
      <trkpt lat="44.9198" lon="5.10001">
        <ele>380.92300415039</ele>
        <time>2009-06-10T14:53:38Z</time>
      </trkpt>
      <trkpt lat="44.9198" lon="5.10001">
        <ele>381.14498901367</ele>
        <time>2009-06-10T14:53:39Z</time>
      </trkpt>
      <trkpt lat="44.9198" lon="5.10001">
        <ele>381.14099121094</ele>
        <time>2009-06-10T14:53:41Z</time>
      </trkpt>
      <trkpt lat="44.91972" lon="5.10003">
        <ele>381.36599731445</ele>
        <time>2009-06-10T14:53:45Z</time>
      </trkpt>
      <trkpt lat="44.91972" lon="5.10003">
        <ele>381.36599731445</ele>
        <time>2009-06-10T14:53:46Z</time>
      </trkpt>
      <trkpt lat="44.91964" lon="5.10004">
        <ele>380.66900634766</ele>
        <time>2009-06-10T14:53:50Z</time>
      </trkpt>
      <trkpt lat="44.91952" lon="5.10007">
        <ele>379.82598876953</ele>
        <time>2009-06-10T14:53:59Z</time>
      </trkpt>
      <trkpt lat="44.91948" lon="5.10007">
        <ele>379.58599853516</ele>
        <time>2009-06-10T14:54:01Z</time>
      </trkpt>
      <trkpt lat="44.91946" lon="5.10008">
        <ele>379.11700439453</ele>
        <time>2009-06-10T14:54:02Z</time>
      </trkpt>
      <trkpt lat="44.91922" lon="5.10012">
        <ele>377.41198730469</ele>
        <time>2009-06-10T14:54:12Z</time>
      </trkpt>
      <trkpt lat="44.9191" lon="5.10014">
        <ele>376.64700317383</ele>
        <time>2009-06-10T14:54:16Z</time>
      </trkpt>
      <trkpt lat="44.91907" lon="5.10015">
        <ele>376.45599365234</ele>
        <time>2009-06-10T14:54:17Z</time>
      </trkpt>
      <trkpt lat="44.91899" lon="5.10016">
        <ele>375.89300537109</ele>
        <time>2009-06-10T14:54:19Z</time>
      </trkpt>
      <trkpt lat="44.91824" lon="5.10031">
        <ele>371.56500244141</ele>
        <time>2009-06-10T14:54:33Z</time>
      </trkpt>
      <trkpt lat="44.91814" lon="5.10032">
        <ele>370.11999511719</ele>
        <time>2009-06-10T14:54:35Z</time>
      </trkpt>
      <trkpt lat="44.91799" lon="5.10035">
        <ele>369.7080078125</ele>
        <time>2009-06-10T14:54:41Z</time>
      </trkpt>
      <trkpt lat="44.91801" lon="5.10007">
        <ele>366.63900756836</ele>
        <time>2009-06-10T14:54:49Z</time>
      </trkpt>
      <trkpt lat="44.91802" lon="5.09994">
        <ele>366.01300048828</ele>
        <time>2009-06-10T14:54:50Z</time>
      </trkpt>
      <trkpt lat="44.91789" lon="5.09961">
        <ele>363.20098876953</ele>
        <time>2009-06-10T14:54:54Z</time>
      </trkpt>
      <trkpt lat="44.91782" lon="5.09921">
        <ele>361.78799438477</ele>
        <time>2009-06-10T14:54:58Z</time>
      </trkpt>
      <trkpt lat="44.91782" lon="5.0991">
        <ele>361.88299560547</ele>
        <time>2009-06-10T14:54:59Z</time>
      </trkpt>
      <trkpt lat="44.91782" lon="5.09887">
        <ele>361.17498779297</ele>
        <time>2009-06-10T14:55:01Z</time>
      </trkpt>
      <trkpt lat="44.91782" lon="5.09853">
        <ele>360.44100952148</ele>
        <time>2009-06-10T14:55:04Z</time>
      </trkpt>
      <trkpt lat="44.91752" lon="5.09749">
        <ele>356.68701171875</ele>
        <time>2009-06-10T14:55:14Z</time>
      </trkpt>
      <trkpt lat="44.91738" lon="5.09711">
        <ele>356.94000244141</ele>
        <time>2009-06-10T14:55:18Z</time>
      </trkpt>
      <trkpt lat="44.91728" lon="5.09684">
        <ele>356.6369934082</ele>
        <time>2009-06-10T14:55:21Z</time>
      </trkpt>
      <trkpt lat="44.91724" lon="5.09666">
        <ele>356.47601318359</ele>
        <time>2009-06-10T14:55:23Z</time>
      </trkpt>
      <trkpt lat="44.91722" lon="5.09648">
        <ele>356.2919921875</ele>
        <time>2009-06-10T14:55:25Z</time>
      </trkpt>
      <trkpt lat="44.91709" lon="5.09483">
        <ele>353.29598999023</ele>
        <time>2009-06-10T14:55:43Z</time>
      </trkpt>
      <trkpt lat="44.91703" lon="5.09452">
        <ele>353.36099243164</ele>
        <time>2009-06-10T14:55:47Z</time>
      </trkpt>
      <trkpt lat="44.917" lon="5.0943">
        <ele>353.05200195312</ele>
        <time>2009-06-10T14:55:50Z</time>
      </trkpt>
      <trkpt lat="44.91699" lon="5.09422">
        <ele>352.60299682617</ele>
        <time>2009-06-10T14:55:51Z</time>
      </trkpt>
      <trkpt lat="44.91697" lon="5.09382">
        <ele>352.04699707031</ele>
        <time>2009-06-10T14:55:57Z</time>
      </trkpt>
      <trkpt lat="44.91693" lon="5.09284">
        <ele>350.21798706055</ele>
        <time>2009-06-10T14:56:09Z</time>
      </trkpt>
      <trkpt lat="44.91692" lon="5.09256">
        <ele>349.49499511719</ele>
        <time>2009-06-10T14:56:12Z</time>
      </trkpt>
      <trkpt lat="44.91692" lon="5.09238">
        <ele>349.19198608398</ele>
        <time>2009-06-10T14:56:14Z</time>
      </trkpt>
      <trkpt lat="44.91689" lon="5.09219">
        <ele>348.21200561523</ele>
        <time>2009-06-10T14:56:16Z</time>
      </trkpt>
      <trkpt lat="44.91687" lon="5.0921">
        <ele>348.49798583984</ele>
        <time>2009-06-10T14:56:17Z</time>
      </trkpt>
      <trkpt lat="44.91685" lon="5.092">
        <ele>347.97601318359</ele>
        <time>2009-06-10T14:56:18Z</time>
      </trkpt>
      <trkpt lat="44.91674" lon="5.09141">
        <ele>346.32800292969</ele>
        <time>2009-06-10T14:56:24Z</time>
      </trkpt>
      <trkpt lat="44.91672" lon="5.09131">
        <ele>345.68099975586</ele>
        <time>2009-06-10T14:56:25Z</time>
      </trkpt>
      <trkpt lat="44.91668" lon="5.09112">
        <ele>344.70999145508</ele>
        <time>2009-06-10T14:56:27Z</time>
      </trkpt>
      <trkpt lat="44.91666" lon="5.09102">
        <ele>344.64999389648</ele>
        <time>2009-06-10T14:56:28Z</time>
      </trkpt>
      <trkpt lat="44.91657" lon="5.09052">
        <ele>343.01998901367</ele>
        <time>2009-06-10T14:56:33Z</time>
      </trkpt>
      <trkpt lat="44.91657" lon="5.09031">
        <ele>342.7799987793</ele>
        <time>2009-06-10T14:56:35Z</time>
      </trkpt>
      <trkpt lat="44.91656" lon="5.0902">
        <ele>342.76501464844</ele>
        <time>2009-06-10T14:56:36Z</time>
      </trkpt>
      <trkpt lat="44.91656" lon="5.0901">
        <ele>342.52801513672</ele>
        <time>2009-06-10T14:56:37Z</time>
      </trkpt>
      <trkpt lat="44.91656" lon="5.08999">
        <ele>342.23001098633</ele>
        <time>2009-06-10T14:56:38Z</time>
      </trkpt>
      <trkpt lat="44.91656" lon="5.08978">
        <ele>341.52200317383</ele>
        <time>2009-06-10T14:56:40Z</time>
      </trkpt>
      <trkpt lat="44.91655" lon="5.08917">
        <ele>340.20001220703</ele>
        <time>2009-06-10T14:56:46Z</time>
      </trkpt>
      <trkpt lat="44.91654" lon="5.08888">
        <ele>339.74700927734</ele>
        <time>2009-06-10T14:56:49Z</time>
      </trkpt>
      <trkpt lat="44.91653" lon="5.08878">
        <ele>339.58898925781</ele>
        <time>2009-06-10T14:56:50Z</time>
      </trkpt>
      <trkpt lat="44.91656" lon="5.0883">
        <ele>338.10598754883</ele>
        <time>2009-06-10T14:56:55Z</time>
      </trkpt>
      <trkpt lat="44.9166" lon="5.08789">
        <ele>336.90301513672</ele>
        <time>2009-06-10T14:56:59Z</time>
      </trkpt>
      <trkpt lat="44.91661" lon="5.08779">
        <ele>336.61499023438</ele>
        <time>2009-06-10T14:57:00Z</time>
      </trkpt>
      <trkpt lat="44.91662" lon="5.08769">
        <ele>336.33599853516</ele>
        <time>2009-06-10T14:57:01Z</time>
      </trkpt>
      <trkpt lat="44.91672" lon="5.08654">
        <ele>334.77499389648</ele>
        <time>2009-06-10T14:57:12Z</time>
      </trkpt>
      <trkpt lat="44.91675" lon="5.08623">
        <ele>332.95401000977</ele>
        <time>2009-06-10T14:57:15Z</time>
      </trkpt>
      <trkpt lat="44.91677" lon="5.08603">
        <ele>332.76998901367</ele>
        <time>2009-06-10T14:57:17Z</time>
      </trkpt>
      <trkpt lat="44.91689" lon="5.08468">
        <ele>328.77801513672</ele>
        <time>2009-06-10T14:57:30Z</time>
      </trkpt>
      <trkpt lat="44.91692" lon="5.08364">
        <ele>326.49798583984</ele>
        <time>2009-06-10T14:57:40Z</time>
      </trkpt>
      <trkpt lat="44.91699" lon="5.08165">
        <ele>322.24499511719</ele>
        <time>2009-06-10T14:57:58Z</time>
      </trkpt>
      <trkpt lat="44.91696" lon="5.07975">
        <ele>317.70401000977</ele>
        <time>2009-06-10T14:58:16Z</time>
      </trkpt>
      <trkpt lat="44.91696" lon="5.0785">
        <ele>315.81201171875</ele>
        <time>2009-06-10T14:58:28Z</time>
      </trkpt>
      <trkpt lat="44.91706" lon="5.07713">
        <ele>312.70300292969</ele>
        <time>2009-06-10T14:58:41Z</time>
      </trkpt>
      <trkpt lat="44.9171" lon="5.07691">
        <ele>311.9469909668</ele>
        <time>2009-06-10T14:58:43Z</time>
      </trkpt>
      <trkpt lat="44.91748" lon="5.07546">
        <ele>308.89898681641</ele>
        <time>2009-06-10T14:58:57Z</time>
      </trkpt>
      <trkpt lat="44.91828" lon="5.07389">
        <ele>305.60900878906</ele>
        <time>2009-06-10T14:59:14Z</time>
      </trkpt>
      <trkpt lat="44.91885" lon="5.07271">
        <ele>302.8450012207</ele>
        <time>2009-06-10T14:59:26Z</time>
      </trkpt>
      <trkpt lat="44.91957" lon="5.07083">
        <ele>298.87899780273</ele>
        <time>2009-06-10T14:59:44Z</time>
      </trkpt>
      <trkpt lat="44.91968" lon="5.0705">
        <ele>297.45300292969</ele>
        <time>2009-06-10T14:59:47Z</time>
      </trkpt>
      <trkpt lat="44.92" lon="5.06882">
        <ele>295.35000610352</ele>
        <time>2009-06-10T15:00:03Z</time>
      </trkpt>
      <trkpt lat="44.92005" lon="5.0686">
        <ele>294.50601196289</ele>
        <time>2009-06-10T15:00:05Z</time>
      </trkpt>
      <trkpt lat="44.9201" lon="5.0684">
        <ele>294.14001464844</ele>
        <time>2009-06-10T15:00:07Z</time>
      </trkpt>
      <trkpt lat="44.92016" lon="5.0682">
        <ele>293.65399169922</ele>
        <time>2009-06-10T15:00:09Z</time>
      </trkpt>
      <trkpt lat="44.92019" lon="5.06809">
        <ele>293.29501342773</ele>
        <time>2009-06-10T15:00:10Z</time>
      </trkpt>
      <trkpt lat="44.92035" lon="5.06746">
        <ele>291.85800170898</ele>
        <time>2009-06-10T15:00:16Z</time>
      </trkpt>
      <trkpt lat="44.92041" lon="5.06725">
        <ele>291.96398925781</ele>
        <time>2009-06-10T15:00:18Z</time>
      </trkpt>
      <trkpt lat="44.92043" lon="5.06714">
        <ele>291.32299804688</ele>
        <time>2009-06-10T15:00:19Z</time>
      </trkpt>
      <trkpt lat="44.92049" lon="5.06694">
        <ele>290.73498535156</ele>
        <time>2009-06-10T15:00:21Z</time>
      </trkpt>
      <trkpt lat="44.92054" lon="5.06673">
        <ele>290.38299560547</ele>
        <time>2009-06-10T15:00:23Z</time>
      </trkpt>
      <trkpt lat="44.92057" lon="5.06663">
        <ele>290.0830078125</ele>
        <time>2009-06-10T15:00:24Z</time>
      </trkpt>
      <trkpt lat="44.92077" lon="5.06589">
        <ele>288.06600952148</ele>
        <time>2009-06-10T15:00:31Z</time>
      </trkpt>
      <trkpt lat="44.92096" lon="5.06527">
        <ele>287.12701416016</ele>
        <time>2009-06-10T15:00:37Z</time>
      </trkpt>
      <trkpt lat="44.9211" lon="5.06487">
        <ele>286.72399902344</ele>
        <time>2009-06-10T15:00:41Z</time>
      </trkpt>
      <trkpt lat="44.92135" lon="5.06419">
        <ele>284.16900634766</ele>
        <time>2009-06-10T15:00:48Z</time>
      </trkpt>
      <trkpt lat="44.92138" lon="5.06409">
        <ele>283.81900024414</ele>
        <time>2009-06-10T15:00:49Z</time>
      </trkpt>
      <trkpt lat="44.92157" lon="5.06357">
        <ele>282.625</ele>
        <time>2009-06-10T15:00:54Z</time>
      </trkpt>
      <trkpt lat="44.92169" lon="5.06325">
        <ele>281.55499267578</ele>
        <time>2009-06-10T15:00:57Z</time>
      </trkpt>
      <trkpt lat="44.92182" lon="5.06293">
        <ele>281.875</ele>
        <time>2009-06-10T15:01:00Z</time>
      </trkpt>
      <trkpt lat="44.92191" lon="5.06272">
        <ele>281.25399780273</ele>
        <time>2009-06-10T15:01:02Z</time>
      </trkpt>
      <trkpt lat="44.92201" lon="5.0625">
        <ele>280.72698974609</ele>
        <time>2009-06-10T15:01:04Z</time>
      </trkpt>
      <trkpt lat="44.92273" lon="5.06056">
        <ele>276.54998779297</ele>
        <time>2009-06-10T15:01:22Z</time>
      </trkpt>
      <trkpt lat="44.9229" lon="5.05987">
        <ele>274.96701049805</ele>
        <time>2009-06-10T15:01:29Z</time>
      </trkpt>
      <trkpt lat="44.92294" lon="5.05974">
        <ele>274.98599243164</ele>
        <time>2009-06-10T15:01:32Z</time>
      </trkpt>
      <trkpt lat="44.92295" lon="5.05972">
        <ele>274.89001464844</ele>
        <time>2009-06-10T15:01:33Z</time>
      </trkpt>
      <trkpt lat="44.92296" lon="5.05966">
        <ele>274.95498657227</ele>
        <time>2009-06-10T15:01:35Z</time>
      </trkpt>
      <trkpt lat="44.92316" lon="5.0591">
        <ele>273.76901245117</ele>
        <time>2009-06-10T15:01:44Z</time>
      </trkpt>
      <trkpt lat="44.92325" lon="5.05885">
        <ele>272.89001464844</ele>
        <time>2009-06-10T15:01:47Z</time>
      </trkpt>
      <trkpt lat="44.92348" lon="5.05819">
        <ele>270.75500488281</ele>
        <time>2009-06-10T15:01:54Z</time>
      </trkpt>
      <trkpt lat="44.92392" lon="5.05653">
        <ele>267.94198608398</ele>
        <time>2009-06-10T15:02:09Z</time>
      </trkpt>
      <trkpt lat="44.92438" lon="5.05473">
        <ele>264.89700317383</ele>
        <time>2009-06-10T15:02:25Z</time>
      </trkpt>
      <trkpt lat="44.92481" lon="5.05298">
        <ele>261.64999389648</ele>
        <time>2009-06-10T15:02:42Z</time>
      </trkpt>
      <trkpt lat="44.92499" lon="5.05207">
        <ele>259.84600830078</ele>
        <time>2009-06-10T15:02:50Z</time>
      </trkpt>
      <trkpt lat="44.92503" lon="5.05178">
        <ele>259.11199951172</ele>
        <time>2009-06-10T15:02:53Z</time>
      </trkpt>
      <trkpt lat="44.92503" lon="5.05178">
        <ele>258.35998535156</ele>
        <time>2009-06-10T15:02:55Z</time>
      </trkpt>
      <trkpt lat="44.92504" lon="5.05123">
        <ele>257.77801513672</ele>
        <time>2009-06-10T15:02:58Z</time>
      </trkpt>
      <trkpt lat="44.92505" lon="5.05057">
        <ele>256.45199584961</ele>
        <time>2009-06-10T15:03:04Z</time>
      </trkpt>
      <trkpt lat="44.92507" lon="5.04943">
        <ele>254.33799743652</ele>
        <time>2009-06-10T15:03:14Z</time>
      </trkpt>
      <trkpt lat="44.92514" lon="5.04886">
        <ele>253.12800598144</ele>
        <time>2009-06-10T15:03:19Z</time>
      </trkpt>
      <trkpt lat="44.92518" lon="5.04865">
        <ele>252.80299377441</ele>
        <time>2009-06-10T15:03:21Z</time>
      </trkpt>
      <trkpt lat="44.92521" lon="5.04844">
        <ele>252.28799438477</ele>
        <time>2009-06-10T15:03:23Z</time>
      </trkpt>
      <trkpt lat="44.92522" lon="5.04834">
        <ele>252.2619934082</ele>
        <time>2009-06-10T15:03:24Z</time>
      </trkpt>
      <trkpt lat="44.92528" lon="5.04765">
        <ele>250.96899414062</ele>
        <time>2009-06-10T15:03:31Z</time>
      </trkpt>
      <trkpt lat="44.92531" lon="5.04732">
        <ele>249.9940032959</ele>
        <time>2009-06-10T15:03:36Z</time>
      </trkpt>
      <trkpt lat="44.92532" lon="5.04721">
        <ele>249.49800109863</ele>
        <time>2009-06-10T15:03:43Z</time>
      </trkpt>
      <trkpt lat="44.92532" lon="5.04719">
        <ele>249.06500244141</ele>
        <time>2009-06-10T15:05:26Z</time>
      </trkpt>
      <trkpt lat="44.92533" lon="5.04714">
        <ele>248.85499572754</ele>
        <time>2009-06-10T15:05:29Z</time>
      </trkpt>
      <trkpt lat="44.92551" lon="5.04679">
        <ele>248.2440032959</ele>
        <time>2009-06-10T15:05:35Z</time>
      </trkpt>
      <trkpt lat="44.92617" lon="5.04551">
        <ele>245.57200622559</ele>
        <time>2009-06-10T15:05:51Z</time>
      </trkpt>
      <trkpt lat="44.92704" lon="5.04447">
        <ele>243.36999511719</ele>
        <time>2009-06-10T15:06:05Z</time>
      </trkpt>
      <trkpt lat="44.92812" lon="5.0437">
        <ele>240.63999938965</ele>
        <time>2009-06-10T15:06:19Z</time>
      </trkpt>
      <trkpt lat="44.92945" lon="5.04267">
        <ele>236.00700378418</ele>
        <time>2009-06-10T15:06:36Z</time>
      </trkpt>
      <trkpt lat="44.93007" lon="5.04184">
        <ele>233.30900573731</ele>
        <time>2009-06-10T15:06:46Z</time>
      </trkpt>
      <trkpt lat="44.93097" lon="5.04047">
        <ele>230.27699279785</ele>
        <time>2009-06-10T15:07:01Z</time>
      </trkpt>
      <trkpt lat="44.93118" lon="5.0401">
        <ele>229.70199584961</ele>
        <time>2009-06-10T15:07:05Z</time>
      </trkpt>
      <trkpt lat="44.93154" lon="5.03944">
        <ele>227.93099975586</ele>
        <time>2009-06-10T15:07:12Z</time>
      </trkpt>
      <trkpt lat="44.93172" lon="5.03905">
        <ele>227.51600646973</ele>
        <time>2009-06-10T15:07:16Z</time>
      </trkpt>
      <trkpt lat="44.9322" lon="5.03759">
        <ele>225.2380065918</ele>
        <time>2009-06-10T15:07:31Z</time>
      </trkpt>
      <trkpt lat="44.93279" lon="5.03582">
        <ele>222.49699401856</ele>
        <time>2009-06-10T15:07:50Z</time>
      </trkpt>
      <trkpt lat="44.93292" lon="5.03551">
        <ele>221.76899719238</ele>
        <time>2009-06-10T15:07:54Z</time>
      </trkpt>
      <trkpt lat="44.93304" lon="5.03518">
        <ele>220.46499633789</ele>
        <time>2009-06-10T15:07:57Z</time>
      </trkpt>
      <trkpt lat="44.93308" lon="5.03497">
        <ele>219.58799743652</ele>
        <time>2009-06-10T15:07:59Z</time>
      </trkpt>
      <trkpt lat="44.93311" lon="5.03476">
        <ele>219.52799987793</ele>
        <time>2009-06-10T15:08:01Z</time>
      </trkpt>
      <trkpt lat="44.93312" lon="5.03465">
        <ele>219.28300476074</ele>
        <time>2009-06-10T15:08:02Z</time>
      </trkpt>
      <trkpt lat="44.93314" lon="5.03443">
        <ele>218.93699645996</ele>
        <time>2009-06-10T15:08:04Z</time>
      </trkpt>
      <trkpt lat="44.93315" lon="5.03432">
        <ele>219.11099243164</ele>
        <time>2009-06-10T15:08:05Z</time>
      </trkpt>
      <trkpt lat="44.93324" lon="5.03355">
        <ele>217.70599365234</ele>
        <time>2009-06-10T15:08:12Z</time>
      </trkpt>
      <trkpt lat="44.93325" lon="5.03344">
        <ele>217.57800292969</ele>
        <time>2009-06-10T15:08:13Z</time>
      </trkpt>
      <trkpt lat="44.93326" lon="5.03333">
        <ele>217.95199584961</ele>
        <time>2009-06-10T15:08:14Z</time>
      </trkpt>
      <trkpt lat="44.93329" lon="5.03312">
        <ele>217.31500244141</ele>
        <time>2009-06-10T15:08:16Z</time>
      </trkpt>
      <trkpt lat="44.93334" lon="5.03291">
        <ele>216.07099914551</ele>
        <time>2009-06-10T15:08:18Z</time>
      </trkpt>
      <trkpt lat="44.93339" lon="5.0327">
        <ele>215.64900207519</ele>
        <time>2009-06-10T15:08:20Z</time>
      </trkpt>
      <trkpt lat="44.93341" lon="5.0326">
        <ele>215.27799987793</ele>
        <time>2009-06-10T15:08:21Z</time>
      </trkpt>
      <trkpt lat="44.93364" lon="5.03158">
        <ele>213.99099731445</ele>
        <time>2009-06-10T15:08:31Z</time>
      </trkpt>
      <trkpt lat="44.93369" lon="5.03137">
        <ele>213.77699279785</ele>
        <time>2009-06-10T15:08:33Z</time>
      </trkpt>
      <trkpt lat="44.93374" lon="5.03117">
        <ele>213.59599304199</ele>
        <time>2009-06-10T15:08:35Z</time>
      </trkpt>
      <trkpt lat="44.93389" lon="5.03056">
        <ele>212.56799316406</ele>
        <time>2009-06-10T15:08:41Z</time>
      </trkpt>
      <trkpt lat="44.93394" lon="5.03036">
        <ele>212.42399597168</ele>
        <time>2009-06-10T15:08:43Z</time>
      </trkpt>
      <trkpt lat="44.93422" lon="5.02933">
        <ele>211.93600463867</ele>
        <time>2009-06-10T15:08:53Z</time>
      </trkpt>
      <trkpt lat="44.93452" lon="5.02818">
        <ele>210.07800292969</ele>
        <time>2009-06-10T15:09:04Z</time>
      </trkpt>
      <trkpt lat="44.93477" lon="5.02747">
        <ele>208.79800415039</ele>
        <time>2009-06-10T15:09:11Z</time>
      </trkpt>
      <trkpt lat="44.93484" lon="5.02726">
        <ele>208.52400207519</ele>
        <time>2009-06-10T15:09:13Z</time>
      </trkpt>
      <trkpt lat="44.93499" lon="5.02685">
        <ele>208.13200378418</ele>
        <time>2009-06-10T15:09:17Z</time>
      </trkpt>
      <trkpt lat="44.93502" lon="5.02675">
        <ele>208.19700622559</ele>
        <time>2009-06-10T15:09:18Z</time>
      </trkpt>
      <trkpt lat="44.93509" lon="5.02657">
        <ele>207.84700012207</ele>
        <time>2009-06-10T15:09:20Z</time>
      </trkpt>
      <trkpt lat="44.93512" lon="5.02647">
        <ele>207.68899536133</ele>
        <time>2009-06-10T15:09:21Z</time>
      </trkpt>
      <trkpt lat="44.93515" lon="5.02638">
        <ele>207.65400695801</ele>
        <time>2009-06-10T15:09:22Z</time>
      </trkpt>
      <trkpt lat="44.93522" lon="5.02619">
        <ele>207.47599792481</ele>
        <time>2009-06-10T15:09:25Z</time>
      </trkpt>
      <trkpt lat="44.93523" lon="5.02614">
        <ele>207.22099304199</ele>
        <time>2009-06-10T15:09:27Z</time>
      </trkpt>
      <trkpt lat="44.93524" lon="5.02612">
        <ele>207.45300292969</ele>
        <time>2009-06-10T15:09:30Z</time>
      </trkpt>
      <trkpt lat="44.93544" lon="5.02579">
        <ele>207.05400085449</ele>
        <time>2009-06-10T15:09:36Z</time>
      </trkpt>
      <trkpt lat="44.93539" lon="5.02575">
        <ele>207.23500061035</ele>
        <time>2009-06-10T15:09:37Z</time>
      </trkpt>
      <trkpt lat="44.93542" lon="5.02556">
        <ele>207.15299987793</ele>
        <time>2009-06-10T15:09:38Z</time>
      </trkpt>
      <trkpt lat="44.93544" lon="5.02548">
        <ele>207.00199890137</ele>
        <time>2009-06-10T15:09:39Z</time>
      </trkpt>
      <trkpt lat="44.93547" lon="5.02539">
        <ele>207.0890045166</ele>
        <time>2009-06-10T15:09:40Z</time>
      </trkpt>
      <trkpt lat="44.93559" lon="5.02495">
        <ele>206.27499389648</ele>
        <time>2009-06-10T15:09:45Z</time>
      </trkpt>
      <trkpt lat="44.93562" lon="5.02487">
        <ele>206.05499267578</ele>
        <time>2009-06-10T15:09:46Z</time>
      </trkpt>
      <trkpt lat="44.93584" lon="5.02407">
        <ele>204.96299743652</ele>
        <time>2009-06-10T15:09:55Z</time>
      </trkpt>
      <trkpt lat="44.93614" lon="5.02371">
        <ele>203.8809967041</ele>
        <time>2009-06-10T15:10:01Z</time>
      </trkpt>
      <trkpt lat="44.9362" lon="5.02367">
        <ele>203.7200012207</ele>
        <time>2009-06-10T15:10:02Z</time>
      </trkpt>
      <trkpt lat="44.93627" lon="5.02363">
        <ele>203.52099609375</ele>
        <time>2009-06-10T15:10:03Z</time>
      </trkpt>
      <trkpt lat="44.93633" lon="5.02359">
        <ele>202.92100524902</ele>
        <time>2009-06-10T15:10:04Z</time>
      </trkpt>
      <trkpt lat="44.93639" lon="5.02355">
        <ele>203.00799560547</ele>
        <time>2009-06-10T15:10:05Z</time>
      </trkpt>
      <trkpt lat="44.93645" lon="5.02351">
        <ele>203.00500488281</ele>
        <time>2009-06-10T15:10:06Z</time>
      </trkpt>
      <trkpt lat="44.93657" lon="5.02343">
        <ele>203.06599426269</ele>
        <time>2009-06-10T15:10:08Z</time>
      </trkpt>
      <trkpt lat="44.9374" lon="5.02289">
        <ele>202.0890045166</ele>
        <time>2009-06-10T15:10:21Z</time>
      </trkpt>
      <trkpt lat="44.93806" lon="5.02235">
        <ele>200.54800415039</ele>
        <time>2009-06-10T15:10:31Z</time>
      </trkpt>
      <trkpt lat="44.93832" lon="5.02178">
        <ele>198.97799682617</ele>
        <time>2009-06-10T15:10:37Z</time>
      </trkpt>
      <trkpt lat="44.93838" lon="5.02147">
        <ele>198.90100097656</ele>
        <time>2009-06-10T15:10:40Z</time>
      </trkpt>
      <trkpt lat="44.9384" lon="5.02137">
        <ele>198.79400634766</ele>
        <time>2009-06-10T15:10:41Z</time>
      </trkpt>
      <trkpt lat="44.93842" lon="5.02131">
        <ele>198.92799377441</ele>
        <time>2009-06-10T15:10:42Z</time>
      </trkpt>
      <trkpt lat="44.93842" lon="5.02131">
        <ele>198.3690032959</ele>
        <time>2009-06-10T15:10:43Z</time>
      </trkpt>
      <trkpt lat="44.93837" lon="5.0211">
        <ele>198.24099731445</ele>
        <time>2009-06-10T15:10:44Z</time>
      </trkpt>
      <trkpt lat="44.93826" lon="5.0206">
        <ele>198.42799377441</ele>
        <time>2009-06-10T15:10:49Z</time>
      </trkpt>
      <trkpt lat="44.93816" lon="5.02012">
        <ele>197.70100402832</ele>
        <time>2009-06-10T15:10:54Z</time>
      </trkpt>
      <trkpt lat="44.93804" lon="5.01915">
        <ele>197.53300476074</ele>
        <time>2009-06-10T15:11:04Z</time>
      </trkpt>
      <trkpt lat="44.93806" lon="5.01875">
        <ele>197.02299499512</ele>
        <time>2009-06-10T15:11:08Z</time>
      </trkpt>
      <trkpt lat="44.93814" lon="5.01677">
        <ele>195.43400573731</ele>
        <time>2009-06-10T15:11:27Z</time>
      </trkpt>
      <trkpt lat="44.93837" lon="5.01527">
        <ele>194.28100585938</ele>
        <time>2009-06-10T15:11:42Z</time>
      </trkpt>
      <trkpt lat="44.93885" lon="5.01313">
        <ele>192.09599304199</ele>
        <time>2009-06-10T15:12:03Z</time>
      </trkpt>
      <trkpt lat="44.9395" lon="5.01078">
        <ele>189.37800598144</ele>
        <time>2009-06-10T15:12:26Z</time>
      </trkpt>
      <trkpt lat="44.94023" lon="5.00814">
        <ele>186.60499572754</ele>
        <time>2009-06-10T15:12:52Z</time>
      </trkpt>
      <trkpt lat="44.94063" lon="5.00678">
        <ele>185.15699768066</ele>
        <time>2009-06-10T15:13:06Z</time>
      </trkpt>
      <trkpt lat="44.9413" lon="5.00454">
        <ele>182.21099853516</ele>
        <time>2009-06-10T15:13:28Z</time>
      </trkpt>
      <trkpt lat="44.94185" lon="5.00356">
        <ele>181.08200073242</ele>
        <time>2009-06-10T15:13:39Z</time>
      </trkpt>
      <trkpt lat="44.94287" lon="5.00224">
        <ele>178.10200500488</ele>
        <time>2009-06-10T15:13:56Z</time>
      </trkpt>
      <trkpt lat="44.94364" lon="5.00125">
        <ele>177.55000305176</ele>
        <time>2009-06-10T15:14:09Z</time>
      </trkpt>
      <trkpt lat="44.94416" lon="4.99937">
        <ele>175.63200378418</ele>
        <time>2009-06-10T15:14:27Z</time>
      </trkpt>
      <trkpt lat="44.94459" lon="4.99765">
        <ele>177.69799804688</ele>
        <time>2009-06-10T15:14:45Z</time>
      </trkpt>
      <trkpt lat="44.94469" lon="4.99685">
        <ele>179.59599304199</ele>
        <time>2009-06-10T15:14:55Z</time>
      </trkpt>
      <trkpt lat="44.94487" lon="4.99583">
        <ele>178.89300537109</ele>
        <time>2009-06-10T15:15:07Z</time>
      </trkpt>
      <trkpt lat="44.94504" lon="4.99511">
        <ele>176.23500061035</ele>
        <time>2009-06-10T15:15:14Z</time>
      </trkpt>
      <trkpt lat="44.94529" lon="4.99429">
        <ele>171.67399597168</ele>
        <time>2009-06-10T15:15:21Z</time>
      </trkpt>
      <trkpt lat="44.94558" lon="4.99334">
        <ele>170.36199951172</ele>
        <time>2009-06-10T15:15:29Z</time>
      </trkpt>
      <trkpt lat="44.94623" lon="4.99218">
        <ele>168.88800048828</ele>
        <time>2009-06-10T15:15:42Z</time>
      </trkpt>
      <trkpt lat="44.94737" lon="4.99022">
        <ele>167.2559967041</ele>
        <time>2009-06-10T15:16:05Z</time>
      </trkpt>
      <trkpt lat="44.94759" lon="4.98978">
        <ele>166.95500183106</ele>
        <time>2009-06-10T15:16:10Z</time>
      </trkpt>
      <trkpt lat="44.94772" lon="4.98928">
        <ele>166.63999938965</ele>
        <time>2009-06-10T15:16:15Z</time>
      </trkpt>
      <trkpt lat="44.94781" lon="4.98686">
        <ele>166.49600219727</ele>
        <time>2009-06-10T15:16:39Z</time>
      </trkpt>
      <trkpt lat="44.9478" lon="4.98491">
        <ele>165.63900756836</ele>
        <time>2009-06-10T15:16:59Z</time>
      </trkpt>
      <trkpt lat="44.94778" lon="4.98345">
        <ele>165.28500366211</ele>
        <time>2009-06-10T15:17:15Z</time>
      </trkpt>
      <trkpt lat="44.94765" lon="4.98219">
        <ele>163.88200378418</ele>
        <time>2009-06-10T15:17:29Z</time>
      </trkpt>
      <trkpt lat="44.9478" lon="4.98185">
        <ele>163.96200561523</ele>
        <time>2009-06-10T15:17:35Z</time>
      </trkpt>
      <trkpt lat="44.94839" lon="4.98196">
        <ele>164.03700256348</ele>
        <time>2009-06-10T15:17:45Z</time>
      </trkpt>
      <trkpt lat="44.94945" lon="4.98246">
        <ele>164.91200256348</ele>
        <time>2009-06-10T15:18:04Z</time>
      </trkpt>
      <trkpt lat="44.94992" lon="4.98282">
        <ele>165.01400756836</ele>
        <time>2009-06-10T15:18:13Z</time>
      </trkpt>
      <trkpt lat="44.95005" lon="4.98295">
        <ele>165.62699890137</ele>
        <time>2009-06-10T15:18:16Z</time>
      </trkpt>
      <trkpt lat="44.95023" lon="4.98282">
        <ele>165.90899658203</ele>
        <time>2009-06-10T15:18:23Z</time>
      </trkpt>
      <trkpt lat="44.95025" lon="4.98277">
        <ele>165.77900695801</ele>
        <time>2009-06-10T15:18:24Z</time>
      </trkpt>
      <trkpt lat="44.95064" lon="4.98175">
        <ele>164.4640045166</ele>
        <time>2009-06-10T15:18:40Z</time>
      </trkpt>
      <trkpt lat="44.95108" lon="4.98038">
        <ele>164.69999694824</ele>
        <time>2009-06-10T15:18:58Z</time>
      </trkpt>
      <trkpt lat="44.95132" lon="4.97963">
        <ele>164.43600463867</ele>
        <time>2009-06-10T15:19:07Z</time>
      </trkpt>
      <trkpt lat="44.9516" lon="4.97854">
        <ele>164.2140045166</ele>
        <time>2009-06-10T15:19:19Z</time>
      </trkpt>
      <trkpt lat="44.95168" lon="4.97817">
        <ele>163.85200500488</ele>
        <time>2009-06-10T15:19:23Z</time>
      </trkpt>
      <trkpt lat="44.95193" lon="4.97775">
        <ele>163.92900085449</ele>
        <time>2009-06-10T15:19:30Z</time>
      </trkpt>
      <trkpt lat="44.95284" lon="4.97719">
        <ele>165.23399353027</ele>
        <time>2009-06-10T15:19:43Z</time>
      </trkpt>
      <trkpt lat="44.95303" lon="4.97708">
        <ele>165.36700439453</ele>
        <time>2009-06-10T15:19:46Z</time>
      </trkpt>
      <trkpt lat="44.95334" lon="4.9767">
        <ele>165.49499511719</ele>
        <time>2009-06-10T15:19:52Z</time>
      </trkpt>
      <trkpt lat="44.95383" lon="4.97515">
        <ele>165.25900268555</ele>
        <time>2009-06-10T15:20:08Z</time>
      </trkpt>
      <trkpt lat="44.95425" lon="4.97398">
        <ele>163.87100219727</ele>
        <time>2009-06-10T15:20:19Z</time>
      </trkpt>
      <trkpt lat="44.95472" lon="4.97344">
        <ele>163.44799804688</ele>
        <time>2009-06-10T15:20:26Z</time>
      </trkpt>
      <trkpt lat="44.95622" lon="4.97287">
        <ele>164.19900512695</ele>
        <time>2009-06-10T15:20:44Z</time>
      </trkpt>
      <trkpt lat="44.9579" lon="4.97226">
        <ele>163.80900573731</ele>
        <time>2009-06-10T15:21:05Z</time>
      </trkpt>
      <trkpt lat="44.95953" lon="4.97162">
        <ele>165.81100463867</ele>
        <time>2009-06-10T15:21:24Z</time>
      </trkpt>
      <trkpt lat="44.96045" lon="4.97123">
        <ele>165.67399597168</ele>
        <time>2009-06-10T15:21:36Z</time>
      </trkpt>
      <trkpt lat="44.96061" lon="4.97114">
        <ele>166.1369934082</ele>
        <time>2009-06-10T15:21:39Z</time>
      </trkpt>
      <trkpt lat="44.96092" lon="4.97115">
        <ele>165.32899475098</ele>
        <time>2009-06-10T15:21:43Z</time>
      </trkpt>
      <trkpt lat="44.96121" lon="4.97086">
        <ele>164.65100097656</ele>
        <time>2009-06-10T15:21:48Z</time>
      </trkpt>
      <trkpt lat="44.96167" lon="4.97053">
        <ele>163.61000061035</ele>
        <time>2009-06-10T15:21:55Z</time>
      </trkpt>
      <trkpt lat="44.96211" lon="4.97022">
        <ele>163.18499755859</ele>
        <time>2009-06-10T15:22:01Z</time>
      </trkpt>
      <trkpt lat="44.96233" lon="4.97005">
        <ele>163.0359954834</ele>
        <time>2009-06-10T15:22:04Z</time>
      </trkpt>
      <trkpt lat="44.96287" lon="4.96901">
        <ele>163.29299926758</ele>
        <time>2009-06-10T15:22:16Z</time>
      </trkpt>
      <trkpt lat="44.96299" lon="4.9688">
        <ele>163.09899902344</ele>
        <time>2009-06-10T15:22:19Z</time>
      </trkpt>
      <trkpt lat="44.96318" lon="4.96863">
        <ele>162.72700500488</ele>
        <time>2009-06-10T15:22:23Z</time>
      </trkpt>
      <trkpt lat="44.96424" lon="4.9679">
        <ele>162.12100219727</ele>
        <time>2009-06-10T15:22:40Z</time>
      </trkpt>
      <trkpt lat="44.96577" lon="4.96684">
        <ele>162.47999572754</ele>
        <time>2009-06-10T15:23:03Z</time>
      </trkpt>
      <trkpt lat="44.96602" lon="4.96665">
        <ele>162.86799621582</ele>
        <time>2009-06-10T15:23:07Z</time>
      </trkpt>
      <trkpt lat="44.96716" lon="4.96511">
        <ele>162.32099914551</ele>
        <time>2009-06-10T15:23:29Z</time>
      </trkpt>
      <trkpt lat="44.96799" lon="4.96384">
        <ele>161.73300170898</ele>
        <time>2009-06-10T15:23:46Z</time>
      </trkpt>
      <trkpt lat="44.96826" lon="4.96337">
        <ele>161.44700622559</ele>
        <time>2009-06-10T15:23:52Z</time>
      </trkpt>
      <trkpt lat="44.96867" lon="4.9626">
        <ele>162.94900512695</ele>
        <time>2009-06-10T15:24:03Z</time>
      </trkpt>
      <trkpt lat="44.96927" lon="4.96138">
        <ele>160.07000732422</ele>
        <time>2009-06-10T15:24:17Z</time>
      </trkpt>
      <trkpt lat="44.96968" lon="4.96064">
        <ele>158.86700439453</ele>
        <time>2009-06-10T15:24:26Z</time>
      </trkpt>
      <trkpt lat="44.9699" lon="4.9602">
        <ele>157.60800170898</ele>
        <time>2009-06-10T15:24:31Z</time>
      </trkpt>
      <trkpt lat="44.96999" lon="4.96002">
        <ele>157.54299926758</ele>
        <time>2009-06-10T15:24:33Z</time>
      </trkpt>
      <trkpt lat="44.97003" lon="4.95993">
        <ele>157.46099853516</ele>
        <time>2009-06-10T15:24:34Z</time>
      </trkpt>
      <trkpt lat="44.97008" lon="4.95985">
        <ele>157.03500366211</ele>
        <time>2009-06-10T15:24:35Z</time>
      </trkpt>
      <trkpt lat="44.97023" lon="4.95964">
        <ele>157.66200256348</ele>
        <time>2009-06-10T15:24:38Z</time>
      </trkpt>
      <trkpt lat="44.97083" lon="4.95886">
        <ele>158.41900634766</ele>
        <time>2009-06-10T15:24:50Z</time>
      </trkpt>
      <trkpt lat="44.97165" lon="4.95772">
        <ele>159.94299316406</ele>
        <time>2009-06-10T15:25:09Z</time>
      </trkpt>
      <trkpt lat="44.97203" lon="4.95713">
        <ele>160.25700378418</ele>
        <time>2009-06-10T15:25:22Z</time>
      </trkpt>
      <trkpt lat="44.97203" lon="4.95713">
        <ele>160.88000488281</ele>
        <time>2009-06-10T15:25:33Z</time>
      </trkpt>
      <trkpt lat="44.97206" lon="4.95707">
        <ele>160.18200683594</ele>
        <time>2009-06-10T15:25:37Z</time>
      </trkpt>
      <trkpt lat="44.97198" lon="4.95694">
        <ele>159.55900573731</ele>
        <time>2009-06-10T15:25:40Z</time>
      </trkpt>
      <trkpt lat="44.97149" lon="4.95622">
        <ele>159.44900512695</ele>
        <time>2009-06-10T15:25:53Z</time>
      </trkpt>
      <trkpt lat="44.97097" lon="4.95527">
        <ele>159.35699462891</ele>
        <time>2009-06-10T15:26:07Z</time>
      </trkpt>
      <trkpt lat="44.97093" lon="4.95499">
        <ele>159.77099609375</ele>
        <time>2009-06-10T15:26:12Z</time>
      </trkpt>
      <trkpt lat="44.971" lon="4.95456">
        <ele>160.08099365234</ele>
        <time>2009-06-10T15:26:21Z</time>
      </trkpt>
      <trkpt lat="44.97095" lon="4.95449">
        <ele>160.11700439453</ele>
        <time>2009-06-10T15:26:28Z</time>
      </trkpt>
      <trkpt lat="44.97061" lon="4.95469">
        <ele>160.01600646973</ele>
        <time>2009-06-10T15:26:34Z</time>
      </trkpt>
      <trkpt lat="44.97063" lon="4.9547">
        <ele>159.71800231934</ele>
        <time>2009-06-10T15:26:39Z</time>
      </trkpt>
      <trkpt lat="44.97049" lon="4.95413">
        <ele>159.89399719238</ele>
        <time>2009-06-10T15:27:35Z</time>
      </trkpt>
      <trkpt lat="44.97089" lon="4.9544">
        <ele>159.71600341797</ele>
        <time>2009-06-10T15:27:46Z</time>
      </trkpt>
      <trkpt lat="44.97108" lon="4.95486">
        <ele>159.87300109863</ele>
        <time>2009-06-10T15:27:51Z</time>
      </trkpt>
      <trkpt lat="44.97095" lon="4.95449">
        <ele>159.46800231934</ele>
        <time>2009-06-10T15:28:01Z</time>
      </trkpt>
      <trkpt lat="44.97079" lon="4.95426">
        <ele>159.68699645996</ele>
        <time>2009-06-10T15:28:06Z</time>
      </trkpt>
      <trkpt lat="44.97063" lon="4.95402">
        <ele>159.8630065918</ele>
        <time>2009-06-10T15:28:19Z</time>
      </trkpt>
      <trkpt lat="44.97079" lon="4.95369">
        <ele>160.15699768066</ele>
        <time>2009-06-10T15:28:30Z</time>
      </trkpt>
      <trkpt lat="44.97103" lon="4.95334">
        <ele>159.65400695801</ele>
        <time>2009-06-10T15:28:43Z</time>
      </trkpt>
      <trkpt lat="44.97103" lon="4.95333">
        <ele>156.88499450684</ele>
        <time>2009-06-10T15:28:53Z</time>
      </trkpt>
      <trkpt lat="44.97142" lon="4.95281">
        <ele>156.16200256348</ele>
        <time>2009-06-10T15:28:54Z</time>
      </trkpt>
      <trkpt lat="44.97152" lon="4.95227">
        <ele>155.78500366211</ele>
        <time>2009-06-10T15:28:59Z</time>
      </trkpt>
      <trkpt lat="44.97173" lon="4.95172">
        <ele>158.86700439453</ele>
        <time>2009-06-10T15:29:07Z</time>
      </trkpt>
      <trkpt lat="44.97179" lon="4.95152">
        <ele>159.74899291992</ele>
        <time>2009-06-10T15:29:11Z</time>
      </trkpt>
      <trkpt lat="44.97186" lon="4.95131">
        <ele>160.94900512695</ele>
        <time>2009-06-10T15:29:15Z</time>
      </trkpt>
      <trkpt lat="44.97194" lon="4.95107">
        <ele>162.63600158691</ele>
        <time>2009-06-10T15:29:20Z</time>
      </trkpt>
      <trkpt lat="44.97203" lon="4.95086">
        <ele>163.61999511719</ele>
        <time>2009-06-10T15:29:25Z</time>
      </trkpt>
      <trkpt lat="44.97231" lon="4.95084">
        <ele>165.45300292969</ele>
        <time>2009-06-10T15:29:32Z</time>
      </trkpt>
      <trkpt lat="44.97234" lon="4.95084">
        <ele>165.58799743652</ele>
        <time>2009-06-10T15:29:33Z</time>
      </trkpt>
      <trkpt lat="44.97279" lon="4.95136">
        <ele>168.38900756836</ele>
        <time>2009-06-10T15:29:47Z</time>
      </trkpt>
      <trkpt lat="44.97343" lon="4.952">
        <ele>171.78100585938</ele>
        <time>2009-06-10T15:30:06Z</time>
      </trkpt>
      <trkpt lat="44.97399" lon="4.9525">
        <ele>173.07400512695</ele>
        <time>2009-06-10T15:30:22Z</time>
      </trkpt>
      <trkpt lat="44.97435" lon="4.95277">
        <ele>174.37800598144</ele>
        <time>2009-06-10T15:30:31Z</time>
      </trkpt>
      <trkpt lat="44.97464" lon="4.95299">
        <ele>174.47399902344</ele>
        <time>2009-06-10T15:30:38Z</time>
      </trkpt>
      <trkpt lat="44.97464" lon="4.95299">
        <ele>174.88000488281</ele>
        <time>2009-06-10T15:30:39Z</time>
      </trkpt>
      <trkpt lat="44.97553" lon="4.95337">
        <ele>177.19799804688</ele>
        <time>2009-06-10T15:30:58Z</time>
      </trkpt>
      <trkpt lat="44.97633" lon="4.9538">
        <ele>179.62899780273</ele>
        <time>2009-06-10T15:31:17Z</time>
      </trkpt>
      <trkpt lat="44.97665" lon="4.95397">
        <ele>181.30000305176</ele>
        <time>2009-06-10T15:31:25Z</time>
      </trkpt>
      <trkpt lat="44.97712" lon="4.95429">
        <ele>182.40800476074</ele>
        <time>2009-06-10T15:31:37Z</time>
      </trkpt>
      <trkpt lat="44.97795" lon="4.95484">
        <ele>185.42599487305</ele>
        <time>2009-06-10T15:31:58Z</time>
      </trkpt>
      <trkpt lat="44.97806" lon="4.95491">
        <ele>186.12600708008</ele>
        <time>2009-06-10T15:32:01Z</time>
      </trkpt>
      <trkpt lat="44.97856" lon="4.95457">
        <ele>187.5950012207</ele>
        <time>2009-06-10T15:32:14Z</time>
      </trkpt>
      <trkpt lat="44.97918" lon="4.95413">
        <ele>190.28100585938</ele>
        <time>2009-06-10T15:32:31Z</time>
      </trkpt>
      <trkpt lat="44.98009" lon="4.95365">
        <ele>190.95399475098</ele>
        <time>2009-06-10T15:32:52Z</time>
      </trkpt>
      <trkpt lat="44.98061" lon="4.95337">
        <ele>190.60699462891</ele>
        <time>2009-06-10T15:33:03Z</time>
      </trkpt>
      <trkpt lat="44.98084" lon="4.95338">
        <ele>191.26800537109</ele>
        <time>2009-06-10T15:33:08Z</time>
      </trkpt>
      <trkpt lat="44.98091" lon="4.95341">
        <ele>192.10600280762</ele>
        <time>2009-06-10T15:33:12Z</time>
      </trkpt>
      <trkpt lat="44.98095" lon="4.95342">
        <ele>191.31799316406</ele>
        <time>2009-06-10T15:33:35Z</time>
      </trkpt>
      <trkpt lat="44.98115" lon="4.9532">
        <ele>191.75199890137</ele>
        <time>2009-06-10T15:33:40Z</time>
      </trkpt>
      <trkpt lat="44.98199" lon="4.95271">
        <ele>191.91900634766</ele>
        <time>2009-06-10T15:33:58Z</time>
      </trkpt>
      <trkpt lat="44.98255" lon="4.9525">
        <ele>191.39100646973</ele>
        <time>2009-06-10T15:34:08Z</time>
      </trkpt>
      <trkpt lat="44.98357" lon="4.95204">
        <ele>190.79499816894</ele>
        <time>2009-06-10T15:34:25Z</time>
      </trkpt>
      <trkpt lat="44.98362" lon="4.95201">
        <ele>190.87899780273</ele>
        <time>2009-06-10T15:34:26Z</time>
      </trkpt>
      <trkpt lat="44.98426" lon="4.95103">
        <ele>191.84300231934</ele>
        <time>2009-06-10T15:34:41Z</time>
      </trkpt>
      <trkpt lat="44.9852" lon="4.95009">
        <ele>191.72099304199</ele>
        <time>2009-06-10T15:34:58Z</time>
      </trkpt>
      <trkpt lat="44.98573" lon="4.9491">
        <ele>191.65299987793</ele>
        <time>2009-06-10T15:35:11Z</time>
      </trkpt>
      <trkpt lat="44.98644" lon="4.94737">
        <ele>188.29699707031</ele>
        <time>2009-06-10T15:35:30Z</time>
      </trkpt>
      <trkpt lat="44.98693" lon="4.94695">
        <ele>188.32200622559</ele>
        <time>2009-06-10T15:35:37Z</time>
      </trkpt>
      <trkpt lat="44.98767" lon="4.94726">
        <ele>189.05000305176</ele>
        <time>2009-06-10T15:35:47Z</time>
      </trkpt>
      <trkpt lat="44.9882" lon="4.94717">
        <ele>188.31300354004</ele>
        <time>2009-06-10T15:35:54Z</time>
      </trkpt>
      <trkpt lat="44.98923" lon="4.94621">
        <ele>190.14599609375</ele>
        <time>2009-06-10T15:36:11Z</time>
      </trkpt>
      <trkpt lat="44.98996" lon="4.9455">
        <ele>191.43099975586</ele>
        <time>2009-06-10T15:36:24Z</time>
      </trkpt>
      <trkpt lat="44.99042" lon="4.94498">
        <ele>192.60099792481</ele>
        <time>2009-06-10T15:36:33Z</time>
      </trkpt>
      <trkpt lat="44.99083" lon="4.94392">
        <ele>193.09800720215</ele>
        <time>2009-06-10T15:36:46Z</time>
      </trkpt>
      <trkpt lat="44.99117" lon="4.94275">
        <ele>192.48899841309</ele>
        <time>2009-06-10T15:36:59Z</time>
      </trkpt>
      <trkpt lat="44.99144" lon="4.9423">
        <ele>192.85600280762</ele>
        <time>2009-06-10T15:37:05Z</time>
      </trkpt>
      <trkpt lat="44.99224" lon="4.94182">
        <ele>192.87199401856</ele>
        <time>2009-06-10T15:37:17Z</time>
      </trkpt>
      <trkpt lat="44.99303" lon="4.94067">
        <ele>192.84199523926</ele>
        <time>2009-06-10T15:37:32Z</time>
      </trkpt>
      <trkpt lat="44.99404" lon="4.93909">
        <ele>191.48599243164</ele>
        <time>2009-06-10T15:37:52Z</time>
      </trkpt>
      <trkpt lat="44.99511" lon="4.93844">
        <ele>191.14700317383</ele>
        <time>2009-06-10T15:38:07Z</time>
      </trkpt>
      <trkpt lat="44.99655" lon="4.93761">
        <ele>190.71600341797</ele>
        <time>2009-06-10T15:38:27Z</time>
      </trkpt>
      <trkpt lat="44.9981" lon="4.93666">
        <ele>190.50999450684</ele>
        <time>2009-06-10T15:38:48Z</time>
      </trkpt>
      <trkpt lat="44.99973" lon="4.93554">
        <ele>189.63499450684</ele>
        <time>2009-06-10T15:39:10Z</time>
      </trkpt>
      <trkpt lat="45.00166" lon="4.93434">
        <ele>188.64199829102</ele>
        <time>2009-06-10T15:39:35Z</time>
      </trkpt>
      <trkpt lat="45.00209" lon="4.93422">
        <ele>186.33799743652</ele>
        <time>2009-06-10T15:39:40Z</time>
      </trkpt>
      <trkpt lat="45.00257" lon="4.93412">
        <ele>183.90899658203</ele>
        <time>2009-06-10T15:39:45Z</time>
      </trkpt>
      <trkpt lat="45.00298" lon="4.93402">
        <ele>181.81399536133</ele>
        <time>2009-06-10T15:39:49Z</time>
      </trkpt>
      <trkpt lat="45.00326" lon="4.93393">
        <ele>179.77499389648</ele>
        <time>2009-06-10T15:39:52Z</time>
      </trkpt>
      <trkpt lat="45.00338" lon="4.93382">
        <ele>179.35800170898</ele>
        <time>2009-06-10T15:39:53Z</time>
      </trkpt>
      <trkpt lat="45.00355" lon="4.93358">
        <ele>177.80499267578</ele>
        <time>2009-06-10T15:39:55Z</time>
      </trkpt>
      <trkpt lat="45.00406" lon="4.93318">
        <ele>174.65400695801</ele>
        <time>2009-06-10T15:40:00Z</time>
      </trkpt>
      <trkpt lat="45.00466" lon="4.93327">
        <ele>170.50399780273</ele>
        <time>2009-06-10T15:40:05Z</time>
      </trkpt>
      <trkpt lat="45.0049" lon="4.93324">
        <ele>169.69400024414</ele>
        <time>2009-06-10T15:40:07Z</time>
      </trkpt>
      <trkpt lat="45.00586" lon="4.93284">
        <ele>163.17799377441</ele>
        <time>2009-06-10T15:40:15Z</time>
      </trkpt>
      <trkpt lat="45.00656" lon="4.93197">
        <ele>155.8630065918</ele>
        <time>2009-06-10T15:40:23Z</time>
      </trkpt>
      <trkpt lat="45.00669" lon="4.93152">
        <ele>153.25900268555</ele>
        <time>2009-06-10T15:40:26Z</time>
      </trkpt>
      <trkpt lat="45.00681" lon="4.93019">
        <ele>148.4940032959</ele>
        <time>2009-06-10T15:40:34Z</time>
      </trkpt>
      <trkpt lat="45.00714" lon="4.92833">
        <ele>145.2440032959</ele>
        <time>2009-06-10T15:40:47Z</time>
      </trkpt>
      <trkpt lat="45.00729" lon="4.92787">
        <ele>144.72399902344</ele>
        <time>2009-06-10T15:40:51Z</time>
      </trkpt>
      <trkpt lat="45.00763" lon="4.92759">
        <ele>145.08099365234</ele>
        <time>2009-06-10T15:40:56Z</time>
      </trkpt>
      <trkpt lat="45.0084" lon="4.92828">
        <ele>145.11999511719</ele>
        <time>2009-06-10T15:41:07Z</time>
      </trkpt>
      <trkpt lat="45.00858" lon="4.92845">
        <ele>145.28700256348</ele>
        <time>2009-06-10T15:41:10Z</time>
      </trkpt>
      <trkpt lat="45.00922" lon="4.92908">
        <ele>145.49899291992</ele>
        <time>2009-06-10T15:41:21Z</time>
      </trkpt>
      <trkpt lat="45.00963" lon="4.92949">
        <ele>145.62899780273</ele>
        <time>2009-06-10T15:41:28Z</time>
      </trkpt>
      <trkpt lat="45.01015" lon="4.93004">
        <ele>145.96499633789</ele>
        <time>2009-06-10T15:41:37Z</time>
      </trkpt>
      <trkpt lat="45.01145" lon="4.93139">
        <ele>146.23199462891</ele>
        <time>2009-06-10T15:42:00Z</time>
      </trkpt>
      <trkpt lat="45.01244" lon="4.93214">
        <ele>145.57699584961</ele>
        <time>2009-06-10T15:42:16Z</time>
      </trkpt>
      <trkpt lat="45.01294" lon="4.9324">
        <ele>143.88600158691</ele>
        <time>2009-06-10T15:42:23Z</time>
      </trkpt>
      <trkpt lat="45.01324" lon="4.93263">
        <ele>142.41999816894</ele>
        <time>2009-06-10T15:42:27Z</time>
      </trkpt>
      <trkpt lat="45.01344" lon="4.93296">
        <ele>140.61700439453</ele>
        <time>2009-06-10T15:42:30Z</time>
      </trkpt>
      <trkpt lat="45.01369" lon="4.93346">
        <ele>137.98699951172</ele>
        <time>2009-06-10T15:42:34Z</time>
      </trkpt>
      <trkpt lat="45.01397" lon="4.93412">
        <ele>135.85800170898</ele>
        <time>2009-06-10T15:42:39Z</time>
      </trkpt>
      <trkpt lat="45.01427" lon="4.93479">
        <ele>134.53500366211</ele>
        <time>2009-06-10T15:42:45Z</time>
      </trkpt>
      <trkpt lat="45.01453" lon="4.93551">
        <ele>133.80999755859</ele>
        <time>2009-06-10T15:42:52Z</time>
      </trkpt>
      <trkpt lat="45.01472" lon="4.93656">
        <ele>133.42799377441</ele>
        <time>2009-06-10T15:43:02Z</time>
      </trkpt>
      <trkpt lat="45.01476" lon="4.93705">
        <ele>132.88200378418</ele>
        <time>2009-06-10T15:43:07Z</time>
      </trkpt>
      <trkpt lat="45.01476" lon="4.93711">
        <ele>132.79200744629</ele>
        <time>2009-06-10T15:43:08Z</time>
      </trkpt>
      <trkpt lat="45.0148" lon="4.93745">
        <ele>132.67199707031</ele>
        <time>2009-06-10T15:43:14Z</time>
      </trkpt>
      <trkpt lat="45.01492" lon="4.9377">
        <ele>132.44500732422</ele>
        <time>2009-06-10T15:43:16Z</time>
      </trkpt>
      <trkpt lat="45.0151" lon="4.93833">
        <ele>132.18299865723</ele>
        <time>2009-06-10T15:43:26Z</time>
      </trkpt>
      <trkpt lat="45.01547" lon="4.93913">
        <ele>132.49800109863</ele>
        <time>2009-06-10T15:43:43Z</time>
      </trkpt>
      <trkpt lat="45.01558" lon="4.93929">
        <ele>132.3690032959</ele>
        <time>2009-06-10T15:43:48Z</time>
      </trkpt>
      <trkpt lat="45.01603" lon="4.93896">
        <ele>129.4700012207</ele>
        <time>2009-06-10T15:44:00Z</time>
      </trkpt>
      <trkpt lat="45.0165" lon="4.93855">
        <ele>129.18800354004</ele>
        <time>2009-06-10T15:44:08Z</time>
      </trkpt>
      <trkpt lat="45.01657" lon="4.93848">
        <ele>129.43899536133</ele>
        <time>2009-06-10T15:44:12Z</time>
      </trkpt>
      <trkpt lat="45.0173" lon="4.93781">
        <ele>130.61500549316</ele>
        <time>2009-06-10T15:44:23Z</time>
      </trkpt>
      <trkpt lat="45.0183" lon="4.93699">
        <ele>131.02099609375</ele>
        <time>2009-06-10T15:44:42Z</time>
      </trkpt>
      <trkpt lat="45.01874" lon="4.93669">
        <ele>131.72099304199</ele>
        <time>2009-06-10T15:44:51Z</time>
      </trkpt>
      <trkpt lat="45.01918" lon="4.93622">
        <ele>131.30000305176</ele>
        <time>2009-06-10T15:45:00Z</time>
      </trkpt>
      <trkpt lat="45.02" lon="4.93537">
        <ele>133.91700744629</ele>
        <time>2009-06-10T15:45:17Z</time>
      </trkpt>
      <trkpt lat="45.02072" lon="4.93476">
        <ele>135.37100219727</ele>
        <time>2009-06-10T15:45:31Z</time>
      </trkpt>
      <trkpt lat="45.02119" lon="4.93437">
        <ele>136.33099365234</ele>
        <time>2009-06-10T15:45:39Z</time>
      </trkpt>
      <trkpt lat="45.02154" lon="4.93408">
        <ele>136.0119934082</ele>
        <time>2009-06-10T15:45:44Z</time>
      </trkpt>
      <trkpt lat="45.02161" lon="4.93402">
        <ele>136.03900146484</ele>
        <time>2009-06-10T15:45:45Z</time>
      </trkpt>
      <trkpt lat="45.02245" lon="4.93355">
        <ele>136.18499755859</ele>
        <time>2009-06-10T15:45:57Z</time>
      </trkpt>
      <trkpt lat="45.0239" lon="4.93363">
        <ele>136.08799743652</ele>
        <time>2009-06-10T15:46:10Z</time>
      </trkpt>
      <trkpt lat="45.02531" lon="4.9336">
        <ele>136.21000671387</ele>
        <time>2009-06-10T15:46:23Z</time>
      </trkpt>
      <trkpt lat="45.02679" lon="4.93283">
        <ele>135.61399841309</ele>
        <time>2009-06-10T15:46:38Z</time>
      </trkpt>
      <trkpt lat="45.02787" lon="4.93208">
        <ele>137.02099609375</ele>
        <time>2009-06-10T15:46:52Z</time>
      </trkpt>
      <trkpt lat="45.02898" lon="4.93134">
        <ele>138.38299560547</ele>
        <time>2009-06-10T15:47:06Z</time>
      </trkpt>
      <trkpt lat="45.03008" lon="4.93093">
        <ele>138.52600097656</ele>
        <time>2009-06-10T15:47:20Z</time>
      </trkpt>
      <trkpt lat="45.03053" lon="4.93082">
        <ele>138.57699584961</ele>
        <time>2009-06-10T15:47:26Z</time>
      </trkpt>
      <trkpt lat="45.03099" lon="4.93078">
        <ele>138.71299743652</ele>
        <time>2009-06-10T15:47:32Z</time>
      </trkpt>
      <trkpt lat="45.03154" lon="4.93074">
        <ele>139.24200439453</ele>
        <time>2009-06-10T15:47:40Z</time>
      </trkpt>
      <trkpt lat="45.03169" lon="4.93066">
        <ele>139.30400085449</ele>
        <time>2009-06-10T15:47:43Z</time>
      </trkpt>
      <trkpt lat="45.03257" lon="4.93126">
        <ele>139.27200317383</ele>
        <time>2009-06-10T15:47:57Z</time>
      </trkpt>
      <trkpt lat="45.03326" lon="4.93177">
        <ele>139.02099609375</ele>
        <time>2009-06-10T15:48:07Z</time>
      </trkpt>
      <trkpt lat="45.03352" lon="4.93202">
        <ele>138.81799316406</ele>
        <time>2009-06-10T15:48:10Z</time>
      </trkpt>
      <trkpt lat="45.03379" lon="4.93232">
        <ele>140.02600097656</ele>
        <time>2009-06-10T15:48:13Z</time>
      </trkpt>
      <trkpt lat="45.03396" lon="4.93255">
        <ele>140.14399719238</ele>
        <time>2009-06-10T15:48:15Z</time>
      </trkpt>
      <trkpt lat="45.03414" lon="4.93278">
        <ele>140.55299377441</ele>
        <time>2009-06-10T15:48:17Z</time>
      </trkpt>
      <trkpt lat="45.0344" lon="4.93312">
        <ele>140.48500061035</ele>
        <time>2009-06-10T15:48:20Z</time>
      </trkpt>
      <trkpt lat="45.03449" lon="4.93323">
        <ele>140.44200134277</ele>
        <time>2009-06-10T15:48:21Z</time>
      </trkpt>
      <trkpt lat="45.03458" lon="4.93334">
        <ele>140.69000244141</ele>
        <time>2009-06-10T15:48:22Z</time>
      </trkpt>
      <trkpt lat="45.03475" lon="4.93357">
        <ele>140.07800292969</ele>
        <time>2009-06-10T15:48:24Z</time>
      </trkpt>
      <trkpt lat="45.03556" lon="4.93457">
        <ele>140.79699707031</ele>
        <time>2009-06-10T15:48:34Z</time>
      </trkpt>
      <trkpt lat="45.03702" lon="4.93606">
        <ele>141.10800170898</ele>
        <time>2009-06-10T15:48:52Z</time>
      </trkpt>
      <trkpt lat="45.03795" lon="4.93692">
        <ele>140.88800048828</ele>
        <time>2009-06-10T15:49:05Z</time>
      </trkpt>
      <trkpt lat="45.03859" lon="4.93741">
        <ele>141.72700500488</ele>
        <time>2009-06-10T15:49:15Z</time>
      </trkpt>
      <trkpt lat="45.03918" lon="4.938">
        <ele>141.52799987793</ele>
        <time>2009-06-10T15:49:26Z</time>
      </trkpt>
      <trkpt lat="45.0397" lon="4.93865">
        <ele>142.09800720215</ele>
        <time>2009-06-10T15:49:37Z</time>
      </trkpt>
      <trkpt lat="45.04013" lon="4.93915">
        <ele>141.71000671387</ele>
        <time>2009-06-10T15:49:46Z</time>
      </trkpt>
      <trkpt lat="45.04052" lon="4.93956">
        <ele>141.80499267578</ele>
        <time>2009-06-10T15:49:54Z</time>
      </trkpt>
      <trkpt lat="45.04081" lon="4.93985">
        <ele>141.63400268555</ele>
        <time>2009-06-10T15:50:00Z</time>
      </trkpt>
      <trkpt lat="45.04105" lon="4.9401">
        <ele>141.58299255371</ele>
        <time>2009-06-10T15:50:05Z</time>
      </trkpt>
      <trkpt lat="45.0421" lon="4.94114">
        <ele>143.37699890137</ele>
        <time>2009-06-10T15:50:28Z</time>
      </trkpt>
      <trkpt lat="45.04227" lon="4.94131">
        <ele>143.44400024414</ele>
        <time>2009-06-10T15:50:31Z</time>
      </trkpt>
      <trkpt lat="45.04318" lon="4.94218">
        <ele>144.33500671387</ele>
        <time>2009-06-10T15:50:51Z</time>
      </trkpt>
      <trkpt lat="45.04367" lon="4.94266">
        <ele>144.33700561523</ele>
        <time>2009-06-10T15:51:00Z</time>
      </trkpt>
      <trkpt lat="45.04485" lon="4.94363">
        <ele>143.6609954834</ele>
        <time>2009-06-10T15:51:19Z</time>
      </trkpt>
      <trkpt lat="45.04644" lon="4.94451">
        <ele>144.01899719238</ele>
        <time>2009-06-10T15:51:42Z</time>
      </trkpt>
      <trkpt lat="45.04752" lon="4.94518">
        <ele>143.95199584961</ele>
        <time>2009-06-10T15:51:59Z</time>
      </trkpt>
      <trkpt lat="45.0481" lon="4.94561">
        <ele>143.99099731445</ele>
        <time>2009-06-10T15:52:09Z</time>
      </trkpt>
      <trkpt lat="45.04913" lon="4.94639">
        <ele>144.35200500488</ele>
        <time>2009-06-10T15:52:27Z</time>
      </trkpt>
      <trkpt lat="45.05035" lon="4.94722">
        <ele>145.62600708008</ele>
        <time>2009-06-10T15:52:46Z</time>
      </trkpt>
      <trkpt lat="45.05138" lon="4.94742">
        <ele>147.0119934082</ele>
        <time>2009-06-10T15:53:02Z</time>
      </trkpt>
      <trkpt lat="45.05191" lon="4.94762">
        <ele>147.41600036621</ele>
        <time>2009-06-10T15:53:12Z</time>
      </trkpt>
      <trkpt lat="45.05206" lon="4.94771">
        <ele>147.57299804688</ele>
        <time>2009-06-10T15:53:15Z</time>
      </trkpt>
      <trkpt lat="45.05215" lon="4.94772">
        <ele>147.43699645996</ele>
        <time>2009-06-10T15:53:17Z</time>
      </trkpt>
      <trkpt lat="45.05244" lon="4.94775">
        <ele>146.8690032959</ele>
        <time>2009-06-10T15:53:26Z</time>
      </trkpt>
      <trkpt lat="45.05244" lon="4.94775">
        <ele>146.54899597168</ele>
        <time>2009-06-10T15:53:31Z</time>
      </trkpt>
      <trkpt lat="45.05275" lon="4.9483">
        <ele>144.14399719238</ele>
        <time>2009-06-10T15:53:40Z</time>
      </trkpt>
      <trkpt lat="45.05276" lon="4.94837">
        <ele>143.69700622559</ele>
        <time>2009-06-10T15:53:41Z</time>
      </trkpt>
      <trkpt lat="45.05294" lon="4.94879">
        <ele>142.37100219727</ele>
        <time>2009-06-10T15:53:47Z</time>
      </trkpt>
      <trkpt lat="45.05314" lon="4.94905">
        <ele>142.57299804688</ele>
        <time>2009-06-10T15:53:51Z</time>
      </trkpt>
      <trkpt lat="45.05335" lon="4.9493">
        <ele>143.86799621582</ele>
        <time>2009-06-10T15:53:55Z</time>
      </trkpt>
      <trkpt lat="45.05378" lon="4.95017">
        <ele>142.88800048828</ele>
        <time>2009-06-10T15:54:06Z</time>
      </trkpt>
      <trkpt lat="45.05384" lon="4.95036">
        <ele>143.38299560547</ele>
        <time>2009-06-10T15:54:08Z</time>
      </trkpt>
      <trkpt lat="45.05383" lon="4.95098">
        <ele>143.41400146484</ele>
        <time>2009-06-10T15:54:14Z</time>
      </trkpt>
      <trkpt lat="45.05392" lon="4.9513">
        <ele>143.37600708008</ele>
        <time>2009-06-10T15:54:18Z</time>
      </trkpt>
      <trkpt lat="45.05444" lon="4.95208">
        <ele>144.6609954834</ele>
        <time>2009-06-10T15:54:30Z</time>
      </trkpt>
      <trkpt lat="45.05468" lon="4.95275">
        <ele>146.0059967041</ele>
        <time>2009-06-10T15:54:39Z</time>
      </trkpt>
      <trkpt lat="45.05479" lon="4.95341">
        <ele>146.8390045166</ele>
        <time>2009-06-10T15:54:47Z</time>
      </trkpt>
      <trkpt lat="45.05496" lon="4.9544">
        <ele>149.4940032959</ele>
        <time>2009-06-10T15:54:58Z</time>
      </trkpt>
      <trkpt lat="45.0551" lon="4.95526">
        <ele>149.79299926758</ele>
        <time>2009-06-10T15:55:09Z</time>
      </trkpt>
      <trkpt lat="45.05531" lon="4.95645">
        <ele>147.01300048828</ele>
        <time>2009-06-10T15:55:23Z</time>
      </trkpt>
      <trkpt lat="45.0555" lon="4.95757">
        <ele>147.8809967041</ele>
        <time>2009-06-10T15:55:35Z</time>
      </trkpt>
      <trkpt lat="45.05556" lon="4.95793">
        <ele>147.03300476074</ele>
        <time>2009-06-10T15:55:39Z</time>
      </trkpt>
      <trkpt lat="45.0558" lon="4.95935">
        <ele>148.18600463867</ele>
        <time>2009-06-10T15:55:54Z</time>
      </trkpt>
      <trkpt lat="45.056" lon="4.96077">
        <ele>148.14500427246</ele>
        <time>2009-06-10T15:56:09Z</time>
      </trkpt>
      <trkpt lat="45.05634" lon="4.96255">
        <ele>149.64599609375</ele>
        <time>2009-06-10T15:56:29Z</time>
      </trkpt>
      <trkpt lat="45.05659" lon="4.96355">
        <ele>151.12699890137</ele>
        <time>2009-06-10T15:56:44Z</time>
      </trkpt>
      <trkpt lat="45.0566" lon="4.9636">
        <ele>151.25700378418</ele>
        <time>2009-06-10T15:56:48Z</time>
      </trkpt>
      <trkpt lat="45.05661" lon="4.96363">
        <ele>151.11700439453</ele>
        <time>2009-06-10T15:57:00Z</time>
      </trkpt>
      <trkpt lat="45.05661" lon="4.96363">
        <ele>150.95100402832</ele>
        <time>2009-06-10T15:57:01Z</time>
      </trkpt>
      <trkpt lat="45.05675" lon="4.96367">
        <ele>151.09399414062</ele>
        <time>2009-06-10T15:57:06Z</time>
      </trkpt>
      <trkpt lat="45.05765" lon="4.96389">
        <ele>152.97300720215</ele>
        <time>2009-06-10T15:57:24Z</time>
      </trkpt>
      <trkpt lat="45.05897" lon="4.96422">
        <ele>156.12600708008</ele>
        <time>2009-06-10T15:57:48Z</time>
      </trkpt>
      <trkpt lat="45.06019" lon="4.96449">
        <ele>157.02099609375</ele>
        <time>2009-06-10T15:58:08Z</time>
      </trkpt>
      <trkpt lat="45.06126" lon="4.96438">
        <ele>157.17199707031</ele>
        <time>2009-06-10T15:58:24Z</time>
      </trkpt>
      <trkpt lat="45.06219" lon="4.96403">
        <ele>158.1190032959</ele>
        <time>2009-06-10T15:58:39Z</time>
      </trkpt>
      <trkpt lat="45.06333" lon="4.96375">
        <ele>156.10200500488</ele>
        <time>2009-06-10T15:58:55Z</time>
      </trkpt>
      <trkpt lat="45.06356" lon="4.96373">
        <ele>156.28700256348</ele>
        <time>2009-06-10T15:58:58Z</time>
      </trkpt>
      <trkpt lat="45.06459" lon="4.96364">
        <ele>152.48100280762</ele>
        <time>2009-06-10T15:59:11Z</time>
      </trkpt>
      <trkpt lat="45.06527" lon="4.96359">
        <ele>151.23100280762</ele>
        <time>2009-06-10T15:59:20Z</time>
      </trkpt>
      <trkpt lat="45.06683" lon="4.96271">
        <ele>150.80400085449</ele>
        <time>2009-06-10T15:59:39Z</time>
      </trkpt>
      <trkpt lat="45.06795" lon="4.96204">
        <ele>152.17799377441</ele>
        <time>2009-06-10T15:59:56Z</time>
      </trkpt>
      <trkpt lat="45.0685" lon="4.96118">
        <ele>150.72200012207</ele>
        <time>2009-06-10T16:00:08Z</time>
      </trkpt>
      <trkpt lat="45.06936" lon="4.96031">
        <ele>150.75900268555</ele>
        <time>2009-06-10T16:00:21Z</time>
      </trkpt>
      <trkpt lat="45.07063" lon="4.95944">
        <ele>151.07699584961</ele>
        <time>2009-06-10T16:00:38Z</time>
      </trkpt>
      <trkpt lat="45.07172" lon="4.95864">
        <ele>151.48399353027</ele>
        <time>2009-06-10T16:00:53Z</time>
      </trkpt>
      <trkpt lat="45.07214" lon="4.9585">
        <ele>152.18400573731</ele>
        <time>2009-06-10T16:00:58Z</time>
      </trkpt>
      <trkpt lat="45.07318" lon="4.95857">
        <ele>153.92900085449</ele>
        <time>2009-06-10T16:01:11Z</time>
      </trkpt>
      <trkpt lat="45.07416" lon="4.95861">
        <ele>155.72799682617</ele>
        <time>2009-06-10T16:01:24Z</time>
      </trkpt>
      <trkpt lat="45.07531" lon="4.9585">
        <ele>156.30000305176</ele>
        <time>2009-06-10T16:01:40Z</time>
      </trkpt>
      <trkpt lat="45.07623" lon="4.95835">
        <ele>156.76100158691</ele>
        <time>2009-06-10T16:01:53Z</time>
      </trkpt>
      <trkpt lat="45.07658" lon="4.95832">
        <ele>156.28300476074</ele>
        <time>2009-06-10T16:01:58Z</time>
      </trkpt>
      <trkpt lat="45.07707" lon="4.95834">
        <ele>156.4700012207</ele>
        <time>2009-06-10T16:02:05Z</time>
      </trkpt>
      <trkpt lat="45.07764" lon="4.95829">
        <ele>157.19099426269</ele>
        <time>2009-06-10T16:02:14Z</time>
      </trkpt>
      <trkpt lat="45.07849" lon="4.95841">
        <ele>157.38900756836</ele>
        <time>2009-06-10T16:02:27Z</time>
      </trkpt>
      <trkpt lat="45.07956" lon="4.9586">
        <ele>158.09300231934</ele>
        <time>2009-06-10T16:02:43Z</time>
      </trkpt>
      <trkpt lat="45.07982" lon="4.95863">
        <ele>158.31399536133</ele>
        <time>2009-06-10T16:02:47Z</time>
      </trkpt>
      <trkpt lat="45.07999" lon="4.95865">
        <ele>159.84700012207</ele>
        <time>2009-06-10T16:02:51Z</time>
      </trkpt>
      <trkpt lat="45.08025" lon="4.95868">
        <ele>159.70399475098</ele>
        <time>2009-06-10T16:02:54Z</time>
      </trkpt>
      <trkpt lat="45.08046" lon="4.9587">
        <ele>160.22099304199</ele>
        <time>2009-06-10T16:02:58Z</time>
      </trkpt>
      <trkpt lat="45.08055" lon="4.9587">
        <ele>160.58000183106</ele>
        <time>2009-06-10T16:03:00Z</time>
      </trkpt>
      <trkpt lat="45.08089" lon="4.95872">
        <ele>160.95199584961</ele>
        <time>2009-06-10T16:03:08Z</time>
      </trkpt>
      <trkpt lat="45.08152" lon="4.95883">
        <ele>162.55599975586</ele>
        <time>2009-06-10T16:03:21Z</time>
      </trkpt>
      <trkpt lat="45.08201" lon="4.95902">
        <ele>164.11999511719</ele>
        <time>2009-06-10T16:03:31Z</time>
      </trkpt>
      <trkpt lat="45.08257" lon="4.95907">
        <ele>164.82800292969</ele>
        <time>2009-06-10T16:03:42Z</time>
      </trkpt>
      <trkpt lat="45.0828" lon="4.95902">
        <ele>164.9640045166</ele>
        <time>2009-06-10T16:03:46Z</time>
      </trkpt>
      <trkpt lat="45.08318" lon="4.95858">
        <ele>164.66900634766</ele>
        <time>2009-06-10T16:03:54Z</time>
      </trkpt>
      <trkpt lat="45.08334" lon="4.95841">
        <ele>165.31399536133</ele>
        <time>2009-06-10T16:03:57Z</time>
      </trkpt>
      <trkpt lat="45.08418" lon="4.95804">
        <ele>165.13299560547</ele>
        <time>2009-06-10T16:04:10Z</time>
      </trkpt>
      <trkpt lat="45.08511" lon="4.95766">
        <ele>166.41299438477</ele>
        <time>2009-06-10T16:04:24Z</time>
      </trkpt>
      <trkpt lat="45.08523" lon="4.95759">
        <ele>165.82800292969</ele>
        <time>2009-06-10T16:04:26Z</time>
      </trkpt>
      <trkpt lat="45.08618" lon="4.95735">
        <ele>165.73100280762</ele>
        <time>2009-06-10T16:04:40Z</time>
      </trkpt>
      <trkpt lat="45.08703" lon="4.95726">
        <ele>166.73699951172</ele>
        <time>2009-06-10T16:04:53Z</time>
      </trkpt>
      <trkpt lat="45.08806" lon="4.95716">
        <ele>167.28399658203</ele>
        <time>2009-06-10T16:05:09Z</time>
      </trkpt>
      <trkpt lat="45.08826" lon="4.95708">
        <ele>166.95899963379</ele>
        <time>2009-06-10T16:05:12Z</time>
      </trkpt>
      <trkpt lat="45.08858" lon="4.95709">
        <ele>166.77000427246</ele>
        <time>2009-06-10T16:05:17Z</time>
      </trkpt>
      <trkpt lat="45.08871" lon="4.95726">
        <ele>167.03999328613</ele>
        <time>2009-06-10T16:05:20Z</time>
      </trkpt>
      <trkpt lat="45.0889" lon="4.95748">
        <ele>167.56599426269</ele>
        <time>2009-06-10T16:05:24Z</time>
      </trkpt>
      <trkpt lat="45.08915" lon="4.95771">
        <ele>166.96200561523</ele>
        <time>2009-06-10T16:05:29Z</time>
      </trkpt>
      <trkpt lat="45.09003" lon="4.95854">
        <ele>168.31700134277</ele>
        <time>2009-06-10T16:05:47Z</time>
      </trkpt>
      <trkpt lat="45.09082" lon="4.95927">
        <ele>169.78500366211</ele>
        <time>2009-06-10T16:06:02Z</time>
      </trkpt>
      <trkpt lat="45.09124" lon="4.96">
        <ele>169.86700439453</ele>
        <time>2009-06-10T16:06:13Z</time>
      </trkpt>
      <trkpt lat="45.09171" lon="4.96118">
        <ele>172.00100708008</ele>
        <time>2009-06-10T16:06:29Z</time>
      </trkpt>
      <trkpt lat="45.09225" lon="4.96193">
        <ele>173.9109954834</ele>
        <time>2009-06-10T16:06:42Z</time>
      </trkpt>
      <trkpt lat="45.09301" lon="4.96297">
        <ele>176.45300292969</ele>
        <time>2009-06-10T16:07:01Z</time>
      </trkpt>
      <trkpt lat="45.09348" lon="4.96348">
        <ele>177.54200744629</ele>
        <time>2009-06-10T16:07:13Z</time>
      </trkpt>
      <trkpt lat="45.09357" lon="4.96356">
        <ele>177.87600708008</ele>
        <time>2009-06-10T16:07:15Z</time>
      </trkpt>
      <trkpt lat="45.09439" lon="4.96385">
        <ele>180.81799316406</ele>
        <time>2009-06-10T16:07:35Z</time>
      </trkpt>
      <trkpt lat="45.09509" lon="4.96409">
        <ele>182.80400085449</ele>
        <time>2009-06-10T16:07:52Z</time>
      </trkpt>
      <trkpt lat="45.09513" lon="4.96413">
        <ele>182.7859954834</ele>
        <time>2009-06-10T16:07:53Z</time>
      </trkpt>
      <trkpt lat="45.09585" lon="4.96488">
        <ele>184.76300048828</ele>
        <time>2009-06-10T16:08:11Z</time>
      </trkpt>
      <trkpt lat="45.09593" lon="4.96494">
        <ele>185.42300415039</ele>
        <time>2009-06-10T16:08:13Z</time>
      </trkpt>
      <trkpt lat="45.09608" lon="4.96506">
        <ele>186.70399475098</ele>
        <time>2009-06-10T16:08:17Z</time>
      </trkpt>
      <trkpt lat="45.0964" lon="4.96534">
        <ele>189.99200439453</ele>
        <time>2009-06-10T16:08:26Z</time>
      </trkpt>
      <trkpt lat="45.09644" lon="4.96537">
        <ele>190.38400268555</ele>
        <time>2009-06-10T16:08:27Z</time>
      </trkpt>
      <trkpt lat="45.09659" lon="4.96549">
        <ele>191.22999572754</ele>
        <time>2009-06-10T16:08:31Z</time>
      </trkpt>
      <trkpt lat="45.09685" lon="4.96567">
        <ele>192.77499389648</ele>
        <time>2009-06-10T16:08:37Z</time>
      </trkpt>
      <trkpt lat="45.09734" lon="4.96606">
        <ele>200.21499633789</ele>
        <time>2009-06-10T16:08:48Z</time>
      </trkpt>
      <trkpt lat="45.09752" lon="4.96625">
        <ele>202.79899597168</ele>
        <time>2009-06-10T16:08:52Z</time>
      </trkpt>
      <trkpt lat="45.0976" lon="4.96637">
        <ele>203.71099853516</ele>
        <time>2009-06-10T16:08:54Z</time>
      </trkpt>
      <trkpt lat="45.09761" lon="4.96663">
        <ele>204.18800354004</ele>
        <time>2009-06-10T16:08:58Z</time>
      </trkpt>
      <trkpt lat="45.09748" lon="4.96746">
        <ele>203.96299743652</ele>
        <time>2009-06-10T16:09:16Z</time>
      </trkpt>
      <trkpt lat="45.09759" lon="4.96783">
        <ele>203.7859954834</ele>
        <time>2009-06-10T16:09:26Z</time>
      </trkpt>
      <trkpt lat="45.09769" lon="4.96796">
        <ele>203.82600402832</ele>
        <time>2009-06-10T16:09:31Z</time>
      </trkpt>
      <trkpt lat="45.09781" lon="4.96809">
        <ele>205.00100708008</ele>
        <time>2009-06-10T16:09:37Z</time>
      </trkpt>
      <trkpt lat="45.09797" lon="4.96827">
        <ele>205.77600097656</ele>
        <time>2009-06-10T16:09:46Z</time>
      </trkpt>
      <trkpt lat="45.09829" lon="4.96863">
        <ele>207.06500244141</ele>
        <time>2009-06-10T16:09:58Z</time>
      </trkpt>
      <trkpt lat="45.09886" lon="4.96912">
        <ele>207.93499755859</ele>
        <time>2009-06-10T16:10:15Z</time>
      </trkpt>
      <trkpt lat="45.09922" lon="4.9693">
        <ele>208.30599975586</ele>
        <time>2009-06-10T16:10:24Z</time>
      </trkpt>
      <trkpt lat="45.09961" lon="4.96947">
        <ele>208.95700073242</ele>
        <time>2009-06-10T16:10:33Z</time>
      </trkpt>
      <trkpt lat="45.10046" lon="4.96985">
        <ele>209.94000244141</ele>
        <time>2009-06-10T16:10:52Z</time>
      </trkpt>
      <trkpt lat="45.10118" lon="4.97016">
        <ele>211.5299987793</ele>
        <time>2009-06-10T16:11:08Z</time>
      </trkpt>
      <trkpt lat="45.10172" lon="4.9704">
        <ele>211.95500183106</ele>
        <time>2009-06-10T16:11:20Z</time>
      </trkpt>
      <trkpt lat="45.10209" lon="4.97033">
        <ele>211.8390045166</ele>
        <time>2009-06-10T16:11:28Z</time>
      </trkpt>
      <trkpt lat="45.10231" lon="4.97008">
        <ele>210.91400146484</ele>
        <time>2009-06-10T16:11:33Z</time>
      </trkpt>
      <trkpt lat="45.10265" lon="4.96993">
        <ele>210.55099487305</ele>
        <time>2009-06-10T16:11:39Z</time>
      </trkpt>
      <trkpt lat="45.10325" lon="4.97056">
        <ele>211.11199951172</ele>
        <time>2009-06-10T16:11:51Z</time>
      </trkpt>
      <trkpt lat="45.1034" lon="4.97071">
        <ele>211.31100463867</ele>
        <time>2009-06-10T16:11:54Z</time>
      </trkpt>
      <trkpt lat="45.10344" lon="4.97076">
        <ele>211.50900268555</ele>
        <time>2009-06-10T16:11:55Z</time>
      </trkpt>
      <trkpt lat="45.10371" lon="4.97104">
        <ele>212.13299560547</ele>
        <time>2009-06-10T16:12:01Z</time>
      </trkpt>
      <trkpt lat="45.10395" lon="4.97123">
        <ele>212.55299377441</ele>
        <time>2009-06-10T16:12:06Z</time>
      </trkpt>
      <trkpt lat="45.10418" lon="4.97122">
        <ele>212.92599487305</ele>
        <time>2009-06-10T16:12:12Z</time>
      </trkpt>
      <trkpt lat="45.10452" lon="4.97045">
        <ele>212.39300537109</ele>
        <time>2009-06-10T16:12:24Z</time>
      </trkpt>
      <trkpt lat="45.10474" lon="4.96984">
        <ele>212.33599853516</ele>
        <time>2009-06-10T16:12:34Z</time>
      </trkpt>
      <trkpt lat="45.10487" lon="4.96978">
        <ele>212.02099609375</ele>
        <time>2009-06-10T16:12:38Z</time>
      </trkpt>
      <trkpt lat="45.10517" lon="4.97004">
        <ele>212.29499816894</ele>
        <time>2009-06-10T16:12:46Z</time>
      </trkpt>
      <trkpt lat="45.10582" lon="4.97048">
        <ele>212.85899353027</ele>
        <time>2009-06-10T16:13:01Z</time>
      </trkpt>
      <trkpt lat="45.10687" lon="4.9712">
        <ele>213.87600708008</ele>
        <time>2009-06-10T16:13:22Z</time>
      </trkpt>
      <trkpt lat="45.10782" lon="4.97209">
        <ele>214.65800476074</ele>
        <time>2009-06-10T16:13:41Z</time>
      </trkpt>
      <trkpt lat="45.10882" lon="4.97314">
        <ele>215.72399902344</ele>
        <time>2009-06-10T16:14:02Z</time>
      </trkpt>
      <trkpt lat="45.10978" lon="4.97414">
        <ele>216.95399475098</ele>
        <time>2009-06-10T16:14:23Z</time>
      </trkpt>
      <trkpt lat="45.11069" lon="4.97512">
        <ele>218.4049987793</ele>
        <time>2009-06-10T16:14:44Z</time>
      </trkpt>
      <trkpt lat="45.11135" lon="4.97584">
        <ele>215.64100646973</ele>
        <time>2009-06-10T16:14:59Z</time>
      </trkpt>
      <trkpt lat="45.11175" lon="4.97615">
        <ele>211.14399719238</ele>
        <time>2009-06-10T16:15:05Z</time>
      </trkpt>
      <trkpt lat="45.11213" lon="4.97624">
        <ele>205.62800598144</ele>
        <time>2009-06-10T16:15:09Z</time>
      </trkpt>
      <trkpt lat="45.11247" lon="4.97608">
        <ele>201.96800231934</ele>
        <time>2009-06-10T16:15:12Z</time>
      </trkpt>
      <trkpt lat="45.11311" lon="4.97597">
        <ele>195.14599609375</ele>
        <time>2009-06-10T16:15:17Z</time>
      </trkpt>
      <trkpt lat="45.11407" lon="4.97663">
        <ele>193.24299621582</ele>
        <time>2009-06-10T16:15:26Z</time>
      </trkpt>
      <trkpt lat="45.11438" lon="4.97696">
        <ele>192.72300720215</ele>
        <time>2009-06-10T16:15:29Z</time>
      </trkpt>
      <trkpt lat="45.11467" lon="4.97721">
        <ele>192.30700683594</ele>
        <time>2009-06-10T16:15:33Z</time>
      </trkpt>
      <trkpt lat="45.11491" lon="4.9773">
        <ele>190.98199462891</ele>
        <time>2009-06-10T16:15:36Z</time>
      </trkpt>
      <trkpt lat="45.11493" lon="4.97732">
        <ele>190.80299377441</ele>
        <time>2009-06-10T16:15:38Z</time>
      </trkpt>
      <trkpt lat="45.11529" lon="4.97884">
        <ele>191.01499938965</ele>
        <time>2009-06-10T16:15:52Z</time>
      </trkpt>
      <trkpt lat="45.11531" lon="4.97892">
        <ele>190.91400146484</ele>
        <time>2009-06-10T16:15:53Z</time>
      </trkpt>
      <trkpt lat="45.11535" lon="4.97913">
        <ele>191.11500549316</ele>
        <time>2009-06-10T16:15:56Z</time>
      </trkpt>
      <trkpt lat="45.1154" lon="4.97932">
        <ele>191.23500061035</ele>
        <time>2009-06-10T16:15:59Z</time>
      </trkpt>
      <trkpt lat="45.11545" lon="4.9794">
        <ele>191.29299926758</ele>
        <time>2009-06-10T16:16:01Z</time>
      </trkpt>
      <trkpt lat="45.11565" lon="4.97962">
        <ele>191.60499572754</ele>
        <time>2009-06-10T16:16:07Z</time>
      </trkpt>
      <trkpt lat="45.11599" lon="4.97989">
        <ele>191.56300354004</ele>
        <time>2009-06-10T16:16:16Z</time>
      </trkpt>
      <trkpt lat="45.11618" lon="4.97991">
        <ele>192.12800598144</ele>
        <time>2009-06-10T16:16:20Z</time>
      </trkpt>
      <trkpt lat="45.11701" lon="4.97958">
        <ele>192.36199951172</ele>
        <time>2009-06-10T16:16:38Z</time>
      </trkpt>
      <trkpt lat="45.11731" lon="4.97951">
        <ele>192.45199584961</ele>
        <time>2009-06-10T16:16:44Z</time>
      </trkpt>
      <trkpt lat="45.11745" lon="4.97947">
        <ele>192.42700195312</ele>
        <time>2009-06-10T16:16:47Z</time>
      </trkpt>
      <trkpt lat="45.1182" lon="4.97917">
        <ele>193.75500488281</ele>
        <time>2009-06-10T16:17:05Z</time>
      </trkpt>
      <trkpt lat="45.11823" lon="4.97917">
        <ele>193.79499816894</ele>
        <time>2009-06-10T16:17:08Z</time>
      </trkpt>
      <trkpt lat="45.11917" lon="4.97925">
        <ele>193.91799926758</ele>
        <time>2009-06-10T16:17:26Z</time>
      </trkpt>
      <trkpt lat="45.11985" lon="4.97933">
        <ele>194.5119934082</ele>
        <time>2009-06-10T16:17:41Z</time>
      </trkpt>
      <trkpt lat="45.12009" lon="4.97937">
        <ele>194.83999633789</ele>
        <time>2009-06-10T16:17:52Z</time>
      </trkpt>
      <trkpt lat="45.12009" lon="4.97937">
        <ele>195.26300048828</ele>
        <time>2009-06-10T16:18:05Z</time>
      </trkpt>
      <trkpt lat="45.12009" lon="4.97937">
        <ele>195.27900695801</ele>
        <time>2009-06-10T16:18:08Z</time>
      </trkpt>
      <trkpt lat="45.12015" lon="4.97932">
        <ele>194.91799926758</ele>
        <time>2009-06-10T16:18:18Z</time>
      </trkpt>
      <trkpt lat="45.12008" lon="4.97895">
        <ele>194.69200134277</ele>
        <time>2009-06-10T16:18:24Z</time>
      </trkpt>
      <trkpt lat="45.11976" lon="4.97726">
        <ele>193.89500427246</ele>
        <time>2009-06-10T16:18:44Z</time>
      </trkpt>
      <trkpt lat="45.11956" lon="4.97608">
        <ele>193.80499267578</ele>
        <time>2009-06-10T16:18:57Z</time>
      </trkpt>
      <trkpt lat="45.11949" lon="4.97571">
        <ele>193.39599609375</ele>
        <time>2009-06-10T16:19:01Z</time>
      </trkpt>
      <trkpt lat="45.11908" lon="4.97344">
        <ele>191.8450012207</ele>
        <time>2009-06-10T16:19:23Z</time>
      </trkpt>
      <trkpt lat="45.11884" lon="4.97209">
        <ele>192.01499938965</ele>
        <time>2009-06-10T16:19:37Z</time>
      </trkpt>
      <trkpt lat="45.11879" lon="4.97164">
        <ele>192.68200683594</ele>
        <time>2009-06-10T16:19:42Z</time>
      </trkpt>
      <trkpt lat="45.11883" lon="4.97098">
        <ele>193.6190032959</ele>
        <time>2009-06-10T16:19:50Z</time>
      </trkpt>
      <trkpt lat="45.11893" lon="4.97056">
        <ele>193.99200439453</ele>
        <time>2009-06-10T16:19:57Z</time>
      </trkpt>
      <trkpt lat="45.11888" lon="4.97054">
        <ele>194.09199523926</ele>
        <time>2009-06-10T16:20:00Z</time>
      </trkpt>
      <trkpt lat="45.11773" lon="4.96893">
        <ele>193.77699279785</ele>
        <time>2009-06-10T16:20:23Z</time>
      </trkpt>
      <trkpt lat="45.11759" lon="4.96866">
        <ele>193.34199523926</ele>
        <time>2009-06-10T16:20:27Z</time>
      </trkpt>
      <trkpt lat="45.11744" lon="4.96827">
        <ele>193.4940032959</ele>
        <time>2009-06-10T16:20:34Z</time>
      </trkpt>
      <trkpt lat="45.11726" lon="4.96817">
        <ele>193.01400756836</ele>
        <time>2009-06-10T16:20:36Z</time>
      </trkpt>
      <trkpt lat="45.11716" lon="4.96806">
        <ele>192.89100646973</ele>
        <time>2009-06-10T16:20:38Z</time>
      </trkpt>
      <trkpt lat="45.11644" lon="4.96664">
        <ele>191.41299438477</ele>
        <time>2009-06-10T16:20:57Z</time>
      </trkpt>
      <trkpt lat="45.1158" lon="4.96509">
        <ele>191.54499816894</ele>
        <time>2009-06-10T16:21:17Z</time>
      </trkpt>
      <trkpt lat="45.1158" lon="4.96457">
        <ele>192.98899841309</ele>
        <time>2009-06-10T16:21:26Z</time>
      </trkpt>
      <trkpt lat="45.11581" lon="4.96453">
        <ele>192.67799377441</ele>
        <time>2009-06-10T16:21:27Z</time>
      </trkpt>
      <trkpt lat="45.11581" lon="4.96444">
        <ele>193.50199890137</ele>
        <time>2009-06-10T16:21:32Z</time>
      </trkpt>
      <trkpt lat="45.11581" lon="4.96444">
        <ele>192.87699890137</ele>
        <time>2009-06-10T16:22:04Z</time>
      </trkpt>
      <trkpt lat="45.11581" lon="4.96444">
        <ele>192.96899414062</ele>
        <time>2009-06-10T16:22:05Z</time>
      </trkpt>
      <trkpt lat="45.11581" lon="4.96444">
        <ele>192.80700683594</ele>
        <time>2009-06-10T16:22:06Z</time>
      </trkpt>
      <trkpt lat="45.11581" lon="4.96444">
        <ele>192.68699645996</ele>
        <time>2009-06-10T16:22:23Z</time>
      </trkpt>
      <trkpt lat="45.11553" lon="4.96464">
        <ele>191.76499938965</ele>
        <time>2009-06-10T16:22:29Z</time>
      </trkpt>
      <trkpt lat="45.1155" lon="4.96458">
        <ele>191.73599243164</ele>
        <time>2009-06-10T16:22:31Z</time>
      </trkpt>
      <trkpt lat="45.11581" lon="4.9644">
        <ele>191.77900695801</ele>
        <time>2009-06-10T16:22:37Z</time>
      </trkpt>
      <trkpt lat="45.11545" lon="4.96451">
        <ele>192.26899719238</ele>
        <time>2009-06-10T16:23:06Z</time>
      </trkpt>
      <trkpt lat="45.11543" lon="4.96448">
        <ele>193.32299804688</ele>
        <time>2009-06-10T16:23:14Z</time>
      </trkpt>
      <trkpt lat="45.11544" lon="4.96449">
        <ele>193.36799621582</ele>
        <time>2009-06-10T16:23:15Z</time>
      </trkpt>
      <trkpt lat="45.11546" lon="4.96452">
        <ele>193.17199707031</ele>
        <time>2009-06-10T16:23:18Z</time>
      </trkpt>
      <trkpt lat="45.11546" lon="4.96453">
        <ele>193.50700378418</ele>
        <time>2009-06-10T16:23:28Z</time>
      </trkpt>
      <trkpt lat="45.11546" lon="4.96453">
        <ele>199.37899780273</ele>
        <time>2009-06-10T17:10:46Z</time>
      </trkpt>
      <trkpt lat="45.11546" lon="4.96453">
        <ele>199.35299682617</ele>
        <time>2009-06-10T17:10:47Z</time>
      </trkpt>
      <trkpt lat="45.11546" lon="4.96453">
        <ele>199.46699523926</ele>
        <time>2009-06-10T17:10:55Z</time>
      </trkpt>
      <trkpt lat="45.11546" lon="4.96453">
        <ele>199.40800476074</ele>
        <time>2009-06-10T17:11:06Z</time>
      </trkpt>
      <trkpt lat="45.11549" lon="4.96457">
        <ele>196.52200317383</ele>
        <time>2009-06-10T17:40:01Z</time>
      </trkpt>
      <trkpt lat="45.11549" lon="4.96457">
        <ele>195.63400268555</ele>
        <time>2009-06-10T17:40:05Z</time>
      </trkpt>
      <trkpt lat="45.11549" lon="4.96457">
        <ele>195.71600341797</ele>
        <time>2009-06-10T17:40:10Z</time>
      </trkpt>
    </trkseg>
  </trk>
</gpx>